<?xml version="1.0" encoding="UTF-8" standalone="no" ?>
<gpx xmlns="http://www.topografix.com/GPX/1/1" xmlns:xsi="http://www.w3.org/2001/XMLSchema-instance" xsi:schemaLocation="http://www.topografix.com/GPX/1/1 http://www.topografix.com/GPX/1/1/gpx.xsd" version="1.1" creator="VisuGPX - https://www.visugpx.com">
  <metadata>
    <name>SityTrail - tosse</name>
  </metadata>
  <trk>
    <name><![CDATA[SityTrail - tosse]]></name>
    <trkseg>
      <trkpt lat="43.69025" lon="-1.33383">
        <ele>25</ele>
        <time>2021-08-15T07:34:42.971Z</time>
      </trkpt>
      <trkpt lat="43.69029" lon="-1.33402">
        <ele>25</ele>
        <time>2021-08-15T07:34:46.962Z</time>
      </trkpt>
      <trkpt lat="43.69035" lon="-1.33427">
        <ele>25</ele>
        <time>2021-08-15T07:34:51.969Z</time>
      </trkpt>
      <trkpt lat="43.69038" lon="-1.33454">
        <ele>25</ele>
        <time>2021-08-15T07:34:56.956Z</time>
      </trkpt>
      <trkpt lat="43.69036" lon="-1.33475">
        <ele>24</ele>
        <time>2021-08-15T07:35:00.966Z</time>
      </trkpt>
      <trkpt lat="43.69035" lon="-1.33495">
        <ele>24</ele>
        <time>2021-08-15T07:35:04.957Z</time>
      </trkpt>
      <trkpt lat="43.69032" lon="-1.33517">
        <ele>24</ele>
        <time>2021-08-15T07:35:09.959Z</time>
      </trkpt>
      <trkpt lat="43.69029" lon="-1.33539">
        <ele>24</ele>
        <time>2021-08-15T07:35:14.942Z</time>
      </trkpt>
      <trkpt lat="43.6903" lon="-1.33564">
        <ele>25</ele>
        <time>2021-08-15T07:35:19.960Z</time>
      </trkpt>
      <trkpt lat="43.69034" lon="-1.3359">
        <ele>26</ele>
        <time>2021-08-15T07:35:24.961Z</time>
      </trkpt>
      <trkpt lat="43.69037" lon="-1.33613">
        <ele>27</ele>
        <time>2021-08-15T07:35:29.955Z</time>
      </trkpt>
      <trkpt lat="43.69039" lon="-1.33634">
        <ele>27</ele>
        <time>2021-08-15T07:35:34.967Z</time>
      </trkpt>
      <trkpt lat="43.6904" lon="-1.33656">
        <ele>27</ele>
        <time>2021-08-15T07:35:39.964Z</time>
      </trkpt>
      <trkpt lat="43.69042" lon="-1.33679">
        <ele>26</ele>
        <time>2021-08-15T07:35:44.956Z</time>
      </trkpt>
      <trkpt lat="43.69043" lon="-1.33702">
        <ele>26</ele>
        <time>2021-08-15T07:35:49.956Z</time>
      </trkpt>
      <trkpt lat="43.69044" lon="-1.33728">
        <ele>25</ele>
        <time>2021-08-15T07:35:54.964Z</time>
      </trkpt>
      <trkpt lat="43.69044" lon="-1.33752">
        <ele>25</ele>
        <time>2021-08-15T07:35:59.973Z</time>
      </trkpt>
      <trkpt lat="43.69046" lon="-1.33777">
        <ele>26</ele>
        <time>2021-08-15T07:36:04.962Z</time>
      </trkpt>
      <trkpt lat="43.69047" lon="-1.33796">
        <ele>26</ele>
        <time>2021-08-15T07:36:08.970Z</time>
      </trkpt>
      <trkpt lat="43.69047" lon="-1.3382">
        <ele>26</ele>
        <time>2021-08-15T07:36:13.956Z</time>
      </trkpt>
      <trkpt lat="43.69047" lon="-1.33844">
        <ele>26</ele>
        <time>2021-08-15T07:36:18.945Z</time>
      </trkpt>
      <trkpt lat="43.69048" lon="-1.33869">
        <ele>26</ele>
        <time>2021-08-15T07:36:23.966Z</time>
      </trkpt>
      <trkpt lat="43.6905" lon="-1.33894">
        <ele>26</ele>
        <time>2021-08-15T07:36:28.958Z</time>
      </trkpt>
      <trkpt lat="43.6905" lon="-1.33913">
        <ele>25</ele>
        <time>2021-08-15T07:36:32.965Z</time>
      </trkpt>
      <trkpt lat="43.69049" lon="-1.33937">
        <ele>25</ele>
        <time>2021-08-15T07:36:37.953Z</time>
      </trkpt>
      <trkpt lat="43.69047" lon="-1.3396">
        <ele>26</ele>
        <time>2021-08-15T07:36:42.963Z</time>
      </trkpt>
      <trkpt lat="43.69044" lon="-1.33987">
        <ele>25</ele>
        <time>2021-08-15T07:36:47.960Z</time>
      </trkpt>
      <trkpt lat="43.6904" lon="-1.34016">
        <ele>26</ele>
        <time>2021-08-15T07:36:52.963Z</time>
      </trkpt>
      <trkpt lat="43.69035" lon="-1.34048">
        <ele>25</ele>
        <time>2021-08-15T07:36:57.958Z</time>
      </trkpt>
      <trkpt lat="43.69029" lon="-1.34079">
        <ele>25</ele>
        <time>2021-08-15T07:37:02.957Z</time>
      </trkpt>
      <trkpt lat="43.69023" lon="-1.34103">
        <ele>25</ele>
        <time>2021-08-15T07:37:07.957Z</time>
      </trkpt>
      <trkpt lat="43.69018" lon="-1.34128">
        <ele>25</ele>
        <time>2021-08-15T07:37:12.958Z</time>
      </trkpt>
      <trkpt lat="43.69011" lon="-1.34151">
        <ele>27</ele>
        <time>2021-08-15T07:37:17.954Z</time>
      </trkpt>
      <trkpt lat="43.69003" lon="-1.34172">
        <ele>27</ele>
        <time>2021-08-15T07:37:22.961Z</time>
      </trkpt>
      <trkpt lat="43.68995" lon="-1.34192">
        <ele>29</ele>
        <time>2021-08-15T07:37:27.956Z</time>
      </trkpt>
      <trkpt lat="43.68987" lon="-1.34211">
        <ele>31</ele>
        <time>2021-08-15T07:37:32.956Z</time>
      </trkpt>
      <trkpt lat="43.68979" lon="-1.34229">
        <ele>32</ele>
        <time>2021-08-15T07:37:37.954Z</time>
      </trkpt>
      <trkpt lat="43.68978" lon="-1.34249">
        <ele>33</ele>
        <time>2021-08-15T07:37:42.937Z</time>
      </trkpt>
      <trkpt lat="43.68971" lon="-1.34264">
        <ele>34</ele>
        <time>2021-08-15T07:37:46.962Z</time>
      </trkpt>
      <trkpt lat="43.68965" lon="-1.34282">
        <ele>34</ele>
        <time>2021-08-15T07:37:51.952Z</time>
      </trkpt>
      <trkpt lat="43.68958" lon="-1.34304">
        <ele>34</ele>
        <time>2021-08-15T07:37:56.940Z</time>
      </trkpt>
      <trkpt lat="43.68953" lon="-1.34326">
        <ele>33</ele>
        <time>2021-08-15T07:38:01.964Z</time>
      </trkpt>
      <trkpt lat="43.68948" lon="-1.34347">
        <ele>33</ele>
        <time>2021-08-15T07:38:06.953Z</time>
      </trkpt>
      <trkpt lat="43.68944" lon="-1.34372">
        <ele>34</ele>
        <time>2021-08-15T07:38:11.959Z</time>
      </trkpt>
      <trkpt lat="43.68935" lon="-1.34394">
        <ele>35</ele>
        <time>2021-08-15T07:38:16.951Z</time>
      </trkpt>
      <trkpt lat="43.68929" lon="-1.34418">
        <ele>35</ele>
        <time>2021-08-15T07:38:21.952Z</time>
      </trkpt>
      <trkpt lat="43.68927" lon="-1.34435">
        <ele>35</ele>
        <time>2021-08-15T07:38:25.956Z</time>
      </trkpt>
      <trkpt lat="43.68924" lon="-1.34452">
        <ele>35</ele>
        <time>2021-08-15T07:38:29.964Z</time>
      </trkpt>
      <trkpt lat="43.68919" lon="-1.34475">
        <ele>34</ele>
        <time>2021-08-15T07:38:34.954Z</time>
      </trkpt>
      <trkpt lat="43.68913" lon="-1.34496">
        <ele>34</ele>
        <time>2021-08-15T07:38:39.939Z</time>
      </trkpt>
      <trkpt lat="43.68908" lon="-1.3452">
        <ele>34</ele>
        <time>2021-08-15T07:38:44.964Z</time>
      </trkpt>
      <trkpt lat="43.68903" lon="-1.34542">
        <ele>35</ele>
        <time>2021-08-15T07:38:49.951Z</time>
      </trkpt>
      <trkpt lat="43.68898" lon="-1.34565">
        <ele>34</ele>
        <time>2021-08-15T07:38:54.955Z</time>
      </trkpt>
      <trkpt lat="43.68891" lon="-1.34588">
        <ele>33</ele>
        <time>2021-08-15T07:38:59.960Z</time>
      </trkpt>
      <trkpt lat="43.68885" lon="-1.34611">
        <ele>32</ele>
        <time>2021-08-15T07:39:04.942Z</time>
      </trkpt>
      <trkpt lat="43.68882" lon="-1.34631">
        <ele>30</ele>
        <time>2021-08-15T07:39:09.941Z</time>
      </trkpt>
      <trkpt lat="43.68879" lon="-1.34648">
        <ele>30</ele>
        <time>2021-08-15T07:39:13.945Z</time>
      </trkpt>
      <trkpt lat="43.68877" lon="-1.34663">
        <ele>29</ele>
        <time>2021-08-15T07:39:17.953Z</time>
      </trkpt>
      <trkpt lat="43.6887" lon="-1.34678">
        <ele>31</ele>
        <time>2021-08-15T07:39:22.953Z</time>
      </trkpt>
      <trkpt lat="43.68855" lon="-1.34682">
        <ele>30</ele>
        <time>2021-08-15T07:39:27.965Z</time>
      </trkpt>
      <trkpt lat="43.68837" lon="-1.34682">
        <ele>30</ele>
        <time>2021-08-15T07:39:32.962Z</time>
      </trkpt>
      <trkpt lat="43.68821" lon="-1.34682">
        <ele>30</ele>
        <time>2021-08-15T07:39:37.955Z</time>
      </trkpt>
      <trkpt lat="43.68804" lon="-1.34683">
        <ele>32</ele>
        <time>2021-08-15T07:39:42.959Z</time>
      </trkpt>
      <trkpt lat="43.68786" lon="-1.34684">
        <ele>33</ele>
        <time>2021-08-15T07:39:47.949Z</time>
      </trkpt>
      <trkpt lat="43.6877" lon="-1.34685">
        <ele>33</ele>
        <time>2021-08-15T07:39:52.957Z</time>
      </trkpt>
      <trkpt lat="43.68752" lon="-1.34684">
        <ele>34</ele>
        <time>2021-08-15T07:39:57.961Z</time>
      </trkpt>
      <trkpt lat="43.68736" lon="-1.34682">
        <ele>34</ele>
        <time>2021-08-15T07:40:02.956Z</time>
      </trkpt>
      <trkpt lat="43.68721" lon="-1.34682">
        <ele>34</ele>
        <time>2021-08-15T07:40:07.939Z</time>
      </trkpt>
      <trkpt lat="43.68704" lon="-1.3468">
        <ele>34</ele>
        <time>2021-08-15T07:40:12.954Z</time>
      </trkpt>
      <trkpt lat="43.68687" lon="-1.34678">
        <ele>34</ele>
        <time>2021-08-15T07:40:17.952Z</time>
      </trkpt>
      <trkpt lat="43.6867" lon="-1.34678">
        <ele>33</ele>
        <time>2021-08-15T07:40:22.945Z</time>
      </trkpt>
      <trkpt lat="43.68651" lon="-1.34677">
        <ele>34</ele>
        <time>2021-08-15T07:40:27.949Z</time>
      </trkpt>
      <trkpt lat="43.68635" lon="-1.34678">
        <ele>34</ele>
        <time>2021-08-15T07:40:32.934Z</time>
      </trkpt>
      <trkpt lat="43.68623" lon="-1.34677">
        <ele>34</ele>
        <time>2021-08-15T07:40:36.949Z</time>
      </trkpt>
      <trkpt lat="43.68607" lon="-1.34678">
        <ele>34</ele>
        <time>2021-08-15T07:40:41.943Z</time>
      </trkpt>
      <trkpt lat="43.6859" lon="-1.34678">
        <ele>33</ele>
        <time>2021-08-15T07:40:46.960Z</time>
      </trkpt>
      <trkpt lat="43.68574" lon="-1.34678">
        <ele>33</ele>
        <time>2021-08-15T07:40:51.949Z</time>
      </trkpt>
      <trkpt lat="43.68561" lon="-1.34676">
        <ele>32</ele>
        <time>2021-08-15T07:40:56.957Z</time>
      </trkpt>
      <trkpt lat="43.68545" lon="-1.34676">
        <ele>32</ele>
        <time>2021-08-15T07:41:01.960Z</time>
      </trkpt>
      <trkpt lat="43.68528" lon="-1.34675">
        <ele>31</ele>
        <time>2021-08-15T07:41:06.957Z</time>
      </trkpt>
      <trkpt lat="43.68511" lon="-1.34674">
        <ele>30</ele>
        <time>2021-08-15T07:41:11.940Z</time>
      </trkpt>
      <trkpt lat="43.68493" lon="-1.34675">
        <ele>30</ele>
        <time>2021-08-15T07:41:16.957Z</time>
      </trkpt>
      <trkpt lat="43.68477" lon="-1.34675">
        <ele>29</ele>
        <time>2021-08-15T07:41:21.949Z</time>
      </trkpt>
      <trkpt lat="43.68459" lon="-1.34676">
        <ele>29</ele>
        <time>2021-08-15T07:41:26.958Z</time>
      </trkpt>
      <trkpt lat="43.68441" lon="-1.34676">
        <ele>28</ele>
        <time>2021-08-15T07:41:31.959Z</time>
      </trkpt>
      <trkpt lat="43.68424" lon="-1.34676">
        <ele>26</ele>
        <time>2021-08-15T07:41:36.952Z</time>
      </trkpt>
      <trkpt lat="43.68409" lon="-1.34675">
        <ele>26</ele>
        <time>2021-08-15T07:41:40.956Z</time>
      </trkpt>
      <trkpt lat="43.68391" lon="-1.34676">
        <ele>24</ele>
        <time>2021-08-15T07:41:45.956Z</time>
      </trkpt>
      <trkpt lat="43.68374" lon="-1.34677">
        <ele>24</ele>
        <time>2021-08-15T07:41:50.953Z</time>
      </trkpt>
      <trkpt lat="43.68356" lon="-1.34675">
        <ele>24</ele>
        <time>2021-08-15T07:41:55.960Z</time>
      </trkpt>
      <trkpt lat="43.68336" lon="-1.34671">
        <ele>23</ele>
        <time>2021-08-15T07:42:00.958Z</time>
      </trkpt>
      <trkpt lat="43.68318" lon="-1.3467">
        <ele>24</ele>
        <time>2021-08-15T07:42:05.947Z</time>
      </trkpt>
      <trkpt lat="43.683" lon="-1.3467">
        <ele>24</ele>
        <time>2021-08-15T07:42:10.950Z</time>
      </trkpt>
      <trkpt lat="43.68286" lon="-1.3467">
        <ele>24</ele>
        <time>2021-08-15T07:42:15.958Z</time>
      </trkpt>
      <trkpt lat="43.68283" lon="-1.34667">
        <ele>24</ele>
        <time>2021-08-15T07:42:20.940Z</time>
      </trkpt>
      <trkpt lat="43.68283" lon="-1.34666">
        <ele>24</ele>
        <time>2021-08-15T07:42:25.953Z</time>
      </trkpt>
      <trkpt lat="43.68285" lon="-1.34669">
        <ele>24</ele>
        <time>2021-08-15T07:42:45.939Z</time>
      </trkpt>
      <trkpt lat="43.68288" lon="-1.3467">
        <ele>24</ele>
        <time>2021-08-15T07:42:50.957Z</time>
      </trkpt>
      <trkpt lat="43.68297" lon="-1.34669">
        <ele>24</ele>
        <time>2021-08-15T07:42:54.967Z</time>
      </trkpt>
      <trkpt lat="43.68307" lon="-1.34666">
        <ele>24</ele>
        <time>2021-08-15T07:42:58.945Z</time>
      </trkpt>
      <trkpt lat="43.68322" lon="-1.34665">
        <ele>23</ele>
        <time>2021-08-15T07:43:02.947Z</time>
      </trkpt>
      <trkpt lat="43.68335" lon="-1.34668">
        <ele>23</ele>
        <time>2021-08-15T07:43:07.944Z</time>
      </trkpt>
      <trkpt lat="43.68351" lon="-1.34669">
        <ele>24</ele>
        <time>2021-08-15T07:43:12.952Z</time>
      </trkpt>
      <trkpt lat="43.68362" lon="-1.34675">
        <ele>24</ele>
        <time>2021-08-15T07:43:16.955Z</time>
      </trkpt>
      <trkpt lat="43.68376" lon="-1.34677">
        <ele>24</ele>
        <time>2021-08-15T07:43:21.936Z</time>
      </trkpt>
      <trkpt lat="43.68396" lon="-1.34678">
        <ele>24</ele>
        <time>2021-08-15T07:43:25.941Z</time>
      </trkpt>
      <trkpt lat="43.68417" lon="-1.34678">
        <ele>26</ele>
        <time>2021-08-15T07:43:30.942Z</time>
      </trkpt>
      <trkpt lat="43.68434" lon="-1.34676">
        <ele>28</ele>
        <time>2021-08-15T07:43:34.953Z</time>
      </trkpt>
      <trkpt lat="43.68452" lon="-1.34677">
        <ele>28</ele>
        <time>2021-08-15T07:43:39.953Z</time>
      </trkpt>
      <trkpt lat="43.68471" lon="-1.34676">
        <ele>29</ele>
        <time>2021-08-15T07:43:44.937Z</time>
      </trkpt>
      <trkpt lat="43.68493" lon="-1.34677">
        <ele>30</ele>
        <time>2021-08-15T07:43:49.955Z</time>
      </trkpt>
      <trkpt lat="43.68512" lon="-1.34677">
        <ele>30</ele>
        <time>2021-08-15T07:43:54.943Z</time>
      </trkpt>
      <trkpt lat="43.68529" lon="-1.34677">
        <ele>31</ele>
        <time>2021-08-15T07:43:59.955Z</time>
      </trkpt>
      <trkpt lat="43.68548" lon="-1.34675">
        <ele>32</ele>
        <time>2021-08-15T07:44:04.959Z</time>
      </trkpt>
      <trkpt lat="43.68567" lon="-1.34673">
        <ele>32</ele>
        <time>2021-08-15T07:44:09.949Z</time>
      </trkpt>
      <trkpt lat="43.6858" lon="-1.34675">
        <ele>33</ele>
        <time>2021-08-15T07:44:13.959Z</time>
      </trkpt>
      <trkpt lat="43.68597" lon="-1.34676">
        <ele>33</ele>
        <time>2021-08-15T07:44:18.951Z</time>
      </trkpt>
      <trkpt lat="43.68611" lon="-1.34675">
        <ele>34</ele>
        <time>2021-08-15T07:44:22.957Z</time>
      </trkpt>
      <trkpt lat="43.68627" lon="-1.34677">
        <ele>34</ele>
        <time>2021-08-15T07:44:27.961Z</time>
      </trkpt>
      <trkpt lat="43.68646" lon="-1.34678">
        <ele>34</ele>
        <time>2021-08-15T07:44:32.953Z</time>
      </trkpt>
      <trkpt lat="43.68666" lon="-1.34677">
        <ele>33</ele>
        <time>2021-08-15T07:44:37.948Z</time>
      </trkpt>
      <trkpt lat="43.6868" lon="-1.34678">
        <ele>33</ele>
        <time>2021-08-15T07:44:41.954Z</time>
      </trkpt>
      <trkpt lat="43.68698" lon="-1.34681">
        <ele>32</ele>
        <time>2021-08-15T07:44:46.960Z</time>
      </trkpt>
      <trkpt lat="43.68717" lon="-1.3468">
        <ele>36</ele>
        <time>2021-08-15T07:44:51.959Z</time>
      </trkpt>
      <trkpt lat="43.68733" lon="-1.34679">
        <ele>36</ele>
        <time>2021-08-15T07:44:55.962Z</time>
      </trkpt>
      <trkpt lat="43.68753" lon="-1.34679">
        <ele>34</ele>
        <time>2021-08-15T07:45:00.957Z</time>
      </trkpt>
      <trkpt lat="43.68773" lon="-1.34683">
        <ele>33</ele>
        <time>2021-08-15T07:45:05.935Z</time>
      </trkpt>
      <trkpt lat="43.68789" lon="-1.34682">
        <ele>33</ele>
        <time>2021-08-15T07:45:09.956Z</time>
      </trkpt>
      <trkpt lat="43.6881" lon="-1.34682">
        <ele>32</ele>
        <time>2021-08-15T07:45:14.957Z</time>
      </trkpt>
      <trkpt lat="43.68829" lon="-1.34681">
        <ele>30</ele>
        <time>2021-08-15T07:45:19.961Z</time>
      </trkpt>
      <trkpt lat="43.68845" lon="-1.34682">
        <ele>30</ele>
        <time>2021-08-15T07:45:24.961Z</time>
      </trkpt>
      <trkpt lat="43.68861" lon="-1.34682">
        <ele>30</ele>
        <time>2021-08-15T07:45:34.955Z</time>
      </trkpt>
      <trkpt lat="43.68861" lon="-1.34682">
        <ele>30</ele>
        <time>2021-08-15T07:45:39.941Z</time>
      </trkpt>
      <trkpt lat="43.68862" lon="-1.34682">
        <ele>30</ele>
        <time>2021-08-15T07:45:53.963Z</time>
      </trkpt>
      <trkpt lat="43.68864" lon="-1.34684">
        <ele>30</ele>
        <time>2021-08-15T07:45:57.954Z</time>
      </trkpt>
      <trkpt lat="43.68871" lon="-1.34691">
        <ele>30</ele>
        <time>2021-08-15T07:46:02.942Z</time>
      </trkpt>
      <trkpt lat="43.68874" lon="-1.34706">
        <ele>30</ele>
        <time>2021-08-15T07:46:06.950Z</time>
      </trkpt>
      <trkpt lat="43.68872" lon="-1.34727">
        <ele>28</ele>
        <time>2021-08-15T07:46:11.961Z</time>
      </trkpt>
      <trkpt lat="43.68866" lon="-1.34747">
        <ele>26</ele>
        <time>2021-08-15T07:46:16.940Z</time>
      </trkpt>
      <trkpt lat="43.68863" lon="-1.3477">
        <ele>26</ele>
        <time>2021-08-15T07:46:21.951Z</time>
      </trkpt>
      <trkpt lat="43.68859" lon="-1.34791">
        <ele>26</ele>
        <time>2021-08-15T07:46:26.959Z</time>
      </trkpt>
      <trkpt lat="43.68853" lon="-1.34815">
        <ele>27</ele>
        <time>2021-08-15T07:46:31.965Z</time>
      </trkpt>
      <trkpt lat="43.68851" lon="-1.34843">
        <ele>28</ele>
        <time>2021-08-15T07:46:36.951Z</time>
      </trkpt>
      <trkpt lat="43.6885" lon="-1.34873">
        <ele>28</ele>
        <time>2021-08-15T07:46:41.957Z</time>
      </trkpt>
      <trkpt lat="43.68845" lon="-1.34902">
        <ele>27</ele>
        <time>2021-08-15T07:46:46.954Z</time>
      </trkpt>
      <trkpt lat="43.6884" lon="-1.34931">
        <ele>25</ele>
        <time>2021-08-15T07:46:51.946Z</time>
      </trkpt>
      <trkpt lat="43.68835" lon="-1.3496">
        <ele>25</ele>
        <time>2021-08-15T07:46:56.967Z</time>
      </trkpt>
      <trkpt lat="43.68827" lon="-1.34989">
        <ele>25</ele>
        <time>2021-08-15T07:47:01.952Z</time>
      </trkpt>
      <trkpt lat="43.68823" lon="-1.35012">
        <ele>25</ele>
        <time>2021-08-15T07:47:05.966Z</time>
      </trkpt>
      <trkpt lat="43.68819" lon="-1.3504">
        <ele>23</ele>
        <time>2021-08-15T07:47:10.944Z</time>
      </trkpt>
      <trkpt lat="43.68813" lon="-1.35071">
        <ele>23</ele>
        <time>2021-08-15T07:47:15.956Z</time>
      </trkpt>
      <trkpt lat="43.68811" lon="-1.35093">
        <ele>23</ele>
        <time>2021-08-15T07:47:20.957Z</time>
      </trkpt>
      <trkpt lat="43.68808" lon="-1.35107">
        <ele>23</ele>
        <time>2021-08-15T07:47:25.937Z</time>
      </trkpt>
      <trkpt lat="43.688" lon="-1.35108">
        <ele>23</ele>
        <time>2021-08-15T07:47:30.943Z</time>
      </trkpt>
      <trkpt lat="43.6879" lon="-1.35111">
        <ele>22</ele>
        <time>2021-08-15T07:47:34.953Z</time>
      </trkpt>
      <trkpt lat="43.68779" lon="-1.35121">
        <ele>22</ele>
        <time>2021-08-15T07:47:39.954Z</time>
      </trkpt>
      <trkpt lat="43.68776" lon="-1.35133">
        <ele>22</ele>
        <time>2021-08-15T07:47:43.961Z</time>
      </trkpt>
      <trkpt lat="43.68783" lon="-1.35151">
        <ele>22</ele>
        <time>2021-08-15T07:47:48.954Z</time>
      </trkpt>
      <trkpt lat="43.68785" lon="-1.35174">
        <ele>22</ele>
        <time>2021-08-15T07:47:53.963Z</time>
      </trkpt>
      <trkpt lat="43.6878" lon="-1.35199">
        <ele>21</ele>
        <time>2021-08-15T07:47:58.965Z</time>
      </trkpt>
      <trkpt lat="43.68773" lon="-1.35228">
        <ele>20</ele>
        <time>2021-08-15T07:48:03.941Z</time>
      </trkpt>
      <trkpt lat="43.68772" lon="-1.35257">
        <ele>20</ele>
        <time>2021-08-15T07:48:08.964Z</time>
      </trkpt>
      <trkpt lat="43.68769" lon="-1.35287">
        <ele>20</ele>
        <time>2021-08-15T07:48:13.959Z</time>
      </trkpt>
      <trkpt lat="43.68766" lon="-1.35311">
        <ele>20</ele>
        <time>2021-08-15T07:48:18.957Z</time>
      </trkpt>
      <trkpt lat="43.68762" lon="-1.35333">
        <ele>21</ele>
        <time>2021-08-15T07:48:22.967Z</time>
      </trkpt>
      <trkpt lat="43.68757" lon="-1.35359">
        <ele>20</ele>
        <time>2021-08-15T07:48:27.956Z</time>
      </trkpt>
      <trkpt lat="43.68753" lon="-1.35389">
        <ele>20</ele>
        <time>2021-08-15T07:48:32.966Z</time>
      </trkpt>
      <trkpt lat="43.68751" lon="-1.35418">
        <ele>19</ele>
        <time>2021-08-15T07:48:37.956Z</time>
      </trkpt>
      <trkpt lat="43.68751" lon="-1.35444">
        <ele>18</ele>
        <time>2021-08-15T07:48:42.941Z</time>
      </trkpt>
      <trkpt lat="43.6875" lon="-1.35465">
        <ele>17</ele>
        <time>2021-08-15T07:48:46.951Z</time>
      </trkpt>
      <trkpt lat="43.68751" lon="-1.35493">
        <ele>17</ele>
        <time>2021-08-15T07:48:51.957Z</time>
      </trkpt>
      <trkpt lat="43.68756" lon="-1.35524">
        <ele>18</ele>
        <time>2021-08-15T07:48:56.953Z</time>
      </trkpt>
      <trkpt lat="43.68764" lon="-1.35555">
        <ele>18</ele>
        <time>2021-08-15T07:49:01.964Z</time>
      </trkpt>
      <trkpt lat="43.6877" lon="-1.35583">
        <ele>17</ele>
        <time>2021-08-15T07:49:06.958Z</time>
      </trkpt>
      <trkpt lat="43.68777" lon="-1.35611">
        <ele>17</ele>
        <time>2021-08-15T07:49:11.956Z</time>
      </trkpt>
      <trkpt lat="43.68782" lon="-1.3564">
        <ele>17</ele>
        <time>2021-08-15T07:49:16.949Z</time>
      </trkpt>
      <trkpt lat="43.68786" lon="-1.35665">
        <ele>17</ele>
        <time>2021-08-15T07:49:21.937Z</time>
      </trkpt>
      <trkpt lat="43.68787" lon="-1.35686">
        <ele>17</ele>
        <time>2021-08-15T07:49:25.960Z</time>
      </trkpt>
      <trkpt lat="43.68794" lon="-1.35714">
        <ele>17</ele>
        <time>2021-08-15T07:49:30.938Z</time>
      </trkpt>
      <trkpt lat="43.68798" lon="-1.35742">
        <ele>18</ele>
        <time>2021-08-15T07:49:35.955Z</time>
      </trkpt>
      <trkpt lat="43.688" lon="-1.35761">
        <ele>18</ele>
        <time>2021-08-15T07:49:39.966Z</time>
      </trkpt>
      <trkpt lat="43.68805" lon="-1.35785">
        <ele>18</ele>
        <time>2021-08-15T07:49:44.958Z</time>
      </trkpt>
      <trkpt lat="43.68808" lon="-1.35813">
        <ele>17</ele>
        <time>2021-08-15T07:49:49.954Z</time>
      </trkpt>
      <trkpt lat="43.68812" lon="-1.35839">
        <ele>16</ele>
        <time>2021-08-15T07:49:54.953Z</time>
      </trkpt>
      <trkpt lat="43.68815" lon="-1.35866">
        <ele>16</ele>
        <time>2021-08-15T07:49:59.941Z</time>
      </trkpt>
      <trkpt lat="43.6882" lon="-1.35893">
        <ele>16</ele>
        <time>2021-08-15T07:50:04.950Z</time>
      </trkpt>
      <trkpt lat="43.68823" lon="-1.3592">
        <ele>17</ele>
        <time>2021-08-15T07:50:09.952Z</time>
      </trkpt>
      <trkpt lat="43.68826" lon="-1.35942">
        <ele>17</ele>
        <time>2021-08-15T07:50:13.938Z</time>
      </trkpt>
      <trkpt lat="43.68829" lon="-1.35969">
        <ele>18</ele>
        <time>2021-08-15T07:50:18.935Z</time>
      </trkpt>
      <trkpt lat="43.68827" lon="-1.35994">
        <ele>17</ele>
        <time>2021-08-15T07:50:23.947Z</time>
      </trkpt>
      <trkpt lat="43.68828" lon="-1.36014">
        <ele>16</ele>
        <time>2021-08-15T07:50:27.948Z</time>
      </trkpt>
      <trkpt lat="43.68832" lon="-1.36037">
        <ele>16</ele>
        <time>2021-08-15T07:50:32.942Z</time>
      </trkpt>
      <trkpt lat="43.68835" lon="-1.36056">
        <ele>17</ele>
        <time>2021-08-15T07:50:36.955Z</time>
      </trkpt>
      <trkpt lat="43.68842" lon="-1.36079">
        <ele>17</ele>
        <time>2021-08-15T07:50:41.949Z</time>
      </trkpt>
      <trkpt lat="43.68847" lon="-1.36106">
        <ele>17</ele>
        <time>2021-08-15T07:50:46.935Z</time>
      </trkpt>
      <trkpt lat="43.68851" lon="-1.36128">
        <ele>17</ele>
        <time>2021-08-15T07:50:50.964Z</time>
      </trkpt>
      <trkpt lat="43.68857" lon="-1.36155">
        <ele>17</ele>
        <time>2021-08-15T07:50:55.965Z</time>
      </trkpt>
      <trkpt lat="43.68863" lon="-1.36182">
        <ele>18</ele>
        <time>2021-08-15T07:51:00.960Z</time>
      </trkpt>
      <trkpt lat="43.68865" lon="-1.36212">
        <ele>18</ele>
        <time>2021-08-15T07:51:05.953Z</time>
      </trkpt>
      <trkpt lat="43.68871" lon="-1.3624">
        <ele>18</ele>
        <time>2021-08-15T07:51:10.964Z</time>
      </trkpt>
      <trkpt lat="43.68874" lon="-1.36268">
        <ele>18</ele>
        <time>2021-08-15T07:51:15.963Z</time>
      </trkpt>
      <trkpt lat="43.68876" lon="-1.36294">
        <ele>19</ele>
        <time>2021-08-15T07:51:20.938Z</time>
      </trkpt>
      <trkpt lat="43.68873" lon="-1.36322">
        <ele>19</ele>
        <time>2021-08-15T07:51:25.957Z</time>
      </trkpt>
      <trkpt lat="43.68865" lon="-1.36348">
        <ele>20</ele>
        <time>2021-08-15T07:51:30.963Z</time>
      </trkpt>
      <trkpt lat="43.68856" lon="-1.3636">
        <ele>20</ele>
        <time>2021-08-15T07:51:35.954Z</time>
      </trkpt>
      <trkpt lat="43.68855" lon="-1.36368">
        <ele>20</ele>
        <time>2021-08-15T07:51:40.957Z</time>
      </trkpt>
      <trkpt lat="43.68862" lon="-1.36378">
        <ele>22</ele>
        <time>2021-08-15T07:51:45.965Z</time>
      </trkpt>
      <trkpt lat="43.68875" lon="-1.36388">
        <ele>22</ele>
        <time>2021-08-15T07:51:50.951Z</time>
      </trkpt>
      <trkpt lat="43.68877" lon="-1.36386">
        <ele>20</ele>
        <time>2021-08-15T07:51:55.953Z</time>
      </trkpt>
      <trkpt lat="43.68877" lon="-1.36386">
        <ele>20</ele>
        <time>2021-08-15T07:52:05.957Z</time>
      </trkpt>
      <trkpt lat="43.68884" lon="-1.36388">
        <ele>20</ele>
        <time>2021-08-15T07:52:10.957Z</time>
      </trkpt>
      <trkpt lat="43.6889" lon="-1.36393">
        <ele>20</ele>
        <time>2021-08-15T07:52:15.951Z</time>
      </trkpt>
      <trkpt lat="43.68899" lon="-1.36388">
        <ele>20</ele>
        <time>2021-08-15T07:52:20.954Z</time>
      </trkpt>
      <trkpt lat="43.68904" lon="-1.36399">
        <ele>20</ele>
        <time>2021-08-15T07:52:25.957Z</time>
      </trkpt>
      <trkpt lat="43.68905" lon="-1.36418">
        <ele>20</ele>
        <time>2021-08-15T07:52:30.957Z</time>
      </trkpt>
      <trkpt lat="43.68908" lon="-1.3644">
        <ele>20</ele>
        <time>2021-08-15T07:52:35.945Z</time>
      </trkpt>
      <trkpt lat="43.6891" lon="-1.36458">
        <ele>20</ele>
        <time>2021-08-15T07:52:40.951Z</time>
      </trkpt>
      <trkpt lat="43.68913" lon="-1.3648">
        <ele>20</ele>
        <time>2021-08-15T07:52:45.957Z</time>
      </trkpt>
      <trkpt lat="43.68916" lon="-1.36504">
        <ele>19</ele>
        <time>2021-08-15T07:52:50.963Z</time>
      </trkpt>
      <trkpt lat="43.6892" lon="-1.3653">
        <ele>19</ele>
        <time>2021-08-15T07:52:55.949Z</time>
      </trkpt>
      <trkpt lat="43.68923" lon="-1.36551">
        <ele>19</ele>
        <time>2021-08-15T07:52:59.957Z</time>
      </trkpt>
      <trkpt lat="43.68927" lon="-1.36577">
        <ele>18</ele>
        <time>2021-08-15T07:53:04.955Z</time>
      </trkpt>
      <trkpt lat="43.6893" lon="-1.36598">
        <ele>17</ele>
        <time>2021-08-15T07:53:09.957Z</time>
      </trkpt>
      <trkpt lat="43.68937" lon="-1.36619">
        <ele>17</ele>
        <time>2021-08-15T07:53:14.965Z</time>
      </trkpt>
      <trkpt lat="43.68941" lon="-1.36645">
        <ele>16</ele>
        <time>2021-08-15T07:53:19.941Z</time>
      </trkpt>
      <trkpt lat="43.68945" lon="-1.36673">
        <ele>18</ele>
        <time>2021-08-15T07:53:24.958Z</time>
      </trkpt>
      <trkpt lat="43.68948" lon="-1.36695">
        <ele>20</ele>
        <time>2021-08-15T07:53:29.951Z</time>
      </trkpt>
      <trkpt lat="43.68956" lon="-1.36707">
        <ele>20</ele>
        <time>2021-08-15T07:53:34.957Z</time>
      </trkpt>
      <trkpt lat="43.68954" lon="-1.36725">
        <ele>21</ele>
        <time>2021-08-15T07:53:39.943Z</time>
      </trkpt>
      <trkpt lat="43.68954" lon="-1.36747">
        <ele>21</ele>
        <time>2021-08-15T07:53:43.959Z</time>
      </trkpt>
      <trkpt lat="43.68957" lon="-1.36775">
        <ele>19</ele>
        <time>2021-08-15T07:53:48.953Z</time>
      </trkpt>
      <trkpt lat="43.68962" lon="-1.36805">
        <ele>18</ele>
        <time>2021-08-15T07:53:53.956Z</time>
      </trkpt>
      <trkpt lat="43.68965" lon="-1.36831">
        <ele>19</ele>
        <time>2021-08-15T07:53:58.938Z</time>
      </trkpt>
      <trkpt lat="43.68969" lon="-1.36858">
        <ele>19</ele>
        <time>2021-08-15T07:54:03.939Z</time>
      </trkpt>
      <trkpt lat="43.68973" lon="-1.36881">
        <ele>20</ele>
        <time>2021-08-15T07:54:07.966Z</time>
      </trkpt>
      <trkpt lat="43.68976" lon="-1.36912">
        <ele>20</ele>
        <time>2021-08-15T07:54:12.958Z</time>
      </trkpt>
      <trkpt lat="43.68981" lon="-1.36943">
        <ele>20</ele>
        <time>2021-08-15T07:54:17.967Z</time>
      </trkpt>
      <trkpt lat="43.68986" lon="-1.36972">
        <ele>20</ele>
        <time>2021-08-15T07:54:22.966Z</time>
      </trkpt>
      <trkpt lat="43.6899" lon="-1.36999">
        <ele>20</ele>
        <time>2021-08-15T07:54:27.943Z</time>
      </trkpt>
      <trkpt lat="43.68996" lon="-1.37026">
        <ele>20</ele>
        <time>2021-08-15T07:54:32.959Z</time>
      </trkpt>
      <trkpt lat="43.69002" lon="-1.37058">
        <ele>21</ele>
        <time>2021-08-15T07:54:47.958Z</time>
      </trkpt>
      <trkpt lat="43.69002" lon="-1.37059">
        <ele>21</ele>
        <time>2021-08-15T07:55:06.950Z</time>
      </trkpt>
      <trkpt lat="43.68997" lon="-1.37063">
        <ele>21</ele>
        <time>2021-08-15T07:55:10.962Z</time>
      </trkpt>
      <trkpt lat="43.68996" lon="-1.37082">
        <ele>21</ele>
        <time>2021-08-15T07:55:15.958Z</time>
      </trkpt>
      <trkpt lat="43.68991" lon="-1.37104">
        <ele>20</ele>
        <time>2021-08-15T07:55:20.939Z</time>
      </trkpt>
      <trkpt lat="43.68978" lon="-1.37124">
        <ele>18</ele>
        <time>2021-08-15T07:55:25.954Z</time>
      </trkpt>
      <trkpt lat="43.68967" lon="-1.37143">
        <ele>18</ele>
        <time>2021-08-15T07:55:30.951Z</time>
      </trkpt>
      <trkpt lat="43.68954" lon="-1.37157">
        <ele>17</ele>
        <time>2021-08-15T07:55:35.957Z</time>
      </trkpt>
      <trkpt lat="43.68945" lon="-1.37174">
        <ele>17</ele>
        <time>2021-08-15T07:55:40.965Z</time>
      </trkpt>
      <trkpt lat="43.68933" lon="-1.37196">
        <ele>19</ele>
        <time>2021-08-15T07:55:45.954Z</time>
      </trkpt>
      <trkpt lat="43.68917" lon="-1.37215">
        <ele>19</ele>
        <time>2021-08-15T07:55:50.942Z</time>
      </trkpt>
      <trkpt lat="43.68901" lon="-1.37223">
        <ele>18</ele>
        <time>2021-08-15T07:55:55.940Z</time>
      </trkpt>
      <trkpt lat="43.68892" lon="-1.3721">
        <ele>18</ele>
        <time>2021-08-15T07:56:00.957Z</time>
      </trkpt>
      <trkpt lat="43.68876" lon="-1.37211">
        <ele>18</ele>
        <time>2021-08-15T07:56:05.935Z</time>
      </trkpt>
      <trkpt lat="43.68862" lon="-1.37212">
        <ele>18</ele>
        <time>2021-08-15T07:56:10.965Z</time>
      </trkpt>
      <trkpt lat="43.6885" lon="-1.37217">
        <ele>18</ele>
        <time>2021-08-15T07:56:15.961Z</time>
      </trkpt>
      <trkpt lat="43.68836" lon="-1.37227">
        <ele>18</ele>
        <time>2021-08-15T07:56:20.967Z</time>
      </trkpt>
      <trkpt lat="43.68819" lon="-1.37228">
        <ele>20</ele>
        <time>2021-08-15T07:56:25.965Z</time>
      </trkpt>
      <trkpt lat="43.68803" lon="-1.37221">
        <ele>20</ele>
        <time>2021-08-15T07:56:30.941Z</time>
      </trkpt>
      <trkpt lat="43.68789" lon="-1.37226">
        <ele>21</ele>
        <time>2021-08-15T07:56:35.944Z</time>
      </trkpt>
      <trkpt lat="43.68775" lon="-1.37243">
        <ele>22</ele>
        <time>2021-08-15T07:56:40.962Z</time>
      </trkpt>
      <trkpt lat="43.68758" lon="-1.37257">
        <ele>21</ele>
        <time>2021-08-15T07:56:45.964Z</time>
      </trkpt>
      <trkpt lat="43.68741" lon="-1.37271">
        <ele>22</ele>
        <time>2021-08-15T07:56:50.963Z</time>
      </trkpt>
      <trkpt lat="43.68726" lon="-1.37281">
        <ele>21</ele>
        <time>2021-08-15T07:56:54.960Z</time>
      </trkpt>
      <trkpt lat="43.68709" lon="-1.37293">
        <ele>20</ele>
        <time>2021-08-15T07:56:59.967Z</time>
      </trkpt>
      <trkpt lat="43.68691" lon="-1.37302">
        <ele>21</ele>
        <time>2021-08-15T07:57:04.961Z</time>
      </trkpt>
      <trkpt lat="43.68672" lon="-1.37308">
        <ele>21</ele>
        <time>2021-08-15T07:57:09.946Z</time>
      </trkpt>
      <trkpt lat="43.68654" lon="-1.37311">
        <ele>21</ele>
        <time>2021-08-15T07:57:14.957Z</time>
      </trkpt>
      <trkpt lat="43.68638" lon="-1.37309">
        <ele>20</ele>
        <time>2021-08-15T07:57:18.959Z</time>
      </trkpt>
      <trkpt lat="43.68619" lon="-1.37315">
        <ele>19</ele>
        <time>2021-08-15T07:57:23.961Z</time>
      </trkpt>
      <trkpt lat="43.68601" lon="-1.3732">
        <ele>19</ele>
        <time>2021-08-15T07:57:28.961Z</time>
      </trkpt>
      <trkpt lat="43.68586" lon="-1.37323">
        <ele>19</ele>
        <time>2021-08-15T07:57:32.966Z</time>
      </trkpt>
      <trkpt lat="43.68569" lon="-1.37329">
        <ele>19</ele>
        <time>2021-08-15T07:57:37.965Z</time>
      </trkpt>
      <trkpt lat="43.68554" lon="-1.37337">
        <ele>19</ele>
        <time>2021-08-15T07:57:42.966Z</time>
      </trkpt>
      <trkpt lat="43.68539" lon="-1.37354">
        <ele>21</ele>
        <time>2021-08-15T07:57:47.959Z</time>
      </trkpt>
      <trkpt lat="43.68521" lon="-1.37363">
        <ele>21</ele>
        <time>2021-08-15T07:57:52.938Z</time>
      </trkpt>
      <trkpt lat="43.68504" lon="-1.37372">
        <ele>21</ele>
        <time>2021-08-15T07:57:57.957Z</time>
      </trkpt>
      <trkpt lat="43.68488" lon="-1.37379">
        <ele>22</ele>
        <time>2021-08-15T07:58:02.962Z</time>
      </trkpt>
      <trkpt lat="43.68471" lon="-1.37389">
        <ele>21</ele>
        <time>2021-08-15T07:58:07.957Z</time>
      </trkpt>
      <trkpt lat="43.68455" lon="-1.374">
        <ele>22</ele>
        <time>2021-08-15T07:58:12.966Z</time>
      </trkpt>
      <trkpt lat="43.68439" lon="-1.37412">
        <ele>23</ele>
        <time>2021-08-15T07:58:17.971Z</time>
      </trkpt>
      <trkpt lat="43.68423" lon="-1.37422">
        <ele>24</ele>
        <time>2021-08-15T07:58:22.969Z</time>
      </trkpt>
      <trkpt lat="43.68408" lon="-1.37429">
        <ele>24</ele>
        <time>2021-08-15T07:58:27.959Z</time>
      </trkpt>
      <trkpt lat="43.68395" lon="-1.37437">
        <ele>24</ele>
        <time>2021-08-15T07:58:32.945Z</time>
      </trkpt>
      <trkpt lat="43.68379" lon="-1.37448">
        <ele>24</ele>
        <time>2021-08-15T07:58:37.940Z</time>
      </trkpt>
      <trkpt lat="43.68365" lon="-1.37457">
        <ele>23</ele>
        <time>2021-08-15T07:58:41.957Z</time>
      </trkpt>
      <trkpt lat="43.68346" lon="-1.37469">
        <ele>23</ele>
        <time>2021-08-15T07:58:46.957Z</time>
      </trkpt>
      <trkpt lat="43.68327" lon="-1.3748">
        <ele>23</ele>
        <time>2021-08-15T07:58:51.956Z</time>
      </trkpt>
      <trkpt lat="43.68309" lon="-1.37492">
        <ele>23</ele>
        <time>2021-08-15T07:58:56.963Z</time>
      </trkpt>
      <trkpt lat="43.68291" lon="-1.37503">
        <ele>24</ele>
        <time>2021-08-15T07:59:01.964Z</time>
      </trkpt>
      <trkpt lat="43.68272" lon="-1.37514">
        <ele>24</ele>
        <time>2021-08-15T07:59:06.960Z</time>
      </trkpt>
      <trkpt lat="43.68255" lon="-1.37529">
        <ele>23</ele>
        <time>2021-08-15T07:59:11.943Z</time>
      </trkpt>
      <trkpt lat="43.68237" lon="-1.37544">
        <ele>22</ele>
        <time>2021-08-15T07:59:16.943Z</time>
      </trkpt>
      <trkpt lat="43.6822" lon="-1.37558">
        <ele>21</ele>
        <time>2021-08-15T07:59:21.951Z</time>
      </trkpt>
      <trkpt lat="43.68206" lon="-1.37573">
        <ele>23</ele>
        <time>2021-08-15T07:59:26.956Z</time>
      </trkpt>
      <trkpt lat="43.68195" lon="-1.3759">
        <ele>23</ele>
        <time>2021-08-15T07:59:31.963Z</time>
      </trkpt>
      <trkpt lat="43.68183" lon="-1.37606">
        <ele>24</ele>
        <time>2021-08-15T07:59:36.968Z</time>
      </trkpt>
      <trkpt lat="43.68169" lon="-1.37618">
        <ele>29</ele>
        <time>2021-08-15T07:59:41.958Z</time>
      </trkpt>
      <trkpt lat="43.68155" lon="-1.37633">
        <ele>29</ele>
        <time>2021-08-15T07:59:46.952Z</time>
      </trkpt>
      <trkpt lat="43.68144" lon="-1.37646">
        <ele>30</ele>
        <time>2021-08-15T07:59:51.947Z</time>
      </trkpt>
      <trkpt lat="43.68142" lon="-1.37649">
        <ele>30</ele>
        <time>2021-08-15T07:59:56.946Z</time>
      </trkpt>
      <trkpt lat="43.68142" lon="-1.37649">
        <ele>30</ele>
        <time>2021-08-15T08:00:01.956Z</time>
      </trkpt>
      <trkpt lat="43.68136" lon="-1.37653">
        <ele>30</ele>
        <time>2021-08-15T08:00:20.964Z</time>
      </trkpt>
      <trkpt lat="43.68127" lon="-1.37663">
        <ele>29</ele>
        <time>2021-08-15T08:00:25.959Z</time>
      </trkpt>
      <trkpt lat="43.68113" lon="-1.37678">
        <ele>29</ele>
        <time>2021-08-15T08:00:30.952Z</time>
      </trkpt>
      <trkpt lat="43.681" lon="-1.37696">
        <ele>27</ele>
        <time>2021-08-15T08:00:35.943Z</time>
      </trkpt>
      <trkpt lat="43.68098" lon="-1.37723">
        <ele>26</ele>
        <time>2021-08-15T08:00:40.957Z</time>
      </trkpt>
      <trkpt lat="43.68103" lon="-1.37755">
        <ele>25</ele>
        <time>2021-08-15T08:00:45.957Z</time>
      </trkpt>
      <trkpt lat="43.68108" lon="-1.37783">
        <ele>26</ele>
        <time>2021-08-15T08:00:50.958Z</time>
      </trkpt>
      <trkpt lat="43.68118" lon="-1.37808">
        <ele>28</ele>
        <time>2021-08-15T08:00:55.939Z</time>
      </trkpt>
      <trkpt lat="43.68122" lon="-1.37828">
        <ele>29</ele>
        <time>2021-08-15T08:00:59.959Z</time>
      </trkpt>
      <trkpt lat="43.68112" lon="-1.37849">
        <ele>29</ele>
        <time>2021-08-15T08:01:04.962Z</time>
      </trkpt>
      <trkpt lat="43.68097" lon="-1.37867">
        <ele>26</ele>
        <time>2021-08-15T08:01:09.946Z</time>
      </trkpt>
      <trkpt lat="43.68081" lon="-1.37888">
        <ele>25</ele>
        <time>2021-08-15T08:01:14.944Z</time>
      </trkpt>
      <trkpt lat="43.68064" lon="-1.37909">
        <ele>23</ele>
        <time>2021-08-15T08:01:19.942Z</time>
      </trkpt>
      <trkpt lat="43.68052" lon="-1.37925">
        <ele>23</ele>
        <time>2021-08-15T08:01:23.961Z</time>
      </trkpt>
      <trkpt lat="43.68035" lon="-1.37942">
        <ele>23</ele>
        <time>2021-08-15T08:01:28.963Z</time>
      </trkpt>
      <trkpt lat="43.6802" lon="-1.37962">
        <ele>24</ele>
        <time>2021-08-15T08:01:33.967Z</time>
      </trkpt>
      <trkpt lat="43.68008" lon="-1.37982">
        <ele>23</ele>
        <time>2021-08-15T08:01:38.964Z</time>
      </trkpt>
      <trkpt lat="43.67996" lon="-1.38004">
        <ele>23</ele>
        <time>2021-08-15T08:01:43.962Z</time>
      </trkpt>
      <trkpt lat="43.67982" lon="-1.38027">
        <ele>22</ele>
        <time>2021-08-15T08:01:48.957Z</time>
      </trkpt>
      <trkpt lat="43.67969" lon="-1.3805">
        <ele>23</ele>
        <time>2021-08-15T08:01:53.943Z</time>
      </trkpt>
      <trkpt lat="43.67956" lon="-1.38072">
        <ele>23</ele>
        <time>2021-08-15T08:01:58.940Z</time>
      </trkpt>
      <trkpt lat="43.67946" lon="-1.3809">
        <ele>23</ele>
        <time>2021-08-15T08:02:02.953Z</time>
      </trkpt>
      <trkpt lat="43.67932" lon="-1.38115">
        <ele>23</ele>
        <time>2021-08-15T08:02:07.940Z</time>
      </trkpt>
      <trkpt lat="43.67918" lon="-1.3814">
        <ele>23</ele>
        <time>2021-08-15T08:02:12.943Z</time>
      </trkpt>
      <trkpt lat="43.67908" lon="-1.38158">
        <ele>23</ele>
        <time>2021-08-15T08:02:16.959Z</time>
      </trkpt>
      <trkpt lat="43.67898" lon="-1.38174">
        <ele>24</ele>
        <time>2021-08-15T08:02:20.946Z</time>
      </trkpt>
      <trkpt lat="43.67884" lon="-1.38198">
        <ele>22</ele>
        <time>2021-08-15T08:02:25.963Z</time>
      </trkpt>
      <trkpt lat="43.67872" lon="-1.38224">
        <ele>28</ele>
        <time>2021-08-15T08:02:30.956Z</time>
      </trkpt>
      <trkpt lat="43.67855" lon="-1.38246">
        <ele>29</ele>
        <time>2021-08-15T08:02:35.957Z</time>
      </trkpt>
      <trkpt lat="43.6784" lon="-1.38263">
        <ele>32</ele>
        <time>2021-08-15T08:02:40.945Z</time>
      </trkpt>
      <trkpt lat="43.67829" lon="-1.38276">
        <ele>32</ele>
        <time>2021-08-15T08:02:44.945Z</time>
      </trkpt>
      <trkpt lat="43.67813" lon="-1.38297">
        <ele>31</ele>
        <time>2021-08-15T08:02:49.965Z</time>
      </trkpt>
      <trkpt lat="43.67798" lon="-1.38318">
        <ele>31</ele>
        <time>2021-08-15T08:02:54.961Z</time>
      </trkpt>
      <trkpt lat="43.6778" lon="-1.38339">
        <ele>29</ele>
        <time>2021-08-15T08:02:59.959Z</time>
      </trkpt>
      <trkpt lat="43.67762" lon="-1.38364">
        <ele>29</ele>
        <time>2021-08-15T08:03:04.953Z</time>
      </trkpt>
      <trkpt lat="43.67743" lon="-1.38384">
        <ele>28</ele>
        <time>2021-08-15T08:03:09.951Z</time>
      </trkpt>
      <trkpt lat="43.67728" lon="-1.38399">
        <ele>28</ele>
        <time>2021-08-15T08:03:14.964Z</time>
      </trkpt>
      <trkpt lat="43.67713" lon="-1.38419">
        <ele>27</ele>
        <time>2021-08-15T08:03:19.955Z</time>
      </trkpt>
      <trkpt lat="43.67696" lon="-1.38442">
        <ele>27</ele>
        <time>2021-08-15T08:03:24.939Z</time>
      </trkpt>
      <trkpt lat="43.67681" lon="-1.38461">
        <ele>27</ele>
        <time>2021-08-15T08:03:28.956Z</time>
      </trkpt>
      <trkpt lat="43.67662" lon="-1.38483">
        <ele>27</ele>
        <time>2021-08-15T08:03:33.936Z</time>
      </trkpt>
      <trkpt lat="43.67649" lon="-1.38498">
        <ele>29</ele>
        <time>2021-08-15T08:03:37.960Z</time>
      </trkpt>
      <trkpt lat="43.67631" lon="-1.38517">
        <ele>29</ele>
        <time>2021-08-15T08:03:42.963Z</time>
      </trkpt>
      <trkpt lat="43.67614" lon="-1.38535">
        <ele>30</ele>
        <time>2021-08-15T08:03:47.954Z</time>
      </trkpt>
      <trkpt lat="43.67601" lon="-1.38548">
        <ele>30</ele>
        <time>2021-08-15T08:03:51.963Z</time>
      </trkpt>
      <trkpt lat="43.67577" lon="-1.38575">
        <ele>30</ele>
        <time>2021-08-15T08:03:56.956Z</time>
      </trkpt>
      <trkpt lat="43.67555" lon="-1.386">
        <ele>30</ele>
        <time>2021-08-15T08:04:01.967Z</time>
      </trkpt>
      <trkpt lat="43.67539" lon="-1.38619">
        <ele>25</ele>
        <time>2021-08-15T08:04:06.966Z</time>
      </trkpt>
      <trkpt lat="43.67526" lon="-1.38635">
        <ele>28</ele>
        <time>2021-08-15T08:04:11.952Z</time>
      </trkpt>
      <trkpt lat="43.67511" lon="-1.38648">
        <ele>24</ele>
        <time>2021-08-15T08:04:15.958Z</time>
      </trkpt>
      <trkpt lat="43.67494" lon="-1.3867">
        <ele>25</ele>
        <time>2021-08-15T08:04:20.956Z</time>
      </trkpt>
      <trkpt lat="43.67476" lon="-1.38698">
        <ele>20</ele>
        <time>2021-08-15T08:04:25.961Z</time>
      </trkpt>
      <trkpt lat="43.67459" lon="-1.38721">
        <ele>23</ele>
        <time>2021-08-15T08:04:30.971Z</time>
      </trkpt>
      <trkpt lat="43.67443" lon="-1.38743">
        <ele>20</ele>
        <time>2021-08-15T08:04:35.962Z</time>
      </trkpt>
      <trkpt lat="43.6743" lon="-1.38759">
        <ele>17</ele>
        <time>2021-08-15T08:04:39.959Z</time>
      </trkpt>
      <trkpt lat="43.67415" lon="-1.38778">
        <ele>19</ele>
        <time>2021-08-15T08:04:44.958Z</time>
      </trkpt>
      <trkpt lat="43.67397" lon="-1.38794">
        <ele>17</ele>
        <time>2021-08-15T08:04:49.953Z</time>
      </trkpt>
      <trkpt lat="43.67383" lon="-1.38801">
        <ele>17</ele>
        <time>2021-08-15T08:04:53.956Z</time>
      </trkpt>
      <trkpt lat="43.67368" lon="-1.38816">
        <ele>15</ele>
        <time>2021-08-15T08:04:58.943Z</time>
      </trkpt>
      <trkpt lat="43.67366" lon="-1.3884">
        <ele>16</ele>
        <time>2021-08-15T08:05:03.953Z</time>
      </trkpt>
      <trkpt lat="43.67356" lon="-1.38856">
        <ele>18</ele>
        <time>2021-08-15T08:05:07.974Z</time>
      </trkpt>
      <trkpt lat="43.67343" lon="-1.38878">
        <ele>16</ele>
        <time>2021-08-15T08:05:12.961Z</time>
      </trkpt>
      <trkpt lat="43.67328" lon="-1.38897">
        <ele>16</ele>
        <time>2021-08-15T08:05:17.970Z</time>
      </trkpt>
      <trkpt lat="43.67315" lon="-1.38916">
        <ele>16</ele>
        <time>2021-08-15T08:05:22.939Z</time>
      </trkpt>
      <trkpt lat="43.67303" lon="-1.38935">
        <ele>17</ele>
        <time>2021-08-15T08:05:27.957Z</time>
      </trkpt>
      <trkpt lat="43.67291" lon="-1.38953">
        <ele>18</ele>
        <time>2021-08-15T08:05:32.958Z</time>
      </trkpt>
      <trkpt lat="43.67277" lon="-1.38955">
        <ele>18</ele>
        <time>2021-08-15T08:05:37.964Z</time>
      </trkpt>
      <trkpt lat="43.67269" lon="-1.38976">
        <ele>17</ele>
        <time>2021-08-15T08:05:42.946Z</time>
      </trkpt>
      <trkpt lat="43.67258" lon="-1.38998">
        <ele>18</ele>
        <time>2021-08-15T08:05:47.942Z</time>
      </trkpt>
      <trkpt lat="43.67246" lon="-1.39019">
        <ele>19</ele>
        <time>2021-08-15T08:05:52.957Z</time>
      </trkpt>
      <trkpt lat="43.67234" lon="-1.39041">
        <ele>17</ele>
        <time>2021-08-15T08:05:57.957Z</time>
      </trkpt>
      <trkpt lat="43.6722" lon="-1.39059">
        <ele>17</ele>
        <time>2021-08-15T08:06:02.940Z</time>
      </trkpt>
      <trkpt lat="43.67207" lon="-1.39071">
        <ele>17</ele>
        <time>2021-08-15T08:06:06.966Z</time>
      </trkpt>
      <trkpt lat="43.67187" lon="-1.39083">
        <ele>17</ele>
        <time>2021-08-15T08:06:11.957Z</time>
      </trkpt>
      <trkpt lat="43.67165" lon="-1.39091">
        <ele>17</ele>
        <time>2021-08-15T08:06:16.954Z</time>
      </trkpt>
      <trkpt lat="43.67142" lon="-1.39098">
        <ele>17</ele>
        <time>2021-08-15T08:06:21.952Z</time>
      </trkpt>
      <trkpt lat="43.67118" lon="-1.39106">
        <ele>18</ele>
        <time>2021-08-15T08:06:26.940Z</time>
      </trkpt>
      <trkpt lat="43.67101" lon="-1.39112">
        <ele>18</ele>
        <time>2021-08-15T08:06:30.944Z</time>
      </trkpt>
      <trkpt lat="43.67079" lon="-1.39116">
        <ele>18</ele>
        <time>2021-08-15T08:06:35.949Z</time>
      </trkpt>
      <trkpt lat="43.67064" lon="-1.3912">
        <ele>16</ele>
        <time>2021-08-15T08:06:40.972Z</time>
      </trkpt>
      <trkpt lat="43.67057" lon="-1.39143">
        <ele>16</ele>
        <time>2021-08-15T08:06:45.964Z</time>
      </trkpt>
      <trkpt lat="43.67041" lon="-1.39157">
        <ele>17</ele>
        <time>2021-08-15T08:06:50.965Z</time>
      </trkpt>
      <trkpt lat="43.67025" lon="-1.39174">
        <ele>17</ele>
        <time>2021-08-15T08:06:55.959Z</time>
      </trkpt>
      <trkpt lat="43.67008" lon="-1.39195">
        <ele>18</ele>
        <time>2021-08-15T08:07:00.952Z</time>
      </trkpt>
      <trkpt lat="43.66994" lon="-1.3921">
        <ele>21</ele>
        <time>2021-08-15T08:07:04.956Z</time>
      </trkpt>
      <trkpt lat="43.66985" lon="-1.39222">
        <ele>19</ele>
        <time>2021-08-15T08:07:09.942Z</time>
      </trkpt>
      <trkpt lat="43.66972" lon="-1.39235">
        <ele>19</ele>
        <time>2021-08-15T08:07:14.949Z</time>
      </trkpt>
      <trkpt lat="43.66954" lon="-1.39248">
        <ele>21</ele>
        <time>2021-08-15T08:07:19.940Z</time>
      </trkpt>
      <trkpt lat="43.66936" lon="-1.39262">
        <ele>21</ele>
        <time>2021-08-15T08:07:23.961Z</time>
      </trkpt>
      <trkpt lat="43.66911" lon="-1.39275">
        <ele>18</ele>
        <time>2021-08-15T08:07:28.956Z</time>
      </trkpt>
      <trkpt lat="43.66891" lon="-1.39278">
        <ele>16</ele>
        <time>2021-08-15T08:07:32.956Z</time>
      </trkpt>
      <trkpt lat="43.66869" lon="-1.39278">
        <ele>15</ele>
        <time>2021-08-15T08:07:37.952Z</time>
      </trkpt>
      <trkpt lat="43.66855" lon="-1.39272">
        <ele>15</ele>
        <time>2021-08-15T08:07:42.940Z</time>
      </trkpt>
      <trkpt lat="43.6684" lon="-1.39275">
        <ele>15</ele>
        <time>2021-08-15T08:07:47.961Z</time>
      </trkpt>
      <trkpt lat="43.66821" lon="-1.39277">
        <ele>15</ele>
        <time>2021-08-15T08:07:52.939Z</time>
      </trkpt>
      <trkpt lat="43.66802" lon="-1.39276">
        <ele>19</ele>
        <time>2021-08-15T08:07:57.942Z</time>
      </trkpt>
      <trkpt lat="43.66784" lon="-1.39268">
        <ele>24</ele>
        <time>2021-08-15T08:08:02.941Z</time>
      </trkpt>
      <trkpt lat="43.66767" lon="-1.39266">
        <ele>24</ele>
        <time>2021-08-15T08:08:07.956Z</time>
      </trkpt>
      <trkpt lat="43.66754" lon="-1.39272">
        <ele>25</ele>
        <time>2021-08-15T08:08:12.959Z</time>
      </trkpt>
      <trkpt lat="43.66744" lon="-1.39275">
        <ele>25</ele>
        <time>2021-08-15T08:08:16.961Z</time>
      </trkpt>
      <trkpt lat="43.6673" lon="-1.39278">
        <ele>25</ele>
        <time>2021-08-15T08:08:21.961Z</time>
      </trkpt>
      <trkpt lat="43.66711" lon="-1.39277">
        <ele>25</ele>
        <time>2021-08-15T08:08:26.962Z</time>
      </trkpt>
      <trkpt lat="43.66694" lon="-1.39271">
        <ele>27</ele>
        <time>2021-08-15T08:08:30.976Z</time>
      </trkpt>
      <trkpt lat="43.66655" lon="-1.39247">
        <ele>23</ele>
        <time>2021-08-15T08:08:59.961Z</time>
      </trkpt>
      <trkpt lat="43.66654" lon="-1.39246">
        <ele>23</ele>
        <time>2021-08-15T08:09:04.966Z</time>
      </trkpt>
      <trkpt lat="43.66653" lon="-1.39246">
        <ele>23</ele>
        <time>2021-08-15T08:09:09.953Z</time>
      </trkpt>
      <trkpt lat="43.66643" lon="-1.39237">
        <ele>23</ele>
        <time>2021-08-15T08:09:14.963Z</time>
      </trkpt>
      <trkpt lat="43.66625" lon="-1.39244">
        <ele>23</ele>
        <time>2021-08-15T08:09:19.959Z</time>
      </trkpt>
      <trkpt lat="43.66608" lon="-1.39249">
        <ele>20</ele>
        <time>2021-08-15T08:09:24.946Z</time>
      </trkpt>
      <trkpt lat="43.66592" lon="-1.39256">
        <ele>18</ele>
        <time>2021-08-15T08:09:29.942Z</time>
      </trkpt>
      <trkpt lat="43.6658" lon="-1.39265">
        <ele>21</ele>
        <time>2021-08-15T08:09:33.955Z</time>
      </trkpt>
      <trkpt lat="43.66564" lon="-1.39266">
        <ele>19</ele>
        <time>2021-08-15T08:09:38.958Z</time>
      </trkpt>
      <trkpt lat="43.66556" lon="-1.39252">
        <ele>15</ele>
        <time>2021-08-15T08:09:43.959Z</time>
      </trkpt>
      <trkpt lat="43.66557" lon="-1.39223">
        <ele>13</ele>
        <time>2021-08-15T08:09:48.961Z</time>
      </trkpt>
      <trkpt lat="43.66555" lon="-1.39207">
        <ele>10</ele>
        <time>2021-08-15T08:09:53.956Z</time>
      </trkpt>
      <trkpt lat="43.66546" lon="-1.39205">
        <ele>10</ele>
        <time>2021-08-15T08:09:58.952Z</time>
      </trkpt>
      <trkpt lat="43.66535" lon="-1.39204">
        <ele>9</ele>
        <time>2021-08-15T08:10:02.968Z</time>
      </trkpt>
      <trkpt lat="43.66519" lon="-1.39204">
        <ele>9</ele>
        <time>2021-08-15T08:10:07.962Z</time>
      </trkpt>
      <trkpt lat="43.66505" lon="-1.39204">
        <ele>9</ele>
        <time>2021-08-15T08:10:12.940Z</time>
      </trkpt>
      <trkpt lat="43.66493" lon="-1.39196">
        <ele>9</ele>
        <time>2021-08-15T08:10:17.940Z</time>
      </trkpt>
      <trkpt lat="43.66481" lon="-1.39191">
        <ele>10</ele>
        <time>2021-08-15T08:10:22.944Z</time>
      </trkpt>
      <trkpt lat="43.66468" lon="-1.39196">
        <ele>10</ele>
        <time>2021-08-15T08:10:26.969Z</time>
      </trkpt>
      <trkpt lat="43.66451" lon="-1.39199">
        <ele>11</ele>
        <time>2021-08-15T08:10:31.969Z</time>
      </trkpt>
      <trkpt lat="43.66434" lon="-1.39195">
        <ele>11</ele>
        <time>2021-08-15T08:10:36.956Z</time>
      </trkpt>
      <trkpt lat="43.6642" lon="-1.39189">
        <ele>10</ele>
        <time>2021-08-15T08:10:40.958Z</time>
      </trkpt>
      <trkpt lat="43.66403" lon="-1.39188">
        <ele>10</ele>
        <time>2021-08-15T08:10:45.964Z</time>
      </trkpt>
      <trkpt lat="43.66387" lon="-1.39189">
        <ele>9</ele>
        <time>2021-08-15T08:10:50.962Z</time>
      </trkpt>
      <trkpt lat="43.66379" lon="-1.39185">
        <ele>9</ele>
        <time>2021-08-15T08:10:55.941Z</time>
      </trkpt>
      <trkpt lat="43.66373" lon="-1.39185">
        <ele>10</ele>
        <time>2021-08-15T08:11:00.938Z</time>
      </trkpt>
      <trkpt lat="43.66369" lon="-1.39168">
        <ele>11</ele>
        <time>2021-08-15T08:11:05.962Z</time>
      </trkpt>
      <trkpt lat="43.66367" lon="-1.39147">
        <ele>11</ele>
        <time>2021-08-15T08:11:10.962Z</time>
      </trkpt>
      <trkpt lat="43.66361" lon="-1.39141">
        <ele>11</ele>
        <time>2021-08-15T08:11:15.957Z</time>
      </trkpt>
      <trkpt lat="43.66361" lon="-1.39141">
        <ele>11</ele>
        <time>2021-08-15T08:11:20.962Z</time>
      </trkpt>
      <trkpt lat="43.66353" lon="-1.39146">
        <ele>11</ele>
        <time>2021-08-15T08:11:25.960Z</time>
      </trkpt>
      <trkpt lat="43.66339" lon="-1.39156">
        <ele>11</ele>
        <time>2021-08-15T08:11:30.965Z</time>
      </trkpt>
      <trkpt lat="43.66323" lon="-1.39168">
        <ele>11</ele>
        <time>2021-08-15T08:11:35.956Z</time>
      </trkpt>
      <trkpt lat="43.66308" lon="-1.39179">
        <ele>9</ele>
        <time>2021-08-15T08:11:40.954Z</time>
      </trkpt>
      <trkpt lat="43.66293" lon="-1.39197">
        <ele>9</ele>
        <time>2021-08-15T08:11:45.944Z</time>
      </trkpt>
      <trkpt lat="43.66276" lon="-1.39214">
        <ele>8</ele>
        <time>2021-08-15T08:11:50.952Z</time>
      </trkpt>
      <trkpt lat="43.66263" lon="-1.39228">
        <ele>8</ele>
        <time>2021-08-15T08:11:54.957Z</time>
      </trkpt>
      <trkpt lat="43.6624" lon="-1.3926">
        <ele>9</ele>
        <time>2021-08-15T08:12:13.961Z</time>
      </trkpt>
      <trkpt lat="43.66239" lon="-1.3926">
        <ele>9</ele>
        <time>2021-08-15T08:12:27.962Z</time>
      </trkpt>
      <trkpt lat="43.66232" lon="-1.39269">
        <ele>9</ele>
        <time>2021-08-15T08:12:32.944Z</time>
      </trkpt>
      <trkpt lat="43.66223" lon="-1.39286">
        <ele>9</ele>
        <time>2021-08-15T08:12:37.967Z</time>
      </trkpt>
      <trkpt lat="43.66211" lon="-1.39305">
        <ele>8</ele>
        <time>2021-08-15T08:12:42.958Z</time>
      </trkpt>
      <trkpt lat="43.66199" lon="-1.39324">
        <ele>7</ele>
        <time>2021-08-15T08:12:46.974Z</time>
      </trkpt>
      <trkpt lat="43.66185" lon="-1.39351">
        <ele>7</ele>
        <time>2021-08-15T08:12:51.955Z</time>
      </trkpt>
      <trkpt lat="43.66174" lon="-1.39373">
        <ele>6</ele>
        <time>2021-08-15T08:12:55.962Z</time>
      </trkpt>
      <trkpt lat="43.66161" lon="-1.39401">
        <ele>7</ele>
        <time>2021-08-15T08:13:00.957Z</time>
      </trkpt>
      <trkpt lat="43.66148" lon="-1.39427">
        <ele>5</ele>
        <time>2021-08-15T08:13:05.956Z</time>
      </trkpt>
      <trkpt lat="43.66135" lon="-1.39454">
        <ele>5</ele>
        <time>2021-08-15T08:13:10.955Z</time>
      </trkpt>
      <trkpt lat="43.66123" lon="-1.39481">
        <ele>4</ele>
        <time>2021-08-15T08:13:15.944Z</time>
      </trkpt>
      <trkpt lat="43.66113" lon="-1.39503">
        <ele>5</ele>
        <time>2021-08-15T08:13:20.944Z</time>
      </trkpt>
      <trkpt lat="43.66104" lon="-1.39522">
        <ele>8</ele>
        <time>2021-08-15T08:13:24.966Z</time>
      </trkpt>
      <trkpt lat="43.66092" lon="-1.39547">
        <ele>7</ele>
        <time>2021-08-15T08:13:29.965Z</time>
      </trkpt>
      <trkpt lat="43.6608" lon="-1.39576">
        <ele>8</ele>
        <time>2021-08-15T08:13:34.962Z</time>
      </trkpt>
      <trkpt lat="43.66069" lon="-1.39599">
        <ele>3</ele>
        <time>2021-08-15T08:13:38.955Z</time>
      </trkpt>
      <trkpt lat="43.66055" lon="-1.39627">
        <ele>3</ele>
        <time>2021-08-15T08:13:43.953Z</time>
      </trkpt>
      <trkpt lat="43.66043" lon="-1.3965">
        <ele>3</ele>
        <time>2021-08-15T08:13:48.961Z</time>
      </trkpt>
      <trkpt lat="43.66032" lon="-1.39674">
        <ele>2</ele>
        <time>2021-08-15T08:13:53.958Z</time>
      </trkpt>
      <trkpt lat="43.66019" lon="-1.39698">
        <ele>2</ele>
        <time>2021-08-15T08:13:58.945Z</time>
      </trkpt>
      <trkpt lat="43.66007" lon="-1.39723">
        <ele>2</ele>
        <time>2021-08-15T08:14:03.961Z</time>
      </trkpt>
      <trkpt lat="43.65996" lon="-1.39748">
        <ele>2</ele>
        <time>2021-08-15T08:14:08.941Z</time>
      </trkpt>
      <trkpt lat="43.65986" lon="-1.39769">
        <ele>1</ele>
        <time>2021-08-15T08:14:12.954Z</time>
      </trkpt>
      <trkpt lat="43.65973" lon="-1.39793">
        <ele>2</ele>
        <time>2021-08-15T08:14:17.956Z</time>
      </trkpt>
      <trkpt lat="43.65962" lon="-1.39815">
        <ele>2</ele>
        <time>2021-08-15T08:14:22.966Z</time>
      </trkpt>
      <trkpt lat="43.65952" lon="-1.39835">
        <ele>2</ele>
        <time>2021-08-15T08:14:27.955Z</time>
      </trkpt>
      <trkpt lat="43.65943" lon="-1.39854">
        <ele>3</ele>
        <time>2021-08-15T08:14:32.959Z</time>
      </trkpt>
      <trkpt lat="43.65933" lon="-1.39873">
        <ele>3</ele>
        <time>2021-08-15T08:14:37.954Z</time>
      </trkpt>
      <trkpt lat="43.65924" lon="-1.39893">
        <ele>2</ele>
        <time>2021-08-15T08:14:42.956Z</time>
      </trkpt>
      <trkpt lat="43.65915" lon="-1.39914">
        <ele>3</ele>
        <time>2021-08-15T08:14:47.950Z</time>
      </trkpt>
      <trkpt lat="43.65906" lon="-1.39937">
        <ele>7</ele>
        <time>2021-08-15T08:14:52.967Z</time>
      </trkpt>
      <trkpt lat="43.65897" lon="-1.39959">
        <ele>8</ele>
        <time>2021-08-15T08:14:57.958Z</time>
      </trkpt>
      <trkpt lat="43.65889" lon="-1.39978">
        <ele>8</ele>
        <time>2021-08-15T08:15:01.968Z</time>
      </trkpt>
      <trkpt lat="43.65871" lon="-1.39984">
        <ele>5</ele>
        <time>2021-08-15T08:15:06.962Z</time>
      </trkpt>
      <trkpt lat="43.65849" lon="-1.4">
        <ele>7</ele>
        <time>2021-08-15T08:15:11.959Z</time>
      </trkpt>
      <trkpt lat="43.65833" lon="-1.40019">
        <ele>4</ele>
        <time>2021-08-15T08:15:15.953Z</time>
      </trkpt>
      <trkpt lat="43.65819" lon="-1.40014">
        <ele>1</ele>
        <time>2021-08-15T08:15:20.940Z</time>
      </trkpt>
      <trkpt lat="43.65806" lon="-1.40002">
        <ele>1</ele>
        <time>2021-08-15T08:15:25.941Z</time>
      </trkpt>
      <trkpt lat="43.65794" lon="-1.40012">
        <ele>1</ele>
        <time>2021-08-15T08:15:30.942Z</time>
      </trkpt>
      <trkpt lat="43.65781" lon="-1.40032">
        <ele>2</ele>
        <time>2021-08-15T08:15:35.944Z</time>
      </trkpt>
      <trkpt lat="43.65766" lon="-1.40052">
        <ele>2</ele>
        <time>2021-08-15T08:15:40.967Z</time>
      </trkpt>
      <trkpt lat="43.65759" lon="-1.40073">
        <ele>2</ele>
        <time>2021-08-15T08:15:45.971Z</time>
      </trkpt>
      <trkpt lat="43.65771" lon="-1.40085">
        <ele>3</ele>
        <time>2021-08-15T08:15:50.951Z</time>
      </trkpt>
      <trkpt lat="43.65779" lon="-1.40099">
        <ele>3</ele>
        <time>2021-08-15T08:15:54.968Z</time>
      </trkpt>
      <trkpt lat="43.65791" lon="-1.40115">
        <ele>3</ele>
        <time>2021-08-15T08:15:59.967Z</time>
      </trkpt>
      <trkpt lat="43.65801" lon="-1.40135">
        <ele>8</ele>
        <time>2021-08-15T08:16:04.968Z</time>
      </trkpt>
      <trkpt lat="43.65812" lon="-1.40156">
        <ele>8</ele>
        <time>2021-08-15T08:16:09.968Z</time>
      </trkpt>
      <trkpt lat="43.65819" lon="-1.4017">
        <ele>8</ele>
        <time>2021-08-15T08:16:14.940Z</time>
      </trkpt>
      <trkpt lat="43.6582" lon="-1.40171">
        <ele>9</ele>
        <time>2021-08-15T08:16:19.944Z</time>
      </trkpt>
      <trkpt lat="43.6582" lon="-1.40171">
        <ele>9</ele>
        <time>2021-08-15T08:16:24.943Z</time>
      </trkpt>
      <trkpt lat="43.6582" lon="-1.40177">
        <ele>9</ele>
        <time>2021-08-15T08:16:38.961Z</time>
      </trkpt>
      <trkpt lat="43.65819" lon="-1.4019">
        <ele>7</ele>
        <time>2021-08-15T08:16:43.957Z</time>
      </trkpt>
      <trkpt lat="43.65815" lon="-1.40205">
        <ele>7</ele>
        <time>2021-08-15T08:16:48.948Z</time>
      </trkpt>
      <trkpt lat="43.65806" lon="-1.40225">
        <ele>6</ele>
        <time>2021-08-15T08:16:53.959Z</time>
      </trkpt>
      <trkpt lat="43.65797" lon="-1.40247">
        <ele>5</ele>
        <time>2021-08-15T08:16:58.958Z</time>
      </trkpt>
      <trkpt lat="43.65787" lon="-1.40262">
        <ele>7</ele>
        <time>2021-08-15T08:17:03.945Z</time>
      </trkpt>
      <trkpt lat="43.65782" lon="-1.40279">
        <ele>9</ele>
        <time>2021-08-15T08:17:08.955Z</time>
      </trkpt>
      <trkpt lat="43.65774" lon="-1.40299">
        <ele>11</ele>
        <time>2021-08-15T08:17:13.948Z</time>
      </trkpt>
      <trkpt lat="43.65768" lon="-1.40315">
        <ele>11</ele>
        <time>2021-08-15T08:17:17.964Z</time>
      </trkpt>
      <trkpt lat="43.65761" lon="-1.40328">
        <ele>10</ele>
        <time>2021-08-15T08:17:22.954Z</time>
      </trkpt>
      <trkpt lat="43.65762" lon="-1.40337">
        <ele>10</ele>
        <time>2021-08-15T08:17:27.955Z</time>
      </trkpt>
      <trkpt lat="43.65774" lon="-1.40339">
        <ele>12</ele>
        <time>2021-08-15T08:17:32.955Z</time>
      </trkpt>
      <trkpt lat="43.65785" lon="-1.40345">
        <ele>12</ele>
        <time>2021-08-15T08:17:37.958Z</time>
      </trkpt>
      <trkpt lat="43.6579" lon="-1.40355">
        <ele>11</ele>
        <time>2021-08-15T08:17:42.956Z</time>
      </trkpt>
      <trkpt lat="43.65791" lon="-1.40375">
        <ele>11</ele>
        <time>2021-08-15T08:17:47.949Z</time>
      </trkpt>
      <trkpt lat="43.6579" lon="-1.40398">
        <ele>11</ele>
        <time>2021-08-15T08:17:52.943Z</time>
      </trkpt>
      <trkpt lat="43.65791" lon="-1.40413">
        <ele>11</ele>
        <time>2021-08-15T08:17:57.940Z</time>
      </trkpt>
      <trkpt lat="43.65786" lon="-1.40432">
        <ele>10</ele>
        <time>2021-08-15T08:18:02.941Z</time>
      </trkpt>
      <trkpt lat="43.65785" lon="-1.40452">
        <ele>10</ele>
        <time>2021-08-15T08:18:06.958Z</time>
      </trkpt>
      <trkpt lat="43.65785" lon="-1.4048">
        <ele>11</ele>
        <time>2021-08-15T08:18:11.956Z</time>
      </trkpt>
      <trkpt lat="43.65784" lon="-1.40508">
        <ele>12</ele>
        <time>2021-08-15T08:18:16.959Z</time>
      </trkpt>
      <trkpt lat="43.65782" lon="-1.40533">
        <ele>12</ele>
        <time>2021-08-15T08:18:20.970Z</time>
      </trkpt>
      <trkpt lat="43.65781" lon="-1.40565">
        <ele>13</ele>
        <time>2021-08-15T08:18:25.960Z</time>
      </trkpt>
      <trkpt lat="43.65781" lon="-1.40595">
        <ele>13</ele>
        <time>2021-08-15T08:18:30.944Z</time>
      </trkpt>
      <trkpt lat="43.65781" lon="-1.40623">
        <ele>13</ele>
        <time>2021-08-15T08:18:35.944Z</time>
      </trkpt>
      <trkpt lat="43.65783" lon="-1.40645">
        <ele>13</ele>
        <time>2021-08-15T08:18:39.953Z</time>
      </trkpt>
      <trkpt lat="43.65784" lon="-1.40675">
        <ele>13</ele>
        <time>2021-08-15T08:18:44.946Z</time>
      </trkpt>
      <trkpt lat="43.65787" lon="-1.40705">
        <ele>13</ele>
        <time>2021-08-15T08:18:49.946Z</time>
      </trkpt>
      <trkpt lat="43.65789" lon="-1.40736">
        <ele>14</ele>
        <time>2021-08-15T08:18:54.965Z</time>
      </trkpt>
      <trkpt lat="43.65796" lon="-1.40761">
        <ele>14</ele>
        <time>2021-08-15T08:18:59.944Z</time>
      </trkpt>
      <trkpt lat="43.658" lon="-1.40781">
        <ele>13</ele>
        <time>2021-08-15T08:19:04.949Z</time>
      </trkpt>
      <trkpt lat="43.65805" lon="-1.40804">
        <ele>12</ele>
        <time>2021-08-15T08:19:09.962Z</time>
      </trkpt>
      <trkpt lat="43.6581" lon="-1.40829">
        <ele>11</ele>
        <time>2021-08-15T08:19:14.949Z</time>
      </trkpt>
      <trkpt lat="43.65813" lon="-1.40849">
        <ele>11</ele>
        <time>2021-08-15T08:19:18.965Z</time>
      </trkpt>
      <trkpt lat="43.65817" lon="-1.40875">
        <ele>11</ele>
        <time>2021-08-15T08:19:23.941Z</time>
      </trkpt>
      <trkpt lat="43.65822" lon="-1.40901">
        <ele>12</ele>
        <time>2021-08-15T08:19:28.951Z</time>
      </trkpt>
      <trkpt lat="43.65822" lon="-1.40929">
        <ele>12</ele>
        <time>2021-08-15T08:19:33.945Z</time>
      </trkpt>
      <trkpt lat="43.65822" lon="-1.40961">
        <ele>14</ele>
        <time>2021-08-15T08:19:38.936Z</time>
      </trkpt>
      <trkpt lat="43.65818" lon="-1.40989">
        <ele>14</ele>
        <time>2021-08-15T08:19:43.960Z</time>
      </trkpt>
      <trkpt lat="43.65809" lon="-1.41026">
        <ele>14</ele>
        <time>2021-08-15T08:19:48.961Z</time>
      </trkpt>
      <trkpt lat="43.65801" lon="-1.41058">
        <ele>13</ele>
        <time>2021-08-15T08:19:53.960Z</time>
      </trkpt>
      <trkpt lat="43.65794" lon="-1.41092">
        <ele>12</ele>
        <time>2021-08-15T08:19:58.966Z</time>
      </trkpt>
      <trkpt lat="43.65789" lon="-1.41125">
        <ele>12</ele>
        <time>2021-08-15T08:20:03.953Z</time>
      </trkpt>
      <trkpt lat="43.65785" lon="-1.41157">
        <ele>13</ele>
        <time>2021-08-15T08:20:08.955Z</time>
      </trkpt>
      <trkpt lat="43.65778" lon="-1.4119">
        <ele>13</ele>
        <time>2021-08-15T08:20:13.942Z</time>
      </trkpt>
      <trkpt lat="43.65773" lon="-1.41222">
        <ele>12</ele>
        <time>2021-08-15T08:20:18.939Z</time>
      </trkpt>
      <trkpt lat="43.65768" lon="-1.41244">
        <ele>12</ele>
        <time>2021-08-15T08:20:22.945Z</time>
      </trkpt>
      <trkpt lat="43.65758" lon="-1.41273">
        <ele>11</ele>
        <time>2021-08-15T08:20:27.943Z</time>
      </trkpt>
      <trkpt lat="43.65751" lon="-1.41296">
        <ele>11</ele>
        <time>2021-08-15T08:20:31.958Z</time>
      </trkpt>
      <trkpt lat="43.6574" lon="-1.41324">
        <ele>11</ele>
        <time>2021-08-15T08:20:36.946Z</time>
      </trkpt>
      <trkpt lat="43.65731" lon="-1.41352">
        <ele>10</ele>
        <time>2021-08-15T08:20:41.952Z</time>
      </trkpt>
      <trkpt lat="43.65725" lon="-1.41372">
        <ele>10</ele>
        <time>2021-08-15T08:20:45.966Z</time>
      </trkpt>
      <trkpt lat="43.65717" lon="-1.41401">
        <ele>10</ele>
        <time>2021-08-15T08:20:50.971Z</time>
      </trkpt>
      <trkpt lat="43.65709" lon="-1.4143">
        <ele>11</ele>
        <time>2021-08-15T08:20:55.944Z</time>
      </trkpt>
      <trkpt lat="43.65702" lon="-1.41459">
        <ele>12</ele>
        <time>2021-08-15T08:21:00.952Z</time>
      </trkpt>
      <trkpt lat="43.65698" lon="-1.41491">
        <ele>12</ele>
        <time>2021-08-15T08:21:05.943Z</time>
      </trkpt>
      <trkpt lat="43.65702" lon="-1.41514">
        <ele>12</ele>
        <time>2021-08-15T08:21:10.944Z</time>
      </trkpt>
      <trkpt lat="43.65707" lon="-1.41541">
        <ele>11</ele>
        <time>2021-08-15T08:21:15.945Z</time>
      </trkpt>
      <trkpt lat="43.65712" lon="-1.41564">
        <ele>11</ele>
        <time>2021-08-15T08:21:20.953Z</time>
      </trkpt>
      <trkpt lat="43.6572" lon="-1.41595">
        <ele>9</ele>
        <time>2021-08-15T08:21:25.946Z</time>
      </trkpt>
      <trkpt lat="43.65724" lon="-1.41619">
        <ele>7</ele>
        <time>2021-08-15T08:21:29.964Z</time>
      </trkpt>
      <trkpt lat="43.65723" lon="-1.41647">
        <ele>6</ele>
        <time>2021-08-15T08:21:34.940Z</time>
      </trkpt>
      <trkpt lat="43.65715" lon="-1.41674">
        <ele>6</ele>
        <time>2021-08-15T08:21:39.952Z</time>
      </trkpt>
      <trkpt lat="43.65703" lon="-1.41706">
        <ele>6</ele>
        <time>2021-08-15T08:21:44.945Z</time>
      </trkpt>
      <trkpt lat="43.65689" lon="-1.41725">
        <ele>7</ele>
        <time>2021-08-15T08:21:48.967Z</time>
      </trkpt>
      <trkpt lat="43.65675" lon="-1.4175">
        <ele>7</ele>
        <time>2021-08-15T08:21:53.940Z</time>
      </trkpt>
      <trkpt lat="43.65671" lon="-1.41775">
        <ele>6</ele>
        <time>2021-08-15T08:21:58.950Z</time>
      </trkpt>
      <trkpt lat="43.65676" lon="-1.41806">
        <ele>6</ele>
        <time>2021-08-15T08:22:03.945Z</time>
      </trkpt>
      <trkpt lat="43.65682" lon="-1.41835">
        <ele>8</ele>
        <time>2021-08-15T08:22:08.940Z</time>
      </trkpt>
      <trkpt lat="43.65688" lon="-1.41862">
        <ele>9</ele>
        <time>2021-08-15T08:22:13.970Z</time>
      </trkpt>
      <trkpt lat="43.65691" lon="-1.41892">
        <ele>9</ele>
        <time>2021-08-15T08:22:18.962Z</time>
      </trkpt>
      <trkpt lat="43.65695" lon="-1.41921">
        <ele>7</ele>
        <time>2021-08-15T08:22:23.954Z</time>
      </trkpt>
      <trkpt lat="43.65699" lon="-1.41948">
        <ele>6</ele>
        <time>2021-08-15T08:22:28.960Z</time>
      </trkpt>
      <trkpt lat="43.65703" lon="-1.41979">
        <ele>7</ele>
        <time>2021-08-15T08:22:33.957Z</time>
      </trkpt>
      <trkpt lat="43.65714" lon="-1.42009">
        <ele>8</ele>
        <time>2021-08-15T08:22:38.970Z</time>
      </trkpt>
      <trkpt lat="43.65724" lon="-1.42036">
        <ele>9</ele>
        <time>2021-08-15T08:22:43.952Z</time>
      </trkpt>
      <trkpt lat="43.65726" lon="-1.42066">
        <ele>10</ele>
        <time>2021-08-15T08:22:48.939Z</time>
      </trkpt>
      <trkpt lat="43.65721" lon="-1.42093">
        <ele>10</ele>
        <time>2021-08-15T08:22:53.943Z</time>
      </trkpt>
      <trkpt lat="43.65718" lon="-1.42119">
        <ele>8</ele>
        <time>2021-08-15T08:22:58.939Z</time>
      </trkpt>
      <trkpt lat="43.65717" lon="-1.42141">
        <ele>7</ele>
        <time>2021-08-15T08:23:03.961Z</time>
      </trkpt>
      <trkpt lat="43.6571" lon="-1.42169">
        <ele>8</ele>
        <time>2021-08-15T08:23:08.968Z</time>
      </trkpt>
      <trkpt lat="43.6571" lon="-1.42191">
        <ele>9</ele>
        <time>2021-08-15T08:23:13.960Z</time>
      </trkpt>
      <trkpt lat="43.6571" lon="-1.42212">
        <ele>10</ele>
        <time>2021-08-15T08:23:18.961Z</time>
      </trkpt>
      <trkpt lat="43.6571" lon="-1.42237">
        <ele>10</ele>
        <time>2021-08-15T08:23:23.958Z</time>
      </trkpt>
      <trkpt lat="43.65712" lon="-1.42261">
        <ele>10</ele>
        <time>2021-08-15T08:23:28.961Z</time>
      </trkpt>
      <trkpt lat="43.65714" lon="-1.42287">
        <ele>9</ele>
        <time>2021-08-15T08:23:33.943Z</time>
      </trkpt>
      <trkpt lat="43.65713" lon="-1.42314">
        <ele>9</ele>
        <time>2021-08-15T08:23:38.940Z</time>
      </trkpt>
      <trkpt lat="43.65711" lon="-1.42342">
        <ele>9</ele>
        <time>2021-08-15T08:23:43.950Z</time>
      </trkpt>
      <trkpt lat="43.65709" lon="-1.42376">
        <ele>9</ele>
        <time>2021-08-15T08:23:48.938Z</time>
      </trkpt>
      <trkpt lat="43.65707" lon="-1.42404">
        <ele>8</ele>
        <time>2021-08-15T08:23:52.964Z</time>
      </trkpt>
      <trkpt lat="43.65706" lon="-1.42437">
        <ele>8</ele>
        <time>2021-08-15T08:23:57.954Z</time>
      </trkpt>
      <trkpt lat="43.65705" lon="-1.42461">
        <ele>7</ele>
        <time>2021-08-15T08:24:02.962Z</time>
      </trkpt>
      <trkpt lat="43.65705" lon="-1.42481">
        <ele>7</ele>
        <time>2021-08-15T08:24:07.961Z</time>
      </trkpt>
      <trkpt lat="43.65703" lon="-1.42498">
        <ele>7</ele>
        <time>2021-08-15T08:24:12.958Z</time>
      </trkpt>
      <trkpt lat="43.65704" lon="-1.42517">
        <ele>8</ele>
        <time>2021-08-15T08:24:17.953Z</time>
      </trkpt>
      <trkpt lat="43.65709" lon="-1.42532">
        <ele>8</ele>
        <time>2021-08-15T08:24:22.945Z</time>
      </trkpt>
      <trkpt lat="43.6571" lon="-1.42549">
        <ele>9</ele>
        <time>2021-08-15T08:24:27.944Z</time>
      </trkpt>
      <trkpt lat="43.65704" lon="-1.42574">
        <ele>9</ele>
        <time>2021-08-15T08:24:32.940Z</time>
      </trkpt>
      <trkpt lat="43.657" lon="-1.42601">
        <ele>9</ele>
        <time>2021-08-15T08:24:37.941Z</time>
      </trkpt>
      <trkpt lat="43.65693" lon="-1.4263">
        <ele>9</ele>
        <time>2021-08-15T08:24:42.955Z</time>
      </trkpt>
      <trkpt lat="43.65686" lon="-1.42654">
        <ele>8</ele>
        <time>2021-08-15T08:24:47.969Z</time>
      </trkpt>
      <trkpt lat="43.65679" lon="-1.4268">
        <ele>6</ele>
        <time>2021-08-15T08:24:52.957Z</time>
      </trkpt>
      <trkpt lat="43.65674" lon="-1.42702">
        <ele>7</ele>
        <time>2021-08-15T08:24:57.952Z</time>
      </trkpt>
      <trkpt lat="43.65675" lon="-1.42712">
        <ele>8</ele>
        <time>2021-08-15T08:25:02.956Z</time>
      </trkpt>
      <trkpt lat="43.65675" lon="-1.42714">
        <ele>8</ele>
        <time>2021-08-15T08:25:17.941Z</time>
      </trkpt>
      <trkpt lat="43.65675" lon="-1.42727">
        <ele>8</ele>
        <time>2021-08-15T08:25:22.949Z</time>
      </trkpt>
      <trkpt lat="43.65678" lon="-1.42751">
        <ele>7</ele>
        <time>2021-08-15T08:25:27.946Z</time>
      </trkpt>
      <trkpt lat="43.65683" lon="-1.42779">
        <ele>7</ele>
        <time>2021-08-15T08:25:32.947Z</time>
      </trkpt>
      <trkpt lat="43.65687" lon="-1.42808">
        <ele>7</ele>
        <time>2021-08-15T08:25:37.968Z</time>
      </trkpt>
      <trkpt lat="43.65698" lon="-1.42832">
        <ele>7</ele>
        <time>2021-08-15T08:25:42.954Z</time>
      </trkpt>
      <trkpt lat="43.65711" lon="-1.42857">
        <ele>6</ele>
        <time>2021-08-15T08:25:47.964Z</time>
      </trkpt>
      <trkpt lat="43.65717" lon="-1.42884">
        <ele>6</ele>
        <time>2021-08-15T08:25:52.953Z</time>
      </trkpt>
      <trkpt lat="43.65722" lon="-1.42898">
        <ele>6</ele>
        <time>2021-08-15T08:25:57.952Z</time>
      </trkpt>
      <trkpt lat="43.65721" lon="-1.42901">
        <ele>6</ele>
        <time>2021-08-15T08:26:02.958Z</time>
      </trkpt>
      <trkpt lat="43.65722" lon="-1.42901">
        <ele>6</ele>
        <time>2021-08-15T08:26:26.955Z</time>
      </trkpt>
      <trkpt lat="43.6572" lon="-1.42902">
        <ele>6</ele>
        <time>2021-08-15T08:26:31.944Z</time>
      </trkpt>
      <trkpt lat="43.65718" lon="-1.42892">
        <ele>6</ele>
        <time>2021-08-15T08:26:36.946Z</time>
      </trkpt>
      <trkpt lat="43.65714" lon="-1.42872">
        <ele>6</ele>
        <time>2021-08-15T08:26:41.948Z</time>
      </trkpt>
      <trkpt lat="43.65707" lon="-1.42851">
        <ele>6</ele>
        <time>2021-08-15T08:26:46.955Z</time>
      </trkpt>
      <trkpt lat="43.65697" lon="-1.42835">
        <ele>7</ele>
        <time>2021-08-15T08:26:51.955Z</time>
      </trkpt>
      <trkpt lat="43.65686" lon="-1.42814">
        <ele>7</ele>
        <time>2021-08-15T08:26:56.948Z</time>
      </trkpt>
      <trkpt lat="43.65679" lon="-1.42792">
        <ele>7</ele>
        <time>2021-08-15T08:27:01.938Z</time>
      </trkpt>
      <trkpt lat="43.65674" lon="-1.4277">
        <ele>7</ele>
        <time>2021-08-15T08:27:06.947Z</time>
      </trkpt>
      <trkpt lat="43.65672" lon="-1.42754">
        <ele>7</ele>
        <time>2021-08-15T08:27:11.943Z</time>
      </trkpt>
      <trkpt lat="43.6567" lon="-1.42744">
        <ele>7</ele>
        <time>2021-08-15T08:27:16.943Z</time>
      </trkpt>
      <trkpt lat="43.65669" lon="-1.42734">
        <ele>8</ele>
        <time>2021-08-15T08:27:21.947Z</time>
      </trkpt>
      <trkpt lat="43.65668" lon="-1.42733">
        <ele>8</ele>
        <time>2021-08-15T08:27:26.943Z</time>
      </trkpt>
      <trkpt lat="43.65654" lon="-1.42731">
        <ele>8</ele>
        <time>2021-08-15T08:27:31.946Z</time>
      </trkpt>
      <trkpt lat="43.65636" lon="-1.42728">
        <ele>7</ele>
        <time>2021-08-15T08:27:36.951Z</time>
      </trkpt>
      <trkpt lat="43.65617" lon="-1.42728">
        <ele>6</ele>
        <time>2021-08-15T08:27:41.944Z</time>
      </trkpt>
      <trkpt lat="43.65596" lon="-1.42728">
        <ele>5</ele>
        <time>2021-08-15T08:27:46.943Z</time>
      </trkpt>
      <trkpt lat="43.65578" lon="-1.42728">
        <ele>5</ele>
        <time>2021-08-15T08:27:50.941Z</time>
      </trkpt>
      <trkpt lat="43.65556" lon="-1.42729">
        <ele>3</ele>
        <time>2021-08-15T08:27:55.952Z</time>
      </trkpt>
      <trkpt lat="43.65542" lon="-1.4273">
        <ele>3</ele>
        <time>2021-08-15T08:28:00.941Z</time>
      </trkpt>
      <trkpt lat="43.6554" lon="-1.42729">
        <ele>1</ele>
        <time>2021-08-15T08:28:05.945Z</time>
      </trkpt>
      <trkpt lat="43.65538" lon="-1.42729">
        <ele>1</ele>
        <time>2021-08-15T08:28:15.951Z</time>
      </trkpt>
      <trkpt lat="43.65526" lon="-1.42729">
        <ele>1</ele>
        <time>2021-08-15T08:28:20.945Z</time>
      </trkpt>
      <trkpt lat="43.65513" lon="-1.42728">
        <ele>1</ele>
        <time>2021-08-15T08:28:25.946Z</time>
      </trkpt>
      <trkpt lat="43.65498" lon="-1.42726">
        <ele>1</ele>
        <time>2021-08-15T08:28:30.950Z</time>
      </trkpt>
      <trkpt lat="43.65478" lon="-1.42725">
        <ele>2</ele>
        <time>2021-08-15T08:28:35.952Z</time>
      </trkpt>
      <trkpt lat="43.65459" lon="-1.42726">
        <ele>2</ele>
        <time>2021-08-15T08:28:40.943Z</time>
      </trkpt>
      <trkpt lat="43.6544" lon="-1.42726">
        <ele>3</ele>
        <time>2021-08-15T08:28:45.944Z</time>
      </trkpt>
      <trkpt lat="43.6542" lon="-1.42727">
        <ele>3</ele>
        <time>2021-08-15T08:28:50.941Z</time>
      </trkpt>
      <trkpt lat="43.654" lon="-1.42729">
        <ele>3</ele>
        <time>2021-08-15T08:28:55.941Z</time>
      </trkpt>
      <trkpt lat="43.65379" lon="-1.4273">
        <ele>3</ele>
        <time>2021-08-15T08:29:00.938Z</time>
      </trkpt>
      <trkpt lat="43.65365" lon="-1.4273">
        <ele>5</ele>
        <time>2021-08-15T08:29:04.944Z</time>
      </trkpt>
      <trkpt lat="43.6535" lon="-1.4273">
        <ele>5</ele>
        <time>2021-08-15T08:29:09.945Z</time>
      </trkpt>
      <trkpt lat="43.6534" lon="-1.42738">
        <ele>5</ele>
        <time>2021-08-15T08:29:14.948Z</time>
      </trkpt>
      <trkpt lat="43.65331" lon="-1.42746">
        <ele>5</ele>
        <time>2021-08-15T08:29:19.948Z</time>
      </trkpt>
      <trkpt lat="43.65329" lon="-1.42749">
        <ele>5</ele>
        <time>2021-08-15T08:29:24.949Z</time>
      </trkpt>
      <trkpt lat="43.65329" lon="-1.42748">
        <ele>5</ele>
        <time>2021-08-15T08:29:29.949Z</time>
      </trkpt>
      <trkpt lat="43.65324" lon="-1.42745">
        <ele>5</ele>
        <time>2021-08-15T08:30:13.947Z</time>
      </trkpt>
      <trkpt lat="43.65315" lon="-1.42735">
        <ele>7</ele>
        <time>2021-08-15T08:30:18.954Z</time>
      </trkpt>
      <trkpt lat="43.6531" lon="-1.42731">
        <ele>7</ele>
        <time>2021-08-15T08:30:23.948Z</time>
      </trkpt>
      <trkpt lat="43.65308" lon="-1.42723">
        <ele>7</ele>
        <time>2021-08-15T08:30:28.941Z</time>
      </trkpt>
      <trkpt lat="43.65308" lon="-1.42708">
        <ele>8</ele>
        <time>2021-08-15T08:30:33.948Z</time>
      </trkpt>
      <trkpt lat="43.65314" lon="-1.42691">
        <ele>8</ele>
        <time>2021-08-15T08:30:38.946Z</time>
      </trkpt>
      <trkpt lat="43.65317" lon="-1.42672">
        <ele>9</ele>
        <time>2021-08-15T08:30:43.940Z</time>
      </trkpt>
      <trkpt lat="43.65319" lon="-1.42659">
        <ele>9</ele>
        <time>2021-08-15T08:30:47.943Z</time>
      </trkpt>
      <trkpt lat="43.65317" lon="-1.4264">
        <ele>9</ele>
        <time>2021-08-15T08:30:52.945Z</time>
      </trkpt>
      <trkpt lat="43.65312" lon="-1.42617">
        <ele>10</ele>
        <time>2021-08-15T08:30:57.947Z</time>
      </trkpt>
      <trkpt lat="43.653" lon="-1.42598">
        <ele>10</ele>
        <time>2021-08-15T08:31:02.946Z</time>
      </trkpt>
      <trkpt lat="43.65288" lon="-1.42581">
        <ele>6</ele>
        <time>2021-08-15T08:31:07.961Z</time>
      </trkpt>
      <trkpt lat="43.65275" lon="-1.42564">
        <ele>6</ele>
        <time>2021-08-15T08:31:12.946Z</time>
      </trkpt>
      <trkpt lat="43.65265" lon="-1.42546">
        <ele>6</ele>
        <time>2021-08-15T08:31:17.950Z</time>
      </trkpt>
      <trkpt lat="43.65257" lon="-1.42523">
        <ele>6</ele>
        <time>2021-08-15T08:31:22.944Z</time>
      </trkpt>
      <trkpt lat="43.65252" lon="-1.42496">
        <ele>8</ele>
        <time>2021-08-15T08:31:27.954Z</time>
      </trkpt>
      <trkpt lat="43.65252" lon="-1.42468">
        <ele>9</ele>
        <time>2021-08-15T08:31:32.941Z</time>
      </trkpt>
      <trkpt lat="43.65255" lon="-1.42439">
        <ele>8</ele>
        <time>2021-08-15T08:31:37.941Z</time>
      </trkpt>
      <trkpt lat="43.65259" lon="-1.4241">
        <ele>7</ele>
        <time>2021-08-15T08:31:42.943Z</time>
      </trkpt>
      <trkpt lat="43.65262" lon="-1.42389">
        <ele>6</ele>
        <time>2021-08-15T08:31:46.941Z</time>
      </trkpt>
      <trkpt lat="43.65265" lon="-1.42364">
        <ele>7</ele>
        <time>2021-08-15T08:31:51.946Z</time>
      </trkpt>
      <trkpt lat="43.65262" lon="-1.42339">
        <ele>8</ele>
        <time>2021-08-15T08:31:56.945Z</time>
      </trkpt>
      <trkpt lat="43.65251" lon="-1.42323">
        <ele>8</ele>
        <time>2021-08-15T08:32:01.948Z</time>
      </trkpt>
      <trkpt lat="43.65247" lon="-1.42302">
        <ele>9</ele>
        <time>2021-08-15T08:32:06.951Z</time>
      </trkpt>
      <trkpt lat="43.65241" lon="-1.42279">
        <ele>9</ele>
        <time>2021-08-15T08:32:11.943Z</time>
      </trkpt>
      <trkpt lat="43.65235" lon="-1.42252">
        <ele>8</ele>
        <time>2021-08-15T08:32:16.949Z</time>
      </trkpt>
      <trkpt lat="43.65226" lon="-1.42231">
        <ele>8</ele>
        <time>2021-08-15T08:32:21.939Z</time>
      </trkpt>
      <trkpt lat="43.65209" lon="-1.42228">
        <ele>8</ele>
        <time>2021-08-15T08:32:26.940Z</time>
      </trkpt>
      <trkpt lat="43.65191" lon="-1.42226">
        <ele>7</ele>
        <time>2021-08-15T08:32:31.948Z</time>
      </trkpt>
      <trkpt lat="43.65178" lon="-1.42218">
        <ele>8</ele>
        <time>2021-08-15T08:32:35.958Z</time>
      </trkpt>
      <trkpt lat="43.65167" lon="-1.42212">
        <ele>8</ele>
        <time>2021-08-15T08:32:40.946Z</time>
      </trkpt>
      <trkpt lat="43.65165" lon="-1.42207">
        <ele>7</ele>
        <time>2021-08-15T08:32:45.952Z</time>
      </trkpt>
      <trkpt lat="43.65165" lon="-1.42206">
        <ele>7</ele>
        <time>2021-08-15T08:32:50.940Z</time>
      </trkpt>
      <trkpt lat="43.65165" lon="-1.42206">
        <ele>7</ele>
        <time>2021-08-15T08:33:05.958Z</time>
      </trkpt>
      <trkpt lat="43.65175" lon="-1.42202">
        <ele>7</ele>
        <time>2021-08-15T08:33:10.940Z</time>
      </trkpt>
      <trkpt lat="43.65194" lon="-1.42203">
        <ele>7</ele>
        <time>2021-08-15T08:33:15.941Z</time>
      </trkpt>
      <trkpt lat="43.65214" lon="-1.42204">
        <ele>8</ele>
        <time>2021-08-15T08:33:20.941Z</time>
      </trkpt>
      <trkpt lat="43.65229" lon="-1.42192">
        <ele>8</ele>
        <time>2021-08-15T08:33:25.945Z</time>
      </trkpt>
      <trkpt lat="43.6524" lon="-1.4217">
        <ele>10</ele>
        <time>2021-08-15T08:33:30.952Z</time>
      </trkpt>
      <trkpt lat="43.6525" lon="-1.42148">
        <ele>10</ele>
        <time>2021-08-15T08:33:35.959Z</time>
      </trkpt>
      <trkpt lat="43.65264" lon="-1.42126">
        <ele>10</ele>
        <time>2021-08-15T08:33:40.955Z</time>
      </trkpt>
      <trkpt lat="43.6528" lon="-1.42104">
        <ele>9</ele>
        <time>2021-08-15T08:33:45.946Z</time>
      </trkpt>
      <trkpt lat="43.65295" lon="-1.42089">
        <ele>10</ele>
        <time>2021-08-15T08:33:49.955Z</time>
      </trkpt>
      <trkpt lat="43.65315" lon="-1.42072">
        <ele>10</ele>
        <time>2021-08-15T08:33:54.956Z</time>
      </trkpt>
      <trkpt lat="43.65333" lon="-1.42055">
        <ele>13</ele>
        <time>2021-08-15T08:33:59.957Z</time>
      </trkpt>
      <trkpt lat="43.65348" lon="-1.42038">
        <ele>10</ele>
        <time>2021-08-15T08:34:04.942Z</time>
      </trkpt>
      <trkpt lat="43.65361" lon="-1.42012">
        <ele>10</ele>
        <time>2021-08-15T08:34:09.940Z</time>
      </trkpt>
      <trkpt lat="43.65371" lon="-1.41981">
        <ele>10</ele>
        <time>2021-08-15T08:34:14.948Z</time>
      </trkpt>
      <trkpt lat="43.65374" lon="-1.41943">
        <ele>11</ele>
        <time>2021-08-15T08:34:19.937Z</time>
      </trkpt>
      <trkpt lat="43.65371" lon="-1.4191">
        <ele>13</ele>
        <time>2021-08-15T08:34:24.953Z</time>
      </trkpt>
      <trkpt lat="43.65369" lon="-1.4188">
        <ele>13</ele>
        <time>2021-08-15T08:34:29.954Z</time>
      </trkpt>
      <trkpt lat="43.65365" lon="-1.41851">
        <ele>14</ele>
        <time>2021-08-15T08:34:34.967Z</time>
      </trkpt>
      <trkpt lat="43.65362" lon="-1.41822">
        <ele>13</ele>
        <time>2021-08-15T08:34:39.952Z</time>
      </trkpt>
      <trkpt lat="43.65359" lon="-1.41789">
        <ele>9</ele>
        <time>2021-08-15T08:34:44.954Z</time>
      </trkpt>
      <trkpt lat="43.65361" lon="-1.41756">
        <ele>7</ele>
        <time>2021-08-15T08:34:49.946Z</time>
      </trkpt>
      <trkpt lat="43.65374" lon="-1.41726">
        <ele>6</ele>
        <time>2021-08-15T08:34:54.951Z</time>
      </trkpt>
      <trkpt lat="43.6539" lon="-1.41701">
        <ele>4</ele>
        <time>2021-08-15T08:34:59.944Z</time>
      </trkpt>
      <trkpt lat="43.65401" lon="-1.41681">
        <ele>4</ele>
        <time>2021-08-15T08:35:03.952Z</time>
      </trkpt>
      <trkpt lat="43.65413" lon="-1.41658">
        <ele>6</ele>
        <time>2021-08-15T08:35:08.944Z</time>
      </trkpt>
      <trkpt lat="43.65422" lon="-1.41635">
        <ele>6</ele>
        <time>2021-08-15T08:35:13.941Z</time>
      </trkpt>
      <trkpt lat="43.65426" lon="-1.41612">
        <ele>7</ele>
        <time>2021-08-15T08:35:17.944Z</time>
      </trkpt>
      <trkpt lat="43.65431" lon="-1.4158">
        <ele>7</ele>
        <time>2021-08-15T08:35:22.939Z</time>
      </trkpt>
      <trkpt lat="43.65435" lon="-1.41548">
        <ele>7</ele>
        <time>2021-08-15T08:35:27.947Z</time>
      </trkpt>
      <trkpt lat="43.65437" lon="-1.41514">
        <ele>7</ele>
        <time>2021-08-15T08:35:32.948Z</time>
      </trkpt>
      <trkpt lat="43.65432" lon="-1.41483">
        <ele>7</ele>
        <time>2021-08-15T08:35:37.949Z</time>
      </trkpt>
      <trkpt lat="43.6542" lon="-1.41452">
        <ele>7</ele>
        <time>2021-08-15T08:35:42.946Z</time>
      </trkpt>
      <trkpt lat="43.6541" lon="-1.41428">
        <ele>8</ele>
        <time>2021-08-15T08:35:47.951Z</time>
      </trkpt>
      <trkpt lat="43.65401" lon="-1.41405">
        <ele>9</ele>
        <time>2021-08-15T08:35:52.940Z</time>
      </trkpt>
      <trkpt lat="43.65387" lon="-1.41384">
        <ele>9</ele>
        <time>2021-08-15T08:35:57.939Z</time>
      </trkpt>
      <trkpt lat="43.65373" lon="-1.41376">
        <ele>10</ele>
        <time>2021-08-15T08:36:01.941Z</time>
      </trkpt>
      <trkpt lat="43.65359" lon="-1.41374">
        <ele>11</ele>
        <time>2021-08-15T08:36:06.937Z</time>
      </trkpt>
      <trkpt lat="43.6535" lon="-1.41358">
        <ele>11</ele>
        <time>2021-08-15T08:36:11.950Z</time>
      </trkpt>
      <trkpt lat="43.65346" lon="-1.41338">
        <ele>11</ele>
        <time>2021-08-15T08:36:16.950Z</time>
      </trkpt>
      <trkpt lat="43.6534" lon="-1.41323">
        <ele>11</ele>
        <time>2021-08-15T08:36:21.956Z</time>
      </trkpt>
      <trkpt lat="43.65331" lon="-1.4131">
        <ele>10</ele>
        <time>2021-08-15T08:36:26.936Z</time>
      </trkpt>
      <trkpt lat="43.65323" lon="-1.413">
        <ele>10</ele>
        <time>2021-08-15T08:36:30.946Z</time>
      </trkpt>
      <trkpt lat="43.65309" lon="-1.41288">
        <ele>11</ele>
        <time>2021-08-15T08:36:35.948Z</time>
      </trkpt>
      <trkpt lat="43.65294" lon="-1.41275">
        <ele>11</ele>
        <time>2021-08-15T08:36:40.948Z</time>
      </trkpt>
      <trkpt lat="43.6528" lon="-1.41262">
        <ele>15</ele>
        <time>2021-08-15T08:36:45.947Z</time>
      </trkpt>
      <trkpt lat="43.65272" lon="-1.41243">
        <ele>15</ele>
        <time>2021-08-15T08:36:50.945Z</time>
      </trkpt>
      <trkpt lat="43.65273" lon="-1.41226">
        <ele>15</ele>
        <time>2021-08-15T08:36:55.944Z</time>
      </trkpt>
      <trkpt lat="43.65272" lon="-1.41226">
        <ele>15</ele>
        <time>2021-08-15T08:37:00.946Z</time>
      </trkpt>
      <trkpt lat="43.65271" lon="-1.41224">
        <ele>15</ele>
        <time>2021-08-15T08:37:10.943Z</time>
      </trkpt>
      <trkpt lat="43.65271" lon="-1.41224">
        <ele>15</ele>
        <time>2021-08-15T08:37:15.950Z</time>
      </trkpt>
      <trkpt lat="43.65271" lon="-1.41224">
        <ele>15</ele>
        <time>2021-08-15T08:37:20.946Z</time>
      </trkpt>
      <trkpt lat="43.65271" lon="-1.41222">
        <ele>15</ele>
        <time>2021-08-15T08:39:14.955Z</time>
      </trkpt>
      <trkpt lat="43.65271" lon="-1.41219">
        <ele>15</ele>
        <time>2021-08-15T08:39:19.957Z</time>
      </trkpt>
      <trkpt lat="43.65271" lon="-1.41209">
        <ele>15</ele>
        <time>2021-08-15T08:39:24.938Z</time>
      </trkpt>
      <trkpt lat="43.65279" lon="-1.41198">
        <ele>17</ele>
        <time>2021-08-15T08:39:28.952Z</time>
      </trkpt>
      <trkpt lat="43.65292" lon="-1.41173">
        <ele>13</ele>
        <time>2021-08-15T08:39:33.949Z</time>
      </trkpt>
      <trkpt lat="43.65304" lon="-1.41154">
        <ele>13</ele>
        <time>2021-08-15T08:39:37.967Z</time>
      </trkpt>
      <trkpt lat="43.65319" lon="-1.4113">
        <ele>14</ele>
        <time>2021-08-15T08:39:42.941Z</time>
      </trkpt>
      <trkpt lat="43.65333" lon="-1.41109">
        <ele>9</ele>
        <time>2021-08-15T08:39:47.944Z</time>
      </trkpt>
      <trkpt lat="43.65348" lon="-1.41085">
        <ele>7</ele>
        <time>2021-08-15T08:39:52.943Z</time>
      </trkpt>
      <trkpt lat="43.65364" lon="-1.41062">
        <ele>8</ele>
        <time>2021-08-15T08:39:57.948Z</time>
      </trkpt>
      <trkpt lat="43.65375" lon="-1.41042">
        <ele>6</ele>
        <time>2021-08-15T08:40:01.948Z</time>
      </trkpt>
      <trkpt lat="43.65386" lon="-1.41023">
        <ele>8</ele>
        <time>2021-08-15T08:40:05.952Z</time>
      </trkpt>
      <trkpt lat="43.65392" lon="-1.40999">
        <ele>11</ele>
        <time>2021-08-15T08:40:10.948Z</time>
      </trkpt>
      <trkpt lat="43.65392" lon="-1.40982">
        <ele>12</ele>
        <time>2021-08-15T08:40:15.959Z</time>
      </trkpt>
      <trkpt lat="43.65389" lon="-1.40968">
        <ele>12</ele>
        <time>2021-08-15T08:40:20.956Z</time>
      </trkpt>
      <trkpt lat="43.6539" lon="-1.40964">
        <ele>12</ele>
        <time>2021-08-15T08:40:25.947Z</time>
      </trkpt>
      <trkpt lat="43.6539" lon="-1.40964">
        <ele>12</ele>
        <time>2021-08-15T08:40:29.968Z</time>
      </trkpt>
      <trkpt lat="43.65394" lon="-1.40955">
        <ele>10</ele>
        <time>2021-08-15T08:40:34.945Z</time>
      </trkpt>
      <trkpt lat="43.65407" lon="-1.40953">
        <ele>10</ele>
        <time>2021-08-15T08:40:39.952Z</time>
      </trkpt>
      <trkpt lat="43.6542" lon="-1.40948">
        <ele>10</ele>
        <time>2021-08-15T08:40:44.947Z</time>
      </trkpt>
      <trkpt lat="43.6543" lon="-1.40947">
        <ele>10</ele>
        <time>2021-08-15T08:40:49.941Z</time>
      </trkpt>
      <trkpt lat="43.65446" lon="-1.40933">
        <ele>10</ele>
        <time>2021-08-15T08:40:54.945Z</time>
      </trkpt>
      <trkpt lat="43.65457" lon="-1.40919">
        <ele>9</ele>
        <time>2021-08-15T08:40:58.960Z</time>
      </trkpt>
      <trkpt lat="43.65473" lon="-1.40895">
        <ele>6</ele>
        <time>2021-08-15T08:41:03.943Z</time>
      </trkpt>
      <trkpt lat="43.65486" lon="-1.40875">
        <ele>5</ele>
        <time>2021-08-15T08:41:07.964Z</time>
      </trkpt>
      <trkpt lat="43.65499" lon="-1.40853">
        <ele>3</ele>
        <time>2021-08-15T08:41:11.944Z</time>
      </trkpt>
      <trkpt lat="43.65515" lon="-1.40827">
        <ele>4</ele>
        <time>2021-08-15T08:41:16.945Z</time>
      </trkpt>
      <trkpt lat="43.6553" lon="-1.40802">
        <ele>4</ele>
        <time>2021-08-15T08:41:21.956Z</time>
      </trkpt>
      <trkpt lat="43.65546" lon="-1.40779">
        <ele>6</ele>
        <time>2021-08-15T08:41:26.956Z</time>
      </trkpt>
      <trkpt lat="43.65561" lon="-1.40755">
        <ele>5</ele>
        <time>2021-08-15T08:41:31.941Z</time>
      </trkpt>
      <trkpt lat="43.65576" lon="-1.40731">
        <ele>7</ele>
        <time>2021-08-15T08:41:36.947Z</time>
      </trkpt>
      <trkpt lat="43.6559" lon="-1.40707">
        <ele>7</ele>
        <time>2021-08-15T08:41:41.939Z</time>
      </trkpt>
      <trkpt lat="43.65605" lon="-1.40684">
        <ele>10</ele>
        <time>2021-08-15T08:41:46.945Z</time>
      </trkpt>
      <trkpt lat="43.6562" lon="-1.40657">
        <ele>10</ele>
        <time>2021-08-15T08:41:51.951Z</time>
      </trkpt>
      <trkpt lat="43.65632" lon="-1.40632">
        <ele>11</ele>
        <time>2021-08-15T08:41:56.965Z</time>
      </trkpt>
      <trkpt lat="43.65641" lon="-1.40605">
        <ele>11</ele>
        <time>2021-08-15T08:42:01.959Z</time>
      </trkpt>
      <trkpt lat="43.65652" lon="-1.40579">
        <ele>10</ele>
        <time>2021-08-15T08:42:06.952Z</time>
      </trkpt>
      <trkpt lat="43.65663" lon="-1.40553">
        <ele>10</ele>
        <time>2021-08-15T08:42:11.945Z</time>
      </trkpt>
      <trkpt lat="43.65675" lon="-1.40526">
        <ele>9</ele>
        <time>2021-08-15T08:42:16.948Z</time>
      </trkpt>
      <trkpt lat="43.65687" lon="-1.40503">
        <ele>11</ele>
        <time>2021-08-15T08:42:21.957Z</time>
      </trkpt>
      <trkpt lat="43.65699" lon="-1.40477">
        <ele>10</ele>
        <time>2021-08-15T08:42:26.972Z</time>
      </trkpt>
      <trkpt lat="43.6571" lon="-1.40448">
        <ele>10</ele>
        <time>2021-08-15T08:42:31.939Z</time>
      </trkpt>
      <trkpt lat="43.65722" lon="-1.40421">
        <ele>10</ele>
        <time>2021-08-15T08:42:36.939Z</time>
      </trkpt>
      <trkpt lat="43.65734" lon="-1.40393">
        <ele>9</ele>
        <time>2021-08-15T08:42:41.945Z</time>
      </trkpt>
      <trkpt lat="43.65746" lon="-1.40366">
        <ele>10</ele>
        <time>2021-08-15T08:42:46.945Z</time>
      </trkpt>
      <trkpt lat="43.65757" lon="-1.4034">
        <ele>10</ele>
        <time>2021-08-15T08:42:51.944Z</time>
      </trkpt>
      <trkpt lat="43.65761" lon="-1.40319">
        <ele>11</ele>
        <time>2021-08-15T08:42:56.965Z</time>
      </trkpt>
      <trkpt lat="43.65777" lon="-1.40287">
        <ele>9</ele>
        <time>2021-08-15T08:43:16.957Z</time>
      </trkpt>
      <trkpt lat="43.65777" lon="-1.40283">
        <ele>9</ele>
        <time>2021-08-15T08:43:41.943Z</time>
      </trkpt>
      <trkpt lat="43.65781" lon="-1.40268">
        <ele>9</ele>
        <time>2021-08-15T08:43:46.937Z</time>
      </trkpt>
      <trkpt lat="43.65791" lon="-1.40254">
        <ele>7</ele>
        <time>2021-08-15T08:43:51.945Z</time>
      </trkpt>
      <trkpt lat="43.65796" lon="-1.40239">
        <ele>5</ele>
        <time>2021-08-15T08:43:55.967Z</time>
      </trkpt>
      <trkpt lat="43.65806" lon="-1.40218">
        <ele>6</ele>
        <time>2021-08-15T08:44:00.941Z</time>
      </trkpt>
      <trkpt lat="43.65816" lon="-1.40199">
        <ele>7</ele>
        <time>2021-08-15T08:44:05.963Z</time>
      </trkpt>
      <trkpt lat="43.65818" lon="-1.4018">
        <ele>8</ele>
        <time>2021-08-15T08:44:10.958Z</time>
      </trkpt>
      <trkpt lat="43.65815" lon="-1.40163">
        <ele>8</ele>
        <time>2021-08-15T08:44:15.956Z</time>
      </trkpt>
      <trkpt lat="43.65802" lon="-1.40142">
        <ele>8</ele>
        <time>2021-08-15T08:44:20.961Z</time>
      </trkpt>
      <trkpt lat="43.65792" lon="-1.40121">
        <ele>3</ele>
        <time>2021-08-15T08:44:25.953Z</time>
      </trkpt>
      <trkpt lat="43.65779" lon="-1.40101">
        <ele>3</ele>
        <time>2021-08-15T08:44:30.942Z</time>
      </trkpt>
      <trkpt lat="43.65766" lon="-1.4008">
        <ele>3</ele>
        <time>2021-08-15T08:44:35.943Z</time>
      </trkpt>
      <trkpt lat="43.65756" lon="-1.40065">
        <ele>2</ele>
        <time>2021-08-15T08:44:40.941Z</time>
      </trkpt>
      <trkpt lat="43.65768" lon="-1.40046">
        <ele>2</ele>
        <time>2021-08-15T08:44:45.943Z</time>
      </trkpt>
      <trkpt lat="43.65785" lon="-1.40022">
        <ele>2</ele>
        <time>2021-08-15T08:44:50.942Z</time>
      </trkpt>
      <trkpt lat="43.65801" lon="-1.39998">
        <ele>1</ele>
        <time>2021-08-15T08:44:55.972Z</time>
      </trkpt>
      <trkpt lat="43.65817" lon="-1.40014">
        <ele>1</ele>
        <time>2021-08-15T08:45:00.961Z</time>
      </trkpt>
      <trkpt lat="43.65834" lon="-1.40016">
        <ele>4</ele>
        <time>2021-08-15T08:45:05.956Z</time>
      </trkpt>
      <trkpt lat="43.65849" lon="-1.39994">
        <ele>7</ele>
        <time>2021-08-15T08:45:10.951Z</time>
      </trkpt>
      <trkpt lat="43.65866" lon="-1.39982">
        <ele>5</ele>
        <time>2021-08-15T08:45:15.952Z</time>
      </trkpt>
      <trkpt lat="43.65883" lon="-1.39981">
        <ele>8</ele>
        <time>2021-08-15T08:45:20.960Z</time>
      </trkpt>
      <trkpt lat="43.65894" lon="-1.39959">
        <ele>8</ele>
        <time>2021-08-15T08:45:25.963Z</time>
      </trkpt>
      <trkpt lat="43.65905" lon="-1.39932">
        <ele>7</ele>
        <time>2021-08-15T08:45:30.945Z</time>
      </trkpt>
      <trkpt lat="43.65918" lon="-1.39906">
        <ele>3</ele>
        <time>2021-08-15T08:45:35.947Z</time>
      </trkpt>
      <trkpt lat="43.65928" lon="-1.3988">
        <ele>2</ele>
        <time>2021-08-15T08:45:40.945Z</time>
      </trkpt>
      <trkpt lat="43.65938" lon="-1.39855">
        <ele>3</ele>
        <time>2021-08-15T08:45:45.944Z</time>
      </trkpt>
      <trkpt lat="43.65949" lon="-1.39834">
        <ele>2</ele>
        <time>2021-08-15T08:45:50.944Z</time>
      </trkpt>
      <trkpt lat="43.65958" lon="-1.39815">
        <ele>1</ele>
        <time>2021-08-15T08:45:54.950Z</time>
      </trkpt>
      <trkpt lat="43.65969" lon="-1.39792">
        <ele>2</ele>
        <time>2021-08-15T08:45:59.956Z</time>
      </trkpt>
      <trkpt lat="43.6598" lon="-1.39766">
        <ele>1</ele>
        <time>2021-08-15T08:46:04.963Z</time>
      </trkpt>
      <trkpt lat="43.65992" lon="-1.39741">
        <ele>2</ele>
        <time>2021-08-15T08:46:09.957Z</time>
      </trkpt>
      <trkpt lat="43.66001" lon="-1.39721">
        <ele>2</ele>
        <time>2021-08-15T08:46:14.964Z</time>
      </trkpt>
      <trkpt lat="43.66013" lon="-1.397">
        <ele>1</ele>
        <time>2021-08-15T08:46:19.945Z</time>
      </trkpt>
      <trkpt lat="43.66024" lon="-1.39678">
        <ele>2</ele>
        <time>2021-08-15T08:46:24.962Z</time>
      </trkpt>
      <trkpt lat="43.66034" lon="-1.39657">
        <ele>2</ele>
        <time>2021-08-15T08:46:29.949Z</time>
      </trkpt>
      <trkpt lat="43.66044" lon="-1.39636">
        <ele>3</ele>
        <time>2021-08-15T08:46:34.953Z</time>
      </trkpt>
      <trkpt lat="43.66054" lon="-1.39616">
        <ele>3</ele>
        <time>2021-08-15T08:46:39.953Z</time>
      </trkpt>
      <trkpt lat="43.66064" lon="-1.39594">
        <ele>3</ele>
        <time>2021-08-15T08:46:44.945Z</time>
      </trkpt>
      <trkpt lat="43.66075" lon="-1.39572">
        <ele>8</ele>
        <time>2021-08-15T08:46:49.952Z</time>
      </trkpt>
      <trkpt lat="43.66084" lon="-1.3955">
        <ele>7</ele>
        <time>2021-08-15T08:46:54.943Z</time>
      </trkpt>
      <trkpt lat="43.66094" lon="-1.3953">
        <ele>5</ele>
        <time>2021-08-15T08:46:59.955Z</time>
      </trkpt>
      <trkpt lat="43.66105" lon="-1.39512">
        <ele>5</ele>
        <time>2021-08-15T08:47:03.957Z</time>
      </trkpt>
      <trkpt lat="43.66115" lon="-1.39489">
        <ele>5</ele>
        <time>2021-08-15T08:47:08.953Z</time>
      </trkpt>
      <trkpt lat="43.66127" lon="-1.39466">
        <ele>5</ele>
        <time>2021-08-15T08:47:13.955Z</time>
      </trkpt>
      <trkpt lat="43.66137" lon="-1.39443">
        <ele>5</ele>
        <time>2021-08-15T08:47:18.960Z</time>
      </trkpt>
      <trkpt lat="43.66147" lon="-1.39421">
        <ele>5</ele>
        <time>2021-08-15T08:47:23.955Z</time>
      </trkpt>
      <trkpt lat="43.66158" lon="-1.39398">
        <ele>7</ele>
        <time>2021-08-15T08:47:28.943Z</time>
      </trkpt>
      <trkpt lat="43.66168" lon="-1.39376">
        <ele>7</ele>
        <time>2021-08-15T08:47:33.945Z</time>
      </trkpt>
      <trkpt lat="43.66178" lon="-1.39356">
        <ele>6</ele>
        <time>2021-08-15T08:47:38.944Z</time>
      </trkpt>
      <trkpt lat="43.66189" lon="-1.39334">
        <ele>7</ele>
        <time>2021-08-15T08:47:43.943Z</time>
      </trkpt>
      <trkpt lat="43.662" lon="-1.39314">
        <ele>8</ele>
        <time>2021-08-15T08:47:48.943Z</time>
      </trkpt>
      <trkpt lat="43.66213" lon="-1.39294">
        <ele>8</ele>
        <time>2021-08-15T08:47:53.948Z</time>
      </trkpt>
      <trkpt lat="43.66223" lon="-1.39279">
        <ele>9</ele>
        <time>2021-08-15T08:47:57.956Z</time>
      </trkpt>
      <trkpt lat="43.66236" lon="-1.39259">
        <ele>9</ele>
        <time>2021-08-15T08:48:02.962Z</time>
      </trkpt>
      <trkpt lat="43.66249" lon="-1.39241">
        <ele>9</ele>
        <time>2021-08-15T08:48:07.967Z</time>
      </trkpt>
      <trkpt lat="43.66263" lon="-1.39222">
        <ele>8</ele>
        <time>2021-08-15T08:48:12.962Z</time>
      </trkpt>
      <trkpt lat="43.66278" lon="-1.39207">
        <ele>7</ele>
        <time>2021-08-15T08:48:17.961Z</time>
      </trkpt>
      <trkpt lat="43.66293" lon="-1.39192">
        <ele>9</ele>
        <time>2021-08-15T08:48:22.966Z</time>
      </trkpt>
      <trkpt lat="43.66307" lon="-1.39177">
        <ele>9</ele>
        <time>2021-08-15T08:48:27.959Z</time>
      </trkpt>
      <trkpt lat="43.66322" lon="-1.39164">
        <ele>11</ele>
        <time>2021-08-15T08:48:32.950Z</time>
      </trkpt>
      <trkpt lat="43.66338" lon="-1.39152">
        <ele>11</ele>
        <time>2021-08-15T08:48:37.944Z</time>
      </trkpt>
      <trkpt lat="43.66354" lon="-1.39141">
        <ele>11</ele>
        <time>2021-08-15T08:48:42.955Z</time>
      </trkpt>
      <trkpt lat="43.66365" lon="-1.39139">
        <ele>11</ele>
        <time>2021-08-15T08:48:47.945Z</time>
      </trkpt>
      <trkpt lat="43.66368" lon="-1.39155">
        <ele>11</ele>
        <time>2021-08-15T08:48:52.945Z</time>
      </trkpt>
      <trkpt lat="43.66371" lon="-1.39173">
        <ele>11</ele>
        <time>2021-08-15T08:48:57.950Z</time>
      </trkpt>
      <trkpt lat="43.66371" lon="-1.39181">
        <ele>10</ele>
        <time>2021-08-15T08:49:01.961Z</time>
      </trkpt>
      <trkpt lat="43.66372" lon="-1.39182">
        <ele>10</ele>
        <time>2021-08-15T08:49:06.953Z</time>
      </trkpt>
      <trkpt lat="43.66378" lon="-1.39183">
        <ele>9</ele>
        <time>2021-08-15T08:49:11.968Z</time>
      </trkpt>
      <trkpt lat="43.66392" lon="-1.39185">
        <ele>9</ele>
        <time>2021-08-15T08:49:16.965Z</time>
      </trkpt>
      <trkpt lat="43.66408" lon="-1.39185">
        <ele>10</ele>
        <time>2021-08-15T08:49:21.970Z</time>
      </trkpt>
      <trkpt lat="43.66422" lon="-1.39189">
        <ele>10</ele>
        <time>2021-08-15T08:49:26.954Z</time>
      </trkpt>
      <trkpt lat="43.66438" lon="-1.39195">
        <ele>11</ele>
        <time>2021-08-15T08:49:31.949Z</time>
      </trkpt>
      <trkpt lat="43.66456" lon="-1.39192">
        <ele>11</ele>
        <time>2021-08-15T08:49:36.949Z</time>
      </trkpt>
      <trkpt lat="43.66474" lon="-1.39189">
        <ele>10</ele>
        <time>2021-08-15T08:49:41.957Z</time>
      </trkpt>
      <trkpt lat="43.66487" lon="-1.39192">
        <ele>9</ele>
        <time>2021-08-15T08:49:46.945Z</time>
      </trkpt>
      <trkpt lat="43.665" lon="-1.39199">
        <ele>9</ele>
        <time>2021-08-15T08:49:51.956Z</time>
      </trkpt>
      <trkpt lat="43.66515" lon="-1.39198">
        <ele>9</ele>
        <time>2021-08-15T08:49:56.945Z</time>
      </trkpt>
      <trkpt lat="43.6653" lon="-1.39199">
        <ele>9</ele>
        <time>2021-08-15T08:50:01.956Z</time>
      </trkpt>
      <trkpt lat="43.66542" lon="-1.39199">
        <ele>10</ele>
        <time>2021-08-15T08:50:06.962Z</time>
      </trkpt>
      <trkpt lat="43.66551" lon="-1.39206">
        <ele>10</ele>
        <time>2021-08-15T08:50:11.957Z</time>
      </trkpt>
      <trkpt lat="43.66553" lon="-1.39224">
        <ele>13</ele>
        <time>2021-08-15T08:50:16.954Z</time>
      </trkpt>
      <trkpt lat="43.66554" lon="-1.39244">
        <ele>15</ele>
        <time>2021-08-15T08:50:21.957Z</time>
      </trkpt>
      <trkpt lat="43.6656" lon="-1.39263">
        <ele>15</ele>
        <time>2021-08-15T08:50:26.956Z</time>
      </trkpt>
      <trkpt lat="43.66573" lon="-1.39264">
        <ele>18</ele>
        <time>2021-08-15T08:50:31.949Z</time>
      </trkpt>
      <trkpt lat="43.66586" lon="-1.39255">
        <ele>18</ele>
        <time>2021-08-15T08:50:36.942Z</time>
      </trkpt>
      <trkpt lat="43.66601" lon="-1.39246">
        <ele>20</ele>
        <time>2021-08-15T08:50:41.949Z</time>
      </trkpt>
      <trkpt lat="43.66618" lon="-1.39241">
        <ele>20</ele>
        <time>2021-08-15T08:50:46.956Z</time>
      </trkpt>
      <trkpt lat="43.66635" lon="-1.39237">
        <ele>23</ele>
        <time>2021-08-15T08:50:51.946Z</time>
      </trkpt>
      <trkpt lat="43.66644" lon="-1.39235">
        <ele>18</ele>
        <time>2021-08-15T08:51:16.957Z</time>
      </trkpt>
      <trkpt lat="43.66644" lon="-1.39234">
        <ele>18</ele>
        <time>2021-08-15T08:51:21.960Z</time>
      </trkpt>
      <trkpt lat="43.66648" lon="-1.39233">
        <ele>18</ele>
        <time>2021-08-15T08:51:26.967Z</time>
      </trkpt>
      <trkpt lat="43.66658" lon="-1.39225">
        <ele>18</ele>
        <time>2021-08-15T08:51:31.944Z</time>
      </trkpt>
      <trkpt lat="43.6668" lon="-1.39202">
        <ele>16</ele>
        <time>2021-08-15T08:51:36.947Z</time>
      </trkpt>
      <trkpt lat="43.66691" lon="-1.39173">
        <ele>16</ele>
        <time>2021-08-15T08:51:41.944Z</time>
      </trkpt>
      <trkpt lat="43.66701" lon="-1.39146">
        <ele>16</ele>
        <time>2021-08-15T08:51:46.944Z</time>
      </trkpt>
      <trkpt lat="43.66709" lon="-1.39118">
        <ele>21</ele>
        <time>2021-08-15T08:51:51.947Z</time>
      </trkpt>
      <trkpt lat="43.66721" lon="-1.39091">
        <ele>20</ele>
        <time>2021-08-15T08:51:56.947Z</time>
      </trkpt>
      <trkpt lat="43.6673" lon="-1.39073">
        <ele>20</ele>
        <time>2021-08-15T08:52:00.959Z</time>
      </trkpt>
      <trkpt lat="43.66742" lon="-1.39047">
        <ele>21</ele>
        <time>2021-08-15T08:52:05.941Z</time>
      </trkpt>
      <trkpt lat="43.66754" lon="-1.39027">
        <ele>19</ele>
        <time>2021-08-15T08:52:09.950Z</time>
      </trkpt>
      <trkpt lat="43.66768" lon="-1.39003">
        <ele>23</ele>
        <time>2021-08-15T08:52:14.968Z</time>
      </trkpt>
      <trkpt lat="43.66782" lon="-1.3898">
        <ele>20</ele>
        <time>2021-08-15T08:52:19.956Z</time>
      </trkpt>
      <trkpt lat="43.66793" lon="-1.38956">
        <ele>22</ele>
        <time>2021-08-15T08:52:24.961Z</time>
      </trkpt>
      <trkpt lat="43.66804" lon="-1.3893">
        <ele>19</ele>
        <time>2021-08-15T08:52:29.945Z</time>
      </trkpt>
      <trkpt lat="43.66812" lon="-1.38902">
        <ele>16</ele>
        <time>2021-08-15T08:52:34.945Z</time>
      </trkpt>
      <trkpt lat="43.66817" lon="-1.38874">
        <ele>15</ele>
        <time>2021-08-15T08:52:39.947Z</time>
      </trkpt>
      <trkpt lat="43.66825" lon="-1.38849">
        <ele>16</ele>
        <time>2021-08-15T08:52:44.943Z</time>
      </trkpt>
      <trkpt lat="43.66837" lon="-1.38833">
        <ele>16</ele>
        <time>2021-08-15T08:52:49.944Z</time>
      </trkpt>
      <trkpt lat="43.66854" lon="-1.38826">
        <ele>18</ele>
        <time>2021-08-15T08:52:54.944Z</time>
      </trkpt>
      <trkpt lat="43.66867" lon="-1.38818">
        <ele>17</ele>
        <time>2021-08-15T08:52:58.964Z</time>
      </trkpt>
      <trkpt lat="43.66887" lon="-1.38812">
        <ele>18</ele>
        <time>2021-08-15T08:53:03.962Z</time>
      </trkpt>
      <trkpt lat="43.66907" lon="-1.38803">
        <ele>18</ele>
        <time>2021-08-15T08:53:08.963Z</time>
      </trkpt>
      <trkpt lat="43.66928" lon="-1.38794">
        <ele>18</ele>
        <time>2021-08-15T08:53:13.965Z</time>
      </trkpt>
      <trkpt lat="43.66944" lon="-1.38786">
        <ele>16</ele>
        <time>2021-08-15T08:53:18.971Z</time>
      </trkpt>
      <trkpt lat="43.6694" lon="-1.38794">
        <ele>19</ele>
        <time>2021-08-15T08:53:23.957Z</time>
      </trkpt>
      <trkpt lat="43.66924" lon="-1.38802">
        <ele>18</ele>
        <time>2021-08-15T08:53:28.949Z</time>
      </trkpt>
      <trkpt lat="43.66905" lon="-1.38814">
        <ele>18</ele>
        <time>2021-08-15T08:53:33.945Z</time>
      </trkpt>
      <trkpt lat="43.66884" lon="-1.38821">
        <ele>18</ele>
        <time>2021-08-15T08:53:38.945Z</time>
      </trkpt>
      <trkpt lat="43.6686" lon="-1.38827">
        <ele>18</ele>
        <time>2021-08-15T08:53:43.950Z</time>
      </trkpt>
      <trkpt lat="43.66842" lon="-1.38838">
        <ele>16</ele>
        <time>2021-08-15T08:53:48.946Z</time>
      </trkpt>
      <trkpt lat="43.66831" lon="-1.38845">
        <ele>16</ele>
        <time>2021-08-15T08:53:52.944Z</time>
      </trkpt>
      <trkpt lat="43.66821" lon="-1.38839">
        <ele>16</ele>
        <time>2021-08-15T08:53:57.957Z</time>
      </trkpt>
      <trkpt lat="43.66823" lon="-1.38813">
        <ele>16</ele>
        <time>2021-08-15T08:54:02.970Z</time>
      </trkpt>
      <trkpt lat="43.66826" lon="-1.38783">
        <ele>15</ele>
        <time>2021-08-15T08:54:07.955Z</time>
      </trkpt>
      <trkpt lat="43.6683" lon="-1.38755">
        <ele>15</ele>
        <time>2021-08-15T08:54:12.967Z</time>
      </trkpt>
      <trkpt lat="43.66833" lon="-1.38725">
        <ele>15</ele>
        <time>2021-08-15T08:54:17.961Z</time>
      </trkpt>
      <trkpt lat="43.66836" lon="-1.38693">
        <ele>15</ele>
        <time>2021-08-15T08:54:22.964Z</time>
      </trkpt>
      <trkpt lat="43.66841" lon="-1.38661">
        <ele>15</ele>
        <time>2021-08-15T08:54:27.961Z</time>
      </trkpt>
      <trkpt lat="43.66843" lon="-1.3863">
        <ele>16</ele>
        <time>2021-08-15T08:54:32.945Z</time>
      </trkpt>
      <trkpt lat="43.66846" lon="-1.38599">
        <ele>16</ele>
        <time>2021-08-15T08:54:37.943Z</time>
      </trkpt>
      <trkpt lat="43.66849" lon="-1.38568">
        <ele>15</ele>
        <time>2021-08-15T08:54:42.948Z</time>
      </trkpt>
      <trkpt lat="43.66848" lon="-1.38536">
        <ele>15</ele>
        <time>2021-08-15T08:54:47.942Z</time>
      </trkpt>
      <trkpt lat="43.66848" lon="-1.38505">
        <ele>14</ele>
        <time>2021-08-15T08:54:52.947Z</time>
      </trkpt>
      <trkpt lat="43.66846" lon="-1.38475">
        <ele>14</ele>
        <time>2021-08-15T08:54:57.941Z</time>
      </trkpt>
      <trkpt lat="43.66845" lon="-1.38445">
        <ele>13</ele>
        <time>2021-08-15T08:55:02.958Z</time>
      </trkpt>
      <trkpt lat="43.66844" lon="-1.38415">
        <ele>12</ele>
        <time>2021-08-15T08:55:07.965Z</time>
      </trkpt>
      <trkpt lat="43.66844" lon="-1.38384">
        <ele>12</ele>
        <time>2021-08-15T08:55:12.976Z</time>
      </trkpt>
      <trkpt lat="43.66844" lon="-1.38353">
        <ele>13</ele>
        <time>2021-08-15T08:55:17.959Z</time>
      </trkpt>
      <trkpt lat="43.66843" lon="-1.38322">
        <ele>15</ele>
        <time>2021-08-15T08:55:22.964Z</time>
      </trkpt>
      <trkpt lat="43.66839" lon="-1.38291">
        <ele>16</ele>
        <time>2021-08-15T08:55:27.965Z</time>
      </trkpt>
      <trkpt lat="43.66832" lon="-1.38259">
        <ele>15</ele>
        <time>2021-08-15T08:55:32.951Z</time>
      </trkpt>
      <trkpt lat="43.66823" lon="-1.38231">
        <ele>15</ele>
        <time>2021-08-15T08:55:37.948Z</time>
      </trkpt>
      <trkpt lat="43.66818" lon="-1.38199">
        <ele>13</ele>
        <time>2021-08-15T08:55:42.944Z</time>
      </trkpt>
      <trkpt lat="43.66812" lon="-1.38167">
        <ele>12</ele>
        <time>2021-08-15T08:55:47.945Z</time>
      </trkpt>
      <trkpt lat="43.66803" lon="-1.38135">
        <ele>12</ele>
        <time>2021-08-15T08:55:52.949Z</time>
      </trkpt>
      <trkpt lat="43.66794" lon="-1.38103">
        <ele>14</ele>
        <time>2021-08-15T08:55:57.941Z</time>
      </trkpt>
      <trkpt lat="43.66789" lon="-1.3808">
        <ele>16</ele>
        <time>2021-08-15T08:56:01.959Z</time>
      </trkpt>
      <trkpt lat="43.66784" lon="-1.38057">
        <ele>16</ele>
        <time>2021-08-15T08:56:05.963Z</time>
      </trkpt>
      <trkpt lat="43.66776" lon="-1.38027">
        <ele>15</ele>
        <time>2021-08-15T08:56:10.947Z</time>
      </trkpt>
      <trkpt lat="43.66767" lon="-1.38005">
        <ele>13</ele>
        <time>2021-08-15T08:56:14.972Z</time>
      </trkpt>
      <trkpt lat="43.66752" lon="-1.37982">
        <ele>14</ele>
        <time>2021-08-15T08:56:19.968Z</time>
      </trkpt>
      <trkpt lat="43.66735" lon="-1.37962">
        <ele>13</ele>
        <time>2021-08-15T08:56:24.959Z</time>
      </trkpt>
      <trkpt lat="43.66715" lon="-1.37941">
        <ele>13</ele>
        <time>2021-08-15T08:56:29.945Z</time>
      </trkpt>
      <trkpt lat="43.66693" lon="-1.37926">
        <ele>11</ele>
        <time>2021-08-15T08:56:34.953Z</time>
      </trkpt>
      <trkpt lat="43.66674" lon="-1.37911">
        <ele>12</ele>
        <time>2021-08-15T08:56:39.947Z</time>
      </trkpt>
      <trkpt lat="43.66655" lon="-1.37897">
        <ele>12</ele>
        <time>2021-08-15T08:56:43.963Z</time>
      </trkpt>
      <trkpt lat="43.66632" lon="-1.37881">
        <ele>12</ele>
        <time>2021-08-15T08:56:48.946Z</time>
      </trkpt>
      <trkpt lat="43.6661" lon="-1.37861">
        <ele>11</ele>
        <time>2021-08-15T08:56:53.940Z</time>
      </trkpt>
      <trkpt lat="43.66589" lon="-1.37844">
        <ele>11</ele>
        <time>2021-08-15T08:56:58.940Z</time>
      </trkpt>
      <trkpt lat="43.66574" lon="-1.37829">
        <ele>11</ele>
        <time>2021-08-15T08:57:02.957Z</time>
      </trkpt>
      <trkpt lat="43.6657" lon="-1.37824">
        <ele>11</ele>
        <time>2021-08-15T08:57:07.964Z</time>
      </trkpt>
      <trkpt lat="43.66562" lon="-1.37816">
        <ele>9</ele>
        <time>2021-08-15T08:57:12.962Z</time>
      </trkpt>
      <trkpt lat="43.66546" lon="-1.37806">
        <ele>9</ele>
        <time>2021-08-15T08:57:17.971Z</time>
      </trkpt>
      <trkpt lat="43.66527" lon="-1.37789">
        <ele>8</ele>
        <time>2021-08-15T08:57:22.958Z</time>
      </trkpt>
      <trkpt lat="43.6651" lon="-1.3777">
        <ele>8</ele>
        <time>2021-08-15T08:57:27.967Z</time>
      </trkpt>
      <trkpt lat="43.66496" lon="-1.37746">
        <ele>8</ele>
        <time>2021-08-15T08:57:32.953Z</time>
      </trkpt>
      <trkpt lat="43.66484" lon="-1.3772">
        <ele>9</ele>
        <time>2021-08-15T08:57:37.937Z</time>
      </trkpt>
      <trkpt lat="43.66472" lon="-1.37697">
        <ele>9</ele>
        <time>2021-08-15T08:57:42.944Z</time>
      </trkpt>
      <trkpt lat="43.6646" lon="-1.37681">
        <ele>9</ele>
        <time>2021-08-15T08:57:47.949Z</time>
      </trkpt>
      <trkpt lat="43.66445" lon="-1.37664">
        <ele>11</ele>
        <time>2021-08-15T08:57:52.937Z</time>
      </trkpt>
      <trkpt lat="43.66432" lon="-1.37651">
        <ele>12</ele>
        <time>2021-08-15T08:57:57.947Z</time>
      </trkpt>
      <trkpt lat="43.66417" lon="-1.37637">
        <ele>11</ele>
        <time>2021-08-15T08:58:02.944Z</time>
      </trkpt>
      <trkpt lat="43.66404" lon="-1.37624">
        <ele>13</ele>
        <time>2021-08-15T08:58:07.958Z</time>
      </trkpt>
      <trkpt lat="43.66392" lon="-1.37607">
        <ele>13</ele>
        <time>2021-08-15T08:58:12.966Z</time>
      </trkpt>
      <trkpt lat="43.6638" lon="-1.3759">
        <ele>13</ele>
        <time>2021-08-15T08:58:17.958Z</time>
      </trkpt>
      <trkpt lat="43.66367" lon="-1.37569">
        <ele>11</ele>
        <time>2021-08-15T08:58:22.965Z</time>
      </trkpt>
      <trkpt lat="43.66356" lon="-1.37548">
        <ele>11</ele>
        <time>2021-08-15T08:58:27.964Z</time>
      </trkpt>
      <trkpt lat="43.66342" lon="-1.37524">
        <ele>11</ele>
        <time>2021-08-15T08:58:32.960Z</time>
      </trkpt>
      <trkpt lat="43.66331" lon="-1.37502">
        <ele>11</ele>
        <time>2021-08-15T08:58:37.963Z</time>
      </trkpt>
      <trkpt lat="43.66319" lon="-1.37481">
        <ele>13</ele>
        <time>2021-08-15T08:58:42.939Z</time>
      </trkpt>
      <trkpt lat="43.66306" lon="-1.37461">
        <ele>13</ele>
        <time>2021-08-15T08:58:47.943Z</time>
      </trkpt>
      <trkpt lat="43.66285" lon="-1.37435">
        <ele>12</ele>
        <time>2021-08-15T08:58:52.955Z</time>
      </trkpt>
      <trkpt lat="43.66264" lon="-1.3741">
        <ele>10</ele>
        <time>2021-08-15T08:58:57.949Z</time>
      </trkpt>
      <trkpt lat="43.66243" lon="-1.37378">
        <ele>8</ele>
        <time>2021-08-15T08:59:02.950Z</time>
      </trkpt>
      <trkpt lat="43.66223" lon="-1.37346">
        <ele>6</ele>
        <time>2021-08-15T08:59:07.942Z</time>
      </trkpt>
      <trkpt lat="43.66208" lon="-1.37321">
        <ele>6</ele>
        <time>2021-08-15T08:59:11.970Z</time>
      </trkpt>
      <trkpt lat="43.66188" lon="-1.37289">
        <ele>6</ele>
        <time>2021-08-15T08:59:16.972Z</time>
      </trkpt>
      <trkpt lat="43.66169" lon="-1.37263">
        <ele>6</ele>
        <time>2021-08-15T08:59:21.965Z</time>
      </trkpt>
      <trkpt lat="43.66151" lon="-1.3724">
        <ele>5</ele>
        <time>2021-08-15T08:59:26.958Z</time>
      </trkpt>
      <trkpt lat="43.66133" lon="-1.37232">
        <ele>5</ele>
        <time>2021-08-15T08:59:30.967Z</time>
      </trkpt>
      <trkpt lat="43.66126" lon="-1.37234">
        <ele>5</ele>
        <time>2021-08-15T08:59:35.962Z</time>
      </trkpt>
      <trkpt lat="43.66123" lon="-1.37234">
        <ele>6</ele>
        <time>2021-08-15T08:59:39.968Z</time>
      </trkpt>
      <trkpt lat="43.66123" lon="-1.37234">
        <ele>6</ele>
        <time>2021-08-15T08:59:44.943Z</time>
      </trkpt>
      <trkpt lat="43.66122" lon="-1.37235">
        <ele>6</ele>
        <time>2021-08-15T09:00:19.954Z</time>
      </trkpt>
      <trkpt lat="43.66122" lon="-1.37236">
        <ele>6</ele>
        <time>2021-08-15T09:00:23.967Z</time>
      </trkpt>
      <trkpt lat="43.66116" lon="-1.37228">
        <ele>6</ele>
        <time>2021-08-15T09:00:28.955Z</time>
      </trkpt>
      <trkpt lat="43.66111" lon="-1.37221">
        <ele>6</ele>
        <time>2021-08-15T09:00:32.961Z</time>
      </trkpt>
      <trkpt lat="43.66101" lon="-1.37209">
        <ele>6</ele>
        <time>2021-08-15T09:00:37.964Z</time>
      </trkpt>
      <trkpt lat="43.6609" lon="-1.37193">
        <ele>8</ele>
        <time>2021-08-15T09:00:42.944Z</time>
      </trkpt>
      <trkpt lat="43.66079" lon="-1.37183">
        <ele>8</ele>
        <time>2021-08-15T09:00:46.962Z</time>
      </trkpt>
      <trkpt lat="43.66067" lon="-1.37169">
        <ele>9</ele>
        <time>2021-08-15T09:00:51.946Z</time>
      </trkpt>
      <trkpt lat="43.66056" lon="-1.37155">
        <ele>9</ele>
        <time>2021-08-15T09:00:56.942Z</time>
      </trkpt>
      <trkpt lat="43.66045" lon="-1.37141">
        <ele>10</ele>
        <time>2021-08-15T09:01:01.946Z</time>
      </trkpt>
      <trkpt lat="43.66035" lon="-1.37128">
        <ele>12</ele>
        <time>2021-08-15T09:01:06.942Z</time>
      </trkpt>
      <trkpt lat="43.66025" lon="-1.37118">
        <ele>12</ele>
        <time>2021-08-15T09:01:11.943Z</time>
      </trkpt>
      <trkpt lat="43.66014" lon="-1.37106">
        <ele>12</ele>
        <time>2021-08-15T09:01:16.942Z</time>
      </trkpt>
      <trkpt lat="43.66004" lon="-1.37092">
        <ele>13</ele>
        <time>2021-08-15T09:01:21.945Z</time>
      </trkpt>
      <trkpt lat="43.65994" lon="-1.37081">
        <ele>13</ele>
        <time>2021-08-15T09:01:26.957Z</time>
      </trkpt>
      <trkpt lat="43.65984" lon="-1.37068">
        <ele>12</ele>
        <time>2021-08-15T09:01:31.955Z</time>
      </trkpt>
      <trkpt lat="43.65974" lon="-1.37054">
        <ele>12</ele>
        <time>2021-08-15T09:01:36.961Z</time>
      </trkpt>
      <trkpt lat="43.65962" lon="-1.37041">
        <ele>11</ele>
        <time>2021-08-15T09:01:41.952Z</time>
      </trkpt>
      <trkpt lat="43.65949" lon="-1.37024">
        <ele>12</ele>
        <time>2021-08-15T09:01:46.964Z</time>
      </trkpt>
      <trkpt lat="43.65937" lon="-1.37009">
        <ele>12</ele>
        <time>2021-08-15T09:01:51.960Z</time>
      </trkpt>
      <trkpt lat="43.65925" lon="-1.36993">
        <ele>14</ele>
        <time>2021-08-15T09:01:56.944Z</time>
      </trkpt>
      <trkpt lat="43.65915" lon="-1.36972">
        <ele>14</ele>
        <time>2021-08-15T09:02:01.946Z</time>
      </trkpt>
      <trkpt lat="43.65907" lon="-1.36949">
        <ele>14</ele>
        <time>2021-08-15T09:02:06.953Z</time>
      </trkpt>
      <trkpt lat="43.65901" lon="-1.36926">
        <ele>14</ele>
        <time>2021-08-15T09:02:11.945Z</time>
      </trkpt>
      <trkpt lat="43.65886" lon="-1.36884">
        <ele>14</ele>
        <time>2021-08-15T09:02:29.964Z</time>
      </trkpt>
      <trkpt lat="43.65884" lon="-1.36883">
        <ele>14</ele>
        <time>2021-08-15T09:02:44.967Z</time>
      </trkpt>
      <trkpt lat="43.6588" lon="-1.36866">
        <ele>13</ele>
        <time>2021-08-15T09:02:49.963Z</time>
      </trkpt>
      <trkpt lat="43.65882" lon="-1.36841">
        <ele>13</ele>
        <time>2021-08-15T09:02:54.962Z</time>
      </trkpt>
      <trkpt lat="43.65886" lon="-1.36813">
        <ele>13</ele>
        <time>2021-08-15T09:02:59.943Z</time>
      </trkpt>
      <trkpt lat="43.65882" lon="-1.36784">
        <ele>12</ele>
        <time>2021-08-15T09:03:04.944Z</time>
      </trkpt>
      <trkpt lat="43.65881" lon="-1.36763">
        <ele>11</ele>
        <time>2021-08-15T09:03:08.943Z</time>
      </trkpt>
      <trkpt lat="43.65878" lon="-1.36735">
        <ele>10</ele>
        <time>2021-08-15T09:03:13.946Z</time>
      </trkpt>
      <trkpt lat="43.65875" lon="-1.36713">
        <ele>10</ele>
        <time>2021-08-15T09:03:17.944Z</time>
      </trkpt>
      <trkpt lat="43.65873" lon="-1.36687">
        <ele>9</ele>
        <time>2021-08-15T09:03:22.952Z</time>
      </trkpt>
      <trkpt lat="43.6587" lon="-1.3666">
        <ele>9</ele>
        <time>2021-08-15T09:03:27.948Z</time>
      </trkpt>
      <trkpt lat="43.65867" lon="-1.36632">
        <ele>10</ele>
        <time>2021-08-15T09:03:32.941Z</time>
      </trkpt>
      <trkpt lat="43.65865" lon="-1.36611">
        <ele>10</ele>
        <time>2021-08-15T09:03:36.960Z</time>
      </trkpt>
      <trkpt lat="43.65863" lon="-1.36581">
        <ele>11</ele>
        <time>2021-08-15T09:03:41.961Z</time>
      </trkpt>
      <trkpt lat="43.6586" lon="-1.36551">
        <ele>12</ele>
        <time>2021-08-15T09:03:46.962Z</time>
      </trkpt>
      <trkpt lat="43.65858" lon="-1.36523">
        <ele>13</ele>
        <time>2021-08-15T09:03:51.961Z</time>
      </trkpt>
      <trkpt lat="43.65857" lon="-1.36495">
        <ele>13</ele>
        <time>2021-08-15T09:03:56.953Z</time>
      </trkpt>
      <trkpt lat="43.65854" lon="-1.36473">
        <ele>13</ele>
        <time>2021-08-15T09:04:00.969Z</time>
      </trkpt>
      <trkpt lat="43.6585" lon="-1.36445">
        <ele>13</ele>
        <time>2021-08-15T09:04:05.957Z</time>
      </trkpt>
      <trkpt lat="43.65848" lon="-1.36419">
        <ele>13</ele>
        <time>2021-08-15T09:04:10.952Z</time>
      </trkpt>
      <trkpt lat="43.65843" lon="-1.36394">
        <ele>13</ele>
        <time>2021-08-15T09:04:15.948Z</time>
      </trkpt>
      <trkpt lat="43.65839" lon="-1.36365">
        <ele>12</ele>
        <time>2021-08-15T09:04:20.952Z</time>
      </trkpt>
      <trkpt lat="43.65834" lon="-1.36337">
        <ele>12</ele>
        <time>2021-08-15T09:04:25.954Z</time>
      </trkpt>
      <trkpt lat="43.6583" lon="-1.36318">
        <ele>12</ele>
        <time>2021-08-15T09:04:30.950Z</time>
      </trkpt>
      <trkpt lat="43.65829" lon="-1.36312">
        <ele>12</ele>
        <time>2021-08-15T09:04:35.949Z</time>
      </trkpt>
      <trkpt lat="43.65838" lon="-1.36307">
        <ele>12</ele>
        <time>2021-08-15T09:05:00.960Z</time>
      </trkpt>
      <trkpt lat="43.65835" lon="-1.36292">
        <ele>12</ele>
        <time>2021-08-15T09:05:05.959Z</time>
      </trkpt>
      <trkpt lat="43.65831" lon="-1.3627">
        <ele>12</ele>
        <time>2021-08-15T09:05:10.949Z</time>
      </trkpt>
      <trkpt lat="43.65826" lon="-1.36245">
        <ele>12</ele>
        <time>2021-08-15T09:05:15.942Z</time>
      </trkpt>
      <trkpt lat="43.65822" lon="-1.36218">
        <ele>11</ele>
        <time>2021-08-15T09:05:20.944Z</time>
      </trkpt>
      <trkpt lat="43.65819" lon="-1.36189">
        <ele>9</ele>
        <time>2021-08-15T09:05:25.953Z</time>
      </trkpt>
      <trkpt lat="43.65815" lon="-1.36161">
        <ele>9</ele>
        <time>2021-08-15T09:05:30.956Z</time>
      </trkpt>
      <trkpt lat="43.65815" lon="-1.36134">
        <ele>10</ele>
        <time>2021-08-15T09:05:35.949Z</time>
      </trkpt>
      <trkpt lat="43.65816" lon="-1.36104">
        <ele>10</ele>
        <time>2021-08-15T09:05:40.945Z</time>
      </trkpt>
      <trkpt lat="43.65817" lon="-1.3608">
        <ele>10</ele>
        <time>2021-08-15T09:05:44.969Z</time>
      </trkpt>
      <trkpt lat="43.65828" lon="-1.36057">
        <ele>12</ele>
        <time>2021-08-15T09:05:49.950Z</time>
      </trkpt>
      <trkpt lat="43.65841" lon="-1.36049">
        <ele>12</ele>
        <time>2021-08-15T09:05:54.973Z</time>
      </trkpt>
      <trkpt lat="43.65844" lon="-1.36034">
        <ele>13</ele>
        <time>2021-08-15T09:05:59.968Z</time>
      </trkpt>
      <trkpt lat="43.65844" lon="-1.36024">
        <ele>13</ele>
        <time>2021-08-15T09:06:04.963Z</time>
      </trkpt>
      <trkpt lat="43.65849" lon="-1.36007">
        <ele>13</ele>
        <time>2021-08-15T09:06:09.961Z</time>
      </trkpt>
      <trkpt lat="43.65863" lon="-1.35997">
        <ele>13</ele>
        <time>2021-08-15T09:06:14.951Z</time>
      </trkpt>
      <trkpt lat="43.65869" lon="-1.35987">
        <ele>13</ele>
        <time>2021-08-15T09:06:19.960Z</time>
      </trkpt>
      <trkpt lat="43.65874" lon="-1.35971">
        <ele>12</ele>
        <time>2021-08-15T09:06:24.945Z</time>
      </trkpt>
      <trkpt lat="43.65888" lon="-1.3596">
        <ele>13</ele>
        <time>2021-08-15T09:06:29.950Z</time>
      </trkpt>
      <trkpt lat="43.65906" lon="-1.35946">
        <ele>12</ele>
        <time>2021-08-15T09:06:34.945Z</time>
      </trkpt>
      <trkpt lat="43.65919" lon="-1.35934">
        <ele>12</ele>
        <time>2021-08-15T09:06:38.951Z</time>
      </trkpt>
      <trkpt lat="43.65937" lon="-1.35921">
        <ele>11</ele>
        <time>2021-08-15T09:06:43.944Z</time>
      </trkpt>
      <trkpt lat="43.65953" lon="-1.35908">
        <ele>11</ele>
        <time>2021-08-15T09:06:48.938Z</time>
      </trkpt>
      <trkpt lat="43.65967" lon="-1.35896">
        <ele>11</ele>
        <time>2021-08-15T09:06:52.957Z</time>
      </trkpt>
      <trkpt lat="43.65985" lon="-1.35882">
        <ele>11</ele>
        <time>2021-08-15T09:06:57.963Z</time>
      </trkpt>
      <trkpt lat="43.66001" lon="-1.35865">
        <ele>11</ele>
        <time>2021-08-15T09:07:02.943Z</time>
      </trkpt>
      <trkpt lat="43.66011" lon="-1.35874">
        <ele>11</ele>
        <time>2021-08-15T09:07:06.956Z</time>
      </trkpt>
      <trkpt lat="43.66026" lon="-1.3588">
        <ele>12</ele>
        <time>2021-08-15T09:07:11.956Z</time>
      </trkpt>
      <trkpt lat="43.66041" lon="-1.35884">
        <ele>12</ele>
        <time>2021-08-15T09:07:16.954Z</time>
      </trkpt>
      <trkpt lat="43.66046" lon="-1.35863">
        <ele>12</ele>
        <time>2021-08-15T09:07:21.965Z</time>
      </trkpt>
      <trkpt lat="43.66052" lon="-1.35839">
        <ele>11</ele>
        <time>2021-08-15T09:07:26.946Z</time>
      </trkpt>
      <trkpt lat="43.66062" lon="-1.35822">
        <ele>11</ele>
        <time>2021-08-15T09:07:30.956Z</time>
      </trkpt>
      <trkpt lat="43.66074" lon="-1.35803">
        <ele>10</ele>
        <time>2021-08-15T09:07:35.943Z</time>
      </trkpt>
      <trkpt lat="43.66085" lon="-1.35783">
        <ele>11</ele>
        <time>2021-08-15T09:07:40.961Z</time>
      </trkpt>
      <trkpt lat="43.66094" lon="-1.35762">
        <ele>10</ele>
        <time>2021-08-15T09:07:45.943Z</time>
      </trkpt>
      <trkpt lat="43.66103" lon="-1.35733">
        <ele>10</ele>
        <time>2021-08-15T09:07:50.945Z</time>
      </trkpt>
      <trkpt lat="43.66113" lon="-1.35708">
        <ele>12</ele>
        <time>2021-08-15T09:07:55.943Z</time>
      </trkpt>
      <trkpt lat="43.66127" lon="-1.35697">
        <ele>12</ele>
        <time>2021-08-15T09:07:59.963Z</time>
      </trkpt>
      <trkpt lat="43.66148" lon="-1.35684">
        <ele>12</ele>
        <time>2021-08-15T09:08:04.959Z</time>
      </trkpt>
      <trkpt lat="43.66168" lon="-1.35672">
        <ele>14</ele>
        <time>2021-08-15T09:08:09.974Z</time>
      </trkpt>
      <trkpt lat="43.6619" lon="-1.35666">
        <ele>11</ele>
        <time>2021-08-15T09:08:14.958Z</time>
      </trkpt>
      <trkpt lat="43.6621" lon="-1.35658">
        <ele>9</ele>
        <time>2021-08-15T09:08:19.963Z</time>
      </trkpt>
      <trkpt lat="43.6623" lon="-1.35647">
        <ele>9</ele>
        <time>2021-08-15T09:08:24.964Z</time>
      </trkpt>
      <trkpt lat="43.6625" lon="-1.35637">
        <ele>9</ele>
        <time>2021-08-15T09:08:29.963Z</time>
      </trkpt>
      <trkpt lat="43.66271" lon="-1.35629">
        <ele>8</ele>
        <time>2021-08-15T09:08:34.949Z</time>
      </trkpt>
      <trkpt lat="43.66291" lon="-1.35613">
        <ele>8</ele>
        <time>2021-08-15T09:08:39.945Z</time>
      </trkpt>
      <trkpt lat="43.66313" lon="-1.35601">
        <ele>8</ele>
        <time>2021-08-15T09:08:44.945Z</time>
      </trkpt>
      <trkpt lat="43.66335" lon="-1.3559">
        <ele>9</ele>
        <time>2021-08-15T09:08:49.946Z</time>
      </trkpt>
      <trkpt lat="43.66356" lon="-1.35578">
        <ele>9</ele>
        <time>2021-08-15T09:08:54.944Z</time>
      </trkpt>
      <trkpt lat="43.66375" lon="-1.35563">
        <ele>9</ele>
        <time>2021-08-15T09:08:59.947Z</time>
      </trkpt>
      <trkpt lat="43.66391" lon="-1.35547">
        <ele>9</ele>
        <time>2021-08-15T09:09:04.944Z</time>
      </trkpt>
      <trkpt lat="43.66407" lon="-1.35532">
        <ele>9</ele>
        <time>2021-08-15T09:09:09.958Z</time>
      </trkpt>
      <trkpt lat="43.66424" lon="-1.35512">
        <ele>10</ele>
        <time>2021-08-15T09:09:14.960Z</time>
      </trkpt>
      <trkpt lat="43.6644" lon="-1.35495">
        <ele>12</ele>
        <time>2021-08-15T09:09:19.962Z</time>
      </trkpt>
      <trkpt lat="43.66455" lon="-1.35474">
        <ele>13</ele>
        <time>2021-08-15T09:09:24.960Z</time>
      </trkpt>
      <trkpt lat="43.66471" lon="-1.35453">
        <ele>14</ele>
        <time>2021-08-15T09:09:29.957Z</time>
      </trkpt>
      <trkpt lat="43.66488" lon="-1.35435">
        <ele>15</ele>
        <time>2021-08-15T09:09:34.956Z</time>
      </trkpt>
      <trkpt lat="43.66505" lon="-1.35414">
        <ele>13</ele>
        <time>2021-08-15T09:09:39.960Z</time>
      </trkpt>
      <trkpt lat="43.66521" lon="-1.35394">
        <ele>14</ele>
        <time>2021-08-15T09:09:44.945Z</time>
      </trkpt>
      <trkpt lat="43.66537" lon="-1.35376">
        <ele>14</ele>
        <time>2021-08-15T09:09:49.947Z</time>
      </trkpt>
      <trkpt lat="43.66553" lon="-1.35352">
        <ele>14</ele>
        <time>2021-08-15T09:09:54.943Z</time>
      </trkpt>
      <trkpt lat="43.66564" lon="-1.35334">
        <ele>12</ele>
        <time>2021-08-15T09:09:59.939Z</time>
      </trkpt>
      <trkpt lat="43.66574" lon="-1.35313">
        <ele>15</ele>
        <time>2021-08-15T09:10:04.941Z</time>
      </trkpt>
      <trkpt lat="43.66585" lon="-1.35294">
        <ele>15</ele>
        <time>2021-08-15T09:10:09.941Z</time>
      </trkpt>
      <trkpt lat="43.66598" lon="-1.35281">
        <ele>20</ele>
        <time>2021-08-15T09:10:14.940Z</time>
      </trkpt>
      <trkpt lat="43.66615" lon="-1.3527">
        <ele>20</ele>
        <time>2021-08-15T09:10:19.941Z</time>
      </trkpt>
      <trkpt lat="43.66637" lon="-1.35262">
        <ele>22</ele>
        <time>2021-08-15T09:10:24.952Z</time>
      </trkpt>
      <trkpt lat="43.66658" lon="-1.35252">
        <ele>20</ele>
        <time>2021-08-15T09:10:29.957Z</time>
      </trkpt>
      <trkpt lat="43.66682" lon="-1.35242">
        <ele>18</ele>
        <time>2021-08-15T09:10:34.957Z</time>
      </trkpt>
      <trkpt lat="43.66704" lon="-1.35233">
        <ele>18</ele>
        <time>2021-08-15T09:10:39.953Z</time>
      </trkpt>
      <trkpt lat="43.66723" lon="-1.35221">
        <ele>18</ele>
        <time>2021-08-15T09:10:44.956Z</time>
      </trkpt>
      <trkpt lat="43.66733" lon="-1.35201">
        <ele>17</ele>
        <time>2021-08-15T09:10:49.956Z</time>
      </trkpt>
      <trkpt lat="43.66749" lon="-1.35192">
        <ele>16</ele>
        <time>2021-08-15T09:10:54.944Z</time>
      </trkpt>
      <trkpt lat="43.66764" lon="-1.35184">
        <ele>16</ele>
        <time>2021-08-15T09:10:58.947Z</time>
      </trkpt>
      <trkpt lat="43.66786" lon="-1.35176">
        <ele>17</ele>
        <time>2021-08-15T09:11:03.948Z</time>
      </trkpt>
      <trkpt lat="43.66805" lon="-1.35169">
        <ele>17</ele>
        <time>2021-08-15T09:11:08.939Z</time>
      </trkpt>
      <trkpt lat="43.66822" lon="-1.35163">
        <ele>18</ele>
        <time>2021-08-15T09:11:13.940Z</time>
      </trkpt>
      <trkpt lat="43.66843" lon="-1.35169">
        <ele>18</ele>
        <time>2021-08-15T09:11:18.942Z</time>
      </trkpt>
      <trkpt lat="43.66864" lon="-1.35178">
        <ele>20</ele>
        <time>2021-08-15T09:11:23.943Z</time>
      </trkpt>
      <trkpt lat="43.66886" lon="-1.35186">
        <ele>22</ele>
        <time>2021-08-15T09:11:28.958Z</time>
      </trkpt>
      <trkpt lat="43.66907" lon="-1.35194">
        <ele>20</ele>
        <time>2021-08-15T09:11:33.962Z</time>
      </trkpt>
      <trkpt lat="43.66931" lon="-1.35204">
        <ele>17</ele>
        <time>2021-08-15T09:11:38.944Z</time>
      </trkpt>
      <trkpt lat="43.6695" lon="-1.35213">
        <ele>16</ele>
        <time>2021-08-15T09:11:42.963Z</time>
      </trkpt>
      <trkpt lat="43.66966" lon="-1.35215">
        <ele>17</ele>
        <time>2021-08-15T09:11:47.960Z</time>
      </trkpt>
      <trkpt lat="43.66979" lon="-1.35205">
        <ele>18</ele>
        <time>2021-08-15T09:11:52.959Z</time>
      </trkpt>
      <trkpt lat="43.66992" lon="-1.35192">
        <ele>20</ele>
        <time>2021-08-15T09:11:57.959Z</time>
      </trkpt>
      <trkpt lat="43.67006" lon="-1.35176">
        <ele>19</ele>
        <time>2021-08-15T09:12:02.954Z</time>
      </trkpt>
      <trkpt lat="43.67024" lon="-1.35151">
        <ele>17</ele>
        <time>2021-08-15T09:12:07.942Z</time>
      </trkpt>
      <trkpt lat="43.67051" lon="-1.35137">
        <ele>16</ele>
        <time>2021-08-15T09:12:12.944Z</time>
      </trkpt>
      <trkpt lat="43.67073" lon="-1.35128">
        <ele>15</ele>
        <time>2021-08-15T09:12:17.940Z</time>
      </trkpt>
      <trkpt lat="43.67095" lon="-1.3512">
        <ele>15</ele>
        <time>2021-08-15T09:12:22.943Z</time>
      </trkpt>
      <trkpt lat="43.67116" lon="-1.35111">
        <ele>14</ele>
        <time>2021-08-15T09:12:27.949Z</time>
      </trkpt>
      <trkpt lat="43.67136" lon="-1.35101">
        <ele>14</ele>
        <time>2021-08-15T09:12:32.942Z</time>
      </trkpt>
      <trkpt lat="43.67154" lon="-1.35091">
        <ele>15</ele>
        <time>2021-08-15T09:12:37.955Z</time>
      </trkpt>
      <trkpt lat="43.67173" lon="-1.35083">
        <ele>15</ele>
        <time>2021-08-15T09:12:42.958Z</time>
      </trkpt>
      <trkpt lat="43.67195" lon="-1.35074">
        <ele>16</ele>
        <time>2021-08-15T09:12:47.955Z</time>
      </trkpt>
      <trkpt lat="43.67212" lon="-1.35069">
        <ele>16</ele>
        <time>2021-08-15T09:12:52.955Z</time>
      </trkpt>
      <trkpt lat="43.67221" lon="-1.35055">
        <ele>16</ele>
        <time>2021-08-15T09:12:57.971Z</time>
      </trkpt>
      <trkpt lat="43.67214" lon="-1.35038">
        <ele>17</ele>
        <time>2021-08-15T09:13:02.962Z</time>
      </trkpt>
      <trkpt lat="43.67205" lon="-1.35019">
        <ele>17</ele>
        <time>2021-08-15T09:13:07.965Z</time>
      </trkpt>
      <trkpt lat="43.67193" lon="-1.35001">
        <ele>17</ele>
        <time>2021-08-15T09:13:12.956Z</time>
      </trkpt>
      <trkpt lat="43.67183" lon="-1.34982">
        <ele>17</ele>
        <time>2021-08-15T09:13:17.941Z</time>
      </trkpt>
      <trkpt lat="43.67174" lon="-1.34967">
        <ele>16</ele>
        <time>2021-08-15T09:13:22.951Z</time>
      </trkpt>
      <trkpt lat="43.67172" lon="-1.34953">
        <ele>17</ele>
        <time>2021-08-15T09:13:27.952Z</time>
      </trkpt>
      <trkpt lat="43.67179" lon="-1.34942">
        <ele>17</ele>
        <time>2021-08-15T09:13:32.944Z</time>
      </trkpt>
      <trkpt lat="43.67185" lon="-1.34928">
        <ele>18</ele>
        <time>2021-08-15T09:13:37.944Z</time>
      </trkpt>
      <trkpt lat="43.67192" lon="-1.34915">
        <ele>18</ele>
        <time>2021-08-15T09:13:42.944Z</time>
      </trkpt>
      <trkpt lat="43.672" lon="-1.34902">
        <ele>18</ele>
        <time>2021-08-15T09:13:47.953Z</time>
      </trkpt>
      <trkpt lat="43.67208" lon="-1.34888">
        <ele>19</ele>
        <time>2021-08-15T09:13:52.971Z</time>
      </trkpt>
      <trkpt lat="43.67216" lon="-1.34877">
        <ele>19</ele>
        <time>2021-08-15T09:13:56.965Z</time>
      </trkpt>
      <trkpt lat="43.67224" lon="-1.34862">
        <ele>20</ele>
        <time>2021-08-15T09:14:01.968Z</time>
      </trkpt>
      <trkpt lat="43.67232" lon="-1.34847">
        <ele>20</ele>
        <time>2021-08-15T09:14:06.947Z</time>
      </trkpt>
      <trkpt lat="43.67242" lon="-1.34834">
        <ele>20</ele>
        <time>2021-08-15T09:14:11.957Z</time>
      </trkpt>
      <trkpt lat="43.6725" lon="-1.34818">
        <ele>21</ele>
        <time>2021-08-15T09:14:16.957Z</time>
      </trkpt>
      <trkpt lat="43.67252" lon="-1.34797">
        <ele>21</ele>
        <time>2021-08-15T09:14:21.972Z</time>
      </trkpt>
      <trkpt lat="43.67261" lon="-1.34782">
        <ele>21</ele>
        <time>2021-08-15T09:14:26.950Z</time>
      </trkpt>
      <trkpt lat="43.67271" lon="-1.34767">
        <ele>20</ele>
        <time>2021-08-15T09:14:31.944Z</time>
      </trkpt>
      <trkpt lat="43.6728" lon="-1.34751">
        <ele>21</ele>
        <time>2021-08-15T09:14:36.943Z</time>
      </trkpt>
      <trkpt lat="43.67289" lon="-1.34735">
        <ele>21</ele>
        <time>2021-08-15T09:14:41.945Z</time>
      </trkpt>
      <trkpt lat="43.67301" lon="-1.3472">
        <ele>22</ele>
        <time>2021-08-15T09:14:46.947Z</time>
      </trkpt>
      <trkpt lat="43.67309" lon="-1.34703">
        <ele>22</ele>
        <time>2021-08-15T09:14:51.952Z</time>
      </trkpt>
      <trkpt lat="43.67319" lon="-1.34685">
        <ele>22</ele>
        <time>2021-08-15T09:14:56.942Z</time>
      </trkpt>
      <trkpt lat="43.67328" lon="-1.34668">
        <ele>22</ele>
        <time>2021-08-15T09:15:01.960Z</time>
      </trkpt>
      <trkpt lat="43.67338" lon="-1.34651">
        <ele>22</ele>
        <time>2021-08-15T09:15:06.944Z</time>
      </trkpt>
      <trkpt lat="43.67345" lon="-1.34638">
        <ele>22</ele>
        <time>2021-08-15T09:15:10.957Z</time>
      </trkpt>
      <trkpt lat="43.67356" lon="-1.34621">
        <ele>23</ele>
        <time>2021-08-15T09:15:15.943Z</time>
      </trkpt>
      <trkpt lat="43.67362" lon="-1.34607">
        <ele>23</ele>
        <time>2021-08-15T09:15:19.961Z</time>
      </trkpt>
      <trkpt lat="43.67363" lon="-1.34587">
        <ele>23</ele>
        <time>2021-08-15T09:15:24.955Z</time>
      </trkpt>
      <trkpt lat="43.67355" lon="-1.34569">
        <ele>24</ele>
        <time>2021-08-15T09:15:29.981Z</time>
      </trkpt>
      <trkpt lat="43.67346" lon="-1.34552">
        <ele>26</ele>
        <time>2021-08-15T09:15:34.950Z</time>
      </trkpt>
      <trkpt lat="43.67338" lon="-1.34541">
        <ele>28</ele>
        <time>2021-08-15T09:15:39.943Z</time>
      </trkpt>
      <trkpt lat="43.67336" lon="-1.34538">
        <ele>28</ele>
        <time>2021-08-15T09:15:44.952Z</time>
      </trkpt>
      <trkpt lat="43.67335" lon="-1.34537">
        <ele>28</ele>
        <time>2021-08-15T09:16:19.957Z</time>
      </trkpt>
      <trkpt lat="43.67332" lon="-1.34531">
        <ele>28</ele>
        <time>2021-08-15T09:16:24.949Z</time>
      </trkpt>
      <trkpt lat="43.67335" lon="-1.34522">
        <ele>28</ele>
        <time>2021-08-15T09:16:29.952Z</time>
      </trkpt>
      <trkpt lat="43.67343" lon="-1.34514">
        <ele>28</ele>
        <time>2021-08-15T09:16:33.968Z</time>
      </trkpt>
      <trkpt lat="43.67356" lon="-1.34497">
        <ele>29</ele>
        <time>2021-08-15T09:16:38.952Z</time>
      </trkpt>
      <trkpt lat="43.67372" lon="-1.34477">
        <ele>31</ele>
        <time>2021-08-15T09:16:43.944Z</time>
      </trkpt>
      <trkpt lat="43.67386" lon="-1.34461">
        <ele>27</ele>
        <time>2021-08-15T09:16:48.939Z</time>
      </trkpt>
      <trkpt lat="43.674" lon="-1.34446">
        <ele>27</ele>
        <time>2021-08-15T09:16:53.945Z</time>
      </trkpt>
      <trkpt lat="43.67414" lon="-1.34429">
        <ele>26</ele>
        <time>2021-08-15T09:16:58.938Z</time>
      </trkpt>
      <trkpt lat="43.67425" lon="-1.34417">
        <ele>26</ele>
        <time>2021-08-15T09:17:02.959Z</time>
      </trkpt>
      <trkpt lat="43.67442" lon="-1.34402">
        <ele>26</ele>
        <time>2021-08-15T09:17:07.947Z</time>
      </trkpt>
      <trkpt lat="43.67463" lon="-1.34393">
        <ele>25</ele>
        <time>2021-08-15T09:17:12.945Z</time>
      </trkpt>
      <trkpt lat="43.67483" lon="-1.34383">
        <ele>25</ele>
        <time>2021-08-15T09:17:17.952Z</time>
      </trkpt>
      <trkpt lat="43.67503" lon="-1.34372">
        <ele>24</ele>
        <time>2021-08-15T09:17:22.950Z</time>
      </trkpt>
      <trkpt lat="43.67523" lon="-1.34362">
        <ele>24</ele>
        <time>2021-08-15T09:17:27.953Z</time>
      </trkpt>
      <trkpt lat="43.67543" lon="-1.34351">
        <ele>24</ele>
        <time>2021-08-15T09:17:32.962Z</time>
      </trkpt>
      <trkpt lat="43.67562" lon="-1.3434">
        <ele>24</ele>
        <time>2021-08-15T09:17:37.953Z</time>
      </trkpt>
      <trkpt lat="43.67583" lon="-1.34329">
        <ele>25</ele>
        <time>2021-08-15T09:17:42.958Z</time>
      </trkpt>
      <trkpt lat="43.67604" lon="-1.34318">
        <ele>23</ele>
        <time>2021-08-15T09:17:47.963Z</time>
      </trkpt>
      <trkpt lat="43.67623" lon="-1.34307">
        <ele>23</ele>
        <time>2021-08-15T09:17:52.969Z</time>
      </trkpt>
      <trkpt lat="43.67644" lon="-1.34295">
        <ele>22</ele>
        <time>2021-08-15T09:17:57.948Z</time>
      </trkpt>
      <trkpt lat="43.67665" lon="-1.34284">
        <ele>22</ele>
        <time>2021-08-15T09:18:02.945Z</time>
      </trkpt>
      <trkpt lat="43.67686" lon="-1.34273">
        <ele>23</ele>
        <time>2021-08-15T09:18:07.946Z</time>
      </trkpt>
      <trkpt lat="43.67707" lon="-1.34263">
        <ele>23</ele>
        <time>2021-08-15T09:18:12.949Z</time>
      </trkpt>
      <trkpt lat="43.67728" lon="-1.34252">
        <ele>25</ele>
        <time>2021-08-15T09:18:17.947Z</time>
      </trkpt>
      <trkpt lat="43.67749" lon="-1.3424">
        <ele>25</ele>
        <time>2021-08-15T09:18:22.942Z</time>
      </trkpt>
      <trkpt lat="43.67769" lon="-1.34228">
        <ele>24</ele>
        <time>2021-08-15T09:18:27.949Z</time>
      </trkpt>
      <trkpt lat="43.67791" lon="-1.34217">
        <ele>24</ele>
        <time>2021-08-15T09:18:32.945Z</time>
      </trkpt>
      <trkpt lat="43.67808" lon="-1.34208">
        <ele>27</ele>
        <time>2021-08-15T09:18:36.963Z</time>
      </trkpt>
      <trkpt lat="43.67828" lon="-1.34198">
        <ele>28</ele>
        <time>2021-08-15T09:18:41.969Z</time>
      </trkpt>
      <trkpt lat="43.67847" lon="-1.34187">
        <ele>28</ele>
        <time>2021-08-15T09:18:46.964Z</time>
      </trkpt>
      <trkpt lat="43.67866" lon="-1.3417">
        <ele>26</ele>
        <time>2021-08-15T09:18:51.959Z</time>
      </trkpt>
      <trkpt lat="43.67884" lon="-1.34153">
        <ele>27</ele>
        <time>2021-08-15T09:18:56.941Z</time>
      </trkpt>
      <trkpt lat="43.67903" lon="-1.34135">
        <ele>27</ele>
        <time>2021-08-15T09:19:01.970Z</time>
      </trkpt>
      <trkpt lat="43.67921" lon="-1.34117">
        <ele>30</ele>
        <time>2021-08-15T09:19:06.942Z</time>
      </trkpt>
      <trkpt lat="43.6794" lon="-1.34101">
        <ele>33</ele>
        <time>2021-08-15T09:19:11.944Z</time>
      </trkpt>
      <trkpt lat="43.67955" lon="-1.34086">
        <ele>32</ele>
        <time>2021-08-15T09:19:16.938Z</time>
      </trkpt>
      <trkpt lat="43.67967" lon="-1.3407">
        <ele>35</ele>
        <time>2021-08-15T09:19:21.940Z</time>
      </trkpt>
      <trkpt lat="43.67979" lon="-1.34055">
        <ele>32</ele>
        <time>2021-08-15T09:19:26.942Z</time>
      </trkpt>
      <trkpt lat="43.67994" lon="-1.34042">
        <ele>35</ele>
        <time>2021-08-15T09:19:31.945Z</time>
      </trkpt>
      <trkpt lat="43.68017" lon="-1.3402">
        <ele>32</ele>
        <time>2021-08-15T09:19:36.941Z</time>
      </trkpt>
      <trkpt lat="43.6804" lon="-1.33997">
        <ele>30</ele>
        <time>2021-08-15T09:19:41.939Z</time>
      </trkpt>
      <trkpt lat="43.68062" lon="-1.3398">
        <ele>27</ele>
        <time>2021-08-15T09:19:46.952Z</time>
      </trkpt>
      <trkpt lat="43.6808" lon="-1.33961">
        <ele>28</ele>
        <time>2021-08-15T09:19:51.958Z</time>
      </trkpt>
      <trkpt lat="43.68099" lon="-1.33942">
        <ele>27</ele>
        <time>2021-08-15T09:19:56.953Z</time>
      </trkpt>
      <trkpt lat="43.68119" lon="-1.33925">
        <ele>26</ele>
        <time>2021-08-15T09:20:01.964Z</time>
      </trkpt>
      <trkpt lat="43.68138" lon="-1.3391">
        <ele>28</ele>
        <time>2021-08-15T09:20:06.959Z</time>
      </trkpt>
      <trkpt lat="43.68156" lon="-1.33894">
        <ele>29</ele>
        <time>2021-08-15T09:20:11.952Z</time>
      </trkpt>
      <trkpt lat="43.68175" lon="-1.33878">
        <ele>29</ele>
        <time>2021-08-15T09:20:16.960Z</time>
      </trkpt>
      <trkpt lat="43.68191" lon="-1.33863">
        <ele>30</ele>
        <time>2021-08-15T09:20:21.940Z</time>
      </trkpt>
      <trkpt lat="43.68205" lon="-1.33854">
        <ele>30</ele>
        <time>2021-08-15T09:20:25.950Z</time>
      </trkpt>
      <trkpt lat="43.68224" lon="-1.33842">
        <ele>28</ele>
        <time>2021-08-15T09:20:30.949Z</time>
      </trkpt>
      <trkpt lat="43.68242" lon="-1.33829">
        <ele>26</ele>
        <time>2021-08-15T09:20:35.943Z</time>
      </trkpt>
      <trkpt lat="43.68258" lon="-1.33817">
        <ele>27</ele>
        <time>2021-08-15T09:20:40.948Z</time>
      </trkpt>
      <trkpt lat="43.68274" lon="-1.33806">
        <ele>28</ele>
        <time>2021-08-15T09:20:45.941Z</time>
      </trkpt>
      <trkpt lat="43.68289" lon="-1.33795">
        <ele>28</ele>
        <time>2021-08-15T09:20:50.944Z</time>
      </trkpt>
      <trkpt lat="43.68304" lon="-1.33784">
        <ele>31</ele>
        <time>2021-08-15T09:20:55.945Z</time>
      </trkpt>
      <trkpt lat="43.68317" lon="-1.33775">
        <ele>31</ele>
        <time>2021-08-15T09:20:59.953Z</time>
      </trkpt>
      <trkpt lat="43.68332" lon="-1.33762">
        <ele>31</ele>
        <time>2021-08-15T09:21:04.938Z</time>
      </trkpt>
      <trkpt lat="43.6835" lon="-1.3375">
        <ele>31</ele>
        <time>2021-08-15T09:21:09.950Z</time>
      </trkpt>
      <trkpt lat="43.68368" lon="-1.33737">
        <ele>31</ele>
        <time>2021-08-15T09:21:14.960Z</time>
      </trkpt>
      <trkpt lat="43.68386" lon="-1.33724">
        <ele>30</ele>
        <time>2021-08-15T09:21:19.956Z</time>
      </trkpt>
      <trkpt lat="43.68402" lon="-1.3372">
        <ele>30</ele>
        <time>2021-08-15T09:21:24.963Z</time>
      </trkpt>
      <trkpt lat="43.68415" lon="-1.33714">
        <ele>29</ele>
        <time>2021-08-15T09:21:29.944Z</time>
      </trkpt>
      <trkpt lat="43.68427" lon="-1.33704">
        <ele>29</ele>
        <time>2021-08-15T09:21:33.947Z</time>
      </trkpt>
      <trkpt lat="43.68443" lon="-1.33692">
        <ele>30</ele>
        <time>2021-08-15T09:21:38.946Z</time>
      </trkpt>
      <trkpt lat="43.6846" lon="-1.33675">
        <ele>31</ele>
        <time>2021-08-15T09:21:43.943Z</time>
      </trkpt>
      <trkpt lat="43.68476" lon="-1.33659">
        <ele>31</ele>
        <time>2021-08-15T09:21:48.939Z</time>
      </trkpt>
      <trkpt lat="43.68493" lon="-1.33642">
        <ele>31</ele>
        <time>2021-08-15T09:21:53.937Z</time>
      </trkpt>
      <trkpt lat="43.6851" lon="-1.33626">
        <ele>31</ele>
        <time>2021-08-15T09:21:58.949Z</time>
      </trkpt>
      <trkpt lat="43.68528" lon="-1.3361">
        <ele>31</ele>
        <time>2021-08-15T09:22:03.944Z</time>
      </trkpt>
      <trkpt lat="43.68545" lon="-1.33594">
        <ele>30</ele>
        <time>2021-08-15T09:22:08.944Z</time>
      </trkpt>
      <trkpt lat="43.68562" lon="-1.33577">
        <ele>30</ele>
        <time>2021-08-15T09:22:13.952Z</time>
      </trkpt>
      <trkpt lat="43.68601" lon="-1.33542">
        <ele>31</ele>
        <time>2021-08-15T09:22:32.963Z</time>
      </trkpt>
      <trkpt lat="43.68608" lon="-1.33536">
        <ele>31</ele>
        <time>2021-08-15T09:22:37.961Z</time>
      </trkpt>
      <trkpt lat="43.6862" lon="-1.33525">
        <ele>31</ele>
        <time>2021-08-15T09:22:42.969Z</time>
      </trkpt>
      <trkpt lat="43.68634" lon="-1.3351">
        <ele>31</ele>
        <time>2021-08-15T09:22:47.942Z</time>
      </trkpt>
      <trkpt lat="43.68647" lon="-1.33496">
        <ele>31</ele>
        <time>2021-08-15T09:22:52.943Z</time>
      </trkpt>
      <trkpt lat="43.68657" lon="-1.33485">
        <ele>32</ele>
        <time>2021-08-15T09:22:57.955Z</time>
      </trkpt>
      <trkpt lat="43.68669" lon="-1.33474">
        <ele>32</ele>
        <time>2021-08-15T09:23:02.945Z</time>
      </trkpt>
      <trkpt lat="43.68679" lon="-1.33478">
        <ele>32</ele>
        <time>2021-08-15T09:23:07.944Z</time>
      </trkpt>
      <trkpt lat="43.68682" lon="-1.33496">
        <ele>32</ele>
        <time>2021-08-15T09:23:12.942Z</time>
      </trkpt>
      <trkpt lat="43.68684" lon="-1.33516">
        <ele>31</ele>
        <time>2021-08-15T09:23:17.940Z</time>
      </trkpt>
      <trkpt lat="43.68686" lon="-1.33538">
        <ele>31</ele>
        <time>2021-08-15T09:23:22.944Z</time>
      </trkpt>
      <trkpt lat="43.68687" lon="-1.33554">
        <ele>30</ele>
        <time>2021-08-15T09:23:26.956Z</time>
      </trkpt>
      <trkpt lat="43.68689" lon="-1.33569">
        <ele>30</ele>
        <time>2021-08-15T09:23:31.965Z</time>
      </trkpt>
      <trkpt lat="43.68692" lon="-1.33575">
        <ele>31</ele>
        <time>2021-08-15T09:23:36.962Z</time>
      </trkpt>
      <trkpt lat="43.68702" lon="-1.33577">
        <ele>31</ele>
        <time>2021-08-15T09:23:41.961Z</time>
      </trkpt>
      <trkpt lat="43.68718" lon="-1.33581">
        <ele>31</ele>
        <time>2021-08-15T09:23:46.962Z</time>
      </trkpt>
      <trkpt lat="43.68736" lon="-1.33583">
        <ele>31</ele>
        <time>2021-08-15T09:23:51.965Z</time>
      </trkpt>
      <trkpt lat="43.6875" lon="-1.33586">
        <ele>30</ele>
        <time>2021-08-15T09:23:56.957Z</time>
      </trkpt>
      <trkpt lat="43.68766" lon="-1.33589">
        <ele>29</ele>
        <time>2021-08-15T09:24:01.944Z</time>
      </trkpt>
      <trkpt lat="43.68786" lon="-1.33593">
        <ele>29</ele>
        <time>2021-08-15T09:24:06.942Z</time>
      </trkpt>
      <trkpt lat="43.68808" lon="-1.33598">
        <ele>30</ele>
        <time>2021-08-15T09:24:11.944Z</time>
      </trkpt>
      <trkpt lat="43.68831" lon="-1.33602">
        <ele>29</ele>
        <time>2021-08-15T09:24:16.949Z</time>
      </trkpt>
      <trkpt lat="43.68856" lon="-1.33607">
        <ele>28</ele>
        <time>2021-08-15T09:24:21.941Z</time>
      </trkpt>
      <trkpt lat="43.68882" lon="-1.33612">
        <ele>28</ele>
        <time>2021-08-15T09:24:26.938Z</time>
      </trkpt>
      <trkpt lat="43.68907" lon="-1.33618">
        <ele>27</ele>
        <time>2021-08-15T09:24:31.945Z</time>
      </trkpt>
      <trkpt lat="43.68936" lon="-1.33625">
        <ele>26</ele>
        <time>2021-08-15T09:24:36.940Z</time>
      </trkpt>
      <trkpt lat="43.68962" lon="-1.3363">
        <ele>27</ele>
        <time>2021-08-15T09:24:41.965Z</time>
      </trkpt>
      <trkpt lat="43.6899" lon="-1.33635">
        <ele>27</ele>
        <time>2021-08-15T09:24:46.962Z</time>
      </trkpt>
      <trkpt lat="43.69013" lon="-1.33642">
        <ele>27</ele>
        <time>2021-08-15T09:24:51.962Z</time>
      </trkpt>
      <trkpt lat="43.69031" lon="-1.33648">
        <ele>27</ele>
        <time>2021-08-15T09:24:56.963Z</time>
      </trkpt>
      <trkpt lat="43.69035" lon="-1.33635">
        <ele>27</ele>
        <time>2021-08-15T09:25:01.958Z</time>
      </trkpt>
      <trkpt lat="43.69031" lon="-1.33615">
        <ele>27</ele>
        <time>2021-08-15T09:25:06.959Z</time>
      </trkpt>
      <trkpt lat="43.69027" lon="-1.33587">
        <ele>26</ele>
        <time>2021-08-15T09:25:11.968Z</time>
      </trkpt>
      <trkpt lat="43.69024" lon="-1.33553">
        <ele>25</ele>
        <time>2021-08-15T09:25:16.946Z</time>
      </trkpt>
      <trkpt lat="43.69026" lon="-1.33519">
        <ele>24</ele>
        <time>2021-08-15T09:25:21.944Z</time>
      </trkpt>
      <trkpt lat="43.6903" lon="-1.3348">
        <ele>24</ele>
        <time>2021-08-15T09:25:26.944Z</time>
      </trkpt>
      <trkpt lat="43.69031" lon="-1.33438">
        <ele>25</ele>
        <time>2021-08-15T09:25:31.946Z</time>
      </trkpt>
      <trkpt lat="43.69025" lon="-1.33402">
        <ele>25</ele>
        <time>2021-08-15T09:25:36.946Z</time>
      </trkpt>
      <trkpt lat="43.69017" lon="-1.33369">
        <ele>24</ele>
        <time>2021-08-15T09:25:41.942Z</time>
      </trkpt>
      <trkpt lat="43.6901" lon="-1.33337">
        <ele>24</ele>
        <time>2021-08-15T09:25:46.945Z</time>
      </trkpt>
      <trkpt lat="43.69015" lon="-1.33319">
        <ele>24</ele>
        <time>2021-08-15T09:25:51.941Z</time>
      </trkpt>
      <trkpt lat="43.69034" lon="-1.33304">
        <ele>24</ele>
        <time>2021-08-15T09:25:56.974Z</time>
      </trkpt>
      <trkpt lat="43.69055" lon="-1.33288">
        <ele>24</ele>
        <time>2021-08-15T09:26:01.941Z</time>
      </trkpt>
      <trkpt lat="43.69071" lon="-1.33277">
        <ele>24</ele>
        <time>2021-08-15T09:26:05.959Z</time>
      </trkpt>
      <trkpt lat="43.69088" lon="-1.33265">
        <ele>24</ele>
        <time>2021-08-15T09:26:10.963Z</time>
      </trkpt>
      <trkpt lat="43.691" lon="-1.33257">
        <ele>25</ele>
        <time>2021-08-15T09:26:15.955Z</time>
      </trkpt>
      <trkpt lat="43.69099" lon="-1.3324">
        <ele>25</ele>
        <time>2021-08-15T09:26:20.956Z</time>
      </trkpt>
      <trkpt lat="43.69094" lon="-1.33228">
        <ele>28</ele>
        <time>2021-08-15T09:26:25.961Z</time>
      </trkpt>
      <trkpt lat="43.6909" lon="-1.33218">
        <ele>28</ele>
        <time>2021-08-15T09:26:30.941Z</time>
      </trkpt>
      <trkpt lat="43.69088" lon="-1.33208">
        <ele>29</ele>
        <time>2021-08-15T09:26:35.947Z</time>
      </trkpt>
      <trkpt lat="43.69089" lon="-1.33207">
        <ele>29</ele>
        <time>2021-08-15T09:26:40.941Z</time>
      </trkpt>
      <trkpt lat="43.6909" lon="-1.33205">
        <ele>29</ele>
        <time>2021-08-15T09:26:44.951Z</time>
      </trkpt>
      <trkpt lat="43.69096" lon="-1.33198">
        <ele>29</ele>
        <time>2021-08-15T09:26:49.942Z</time>
      </trkpt>
      <trkpt lat="43.69105" lon="-1.3319">
        <ele>29</ele>
        <time>2021-08-15T09:26:54.941Z</time>
      </trkpt>
      <trkpt lat="43.69115" lon="-1.33184">
        <ele>29</ele>
        <time>2021-08-15T09:26:59.954Z</time>
      </trkpt>
      <trkpt lat="43.6912" lon="-1.33181">
        <ele>29</ele>
        <time>2021-08-15T09:27:04.943Z</time>
      </trkpt>
      <trkpt lat="43.69121" lon="-1.33183">
        <ele>29</ele>
        <time>2021-08-15T09:27:09.962Z</time>
      </trkpt>
      <trkpt lat="43.6912" lon="-1.33183">
        <ele>29</ele>
        <time>2021-08-15T09:29:43.949Z</time>
      </trkpt>
      <trkpt lat="43.69123" lon="-1.33181">
        <ele>29</ele>
        <time>2021-08-15T09:29:48.939Z</time>
      </trkpt>
      <trkpt lat="43.69126" lon="-1.33177">
        <ele>27</ele>
        <time>2021-08-15T09:29:52.981Z</time>
      </trkpt>
      <trkpt lat="43.69129" lon="-1.33172">
        <ele>27</ele>
        <time>2021-08-15T09:29:57.057Z</time>
      </trkpt>
      <trkpt lat="43.69134" lon="-1.33167">
        <ele>27</ele>
        <time>2021-08-15T09:30:01.947Z</time>
      </trkpt>
      <trkpt lat="43.6914" lon="-1.33168">
        <ele>27</ele>
        <time>2021-08-15T09:32:06.945Z</time>
      </trkpt>
      <trkpt lat="43.69134" lon="-1.3317">
        <ele>27</ele>
        <time>2021-08-15T09:32:11.963Z</time>
      </trkpt>
      <trkpt lat="43.69129" lon="-1.33172">
        <ele>27</ele>
        <time>2021-08-15T09:32:16.950Z</time>
      </trkpt>
      <trkpt lat="43.69124" lon="-1.33177">
        <ele>29</ele>
        <time>2021-08-15T09:32:21.951Z</time>
      </trkpt>
      <trkpt lat="43.69123" lon="-1.33178">
        <ele>29</ele>
        <time>2021-08-15T09:32:26.934Z</time>
      </trkpt>
      <trkpt lat="43.69122" lon="-1.33186">
        <ele>29</ele>
        <time>2021-08-15T09:35:49.941Z</time>
      </trkpt>
      <trkpt lat="43.69119" lon="-1.33187">
        <ele>29</ele>
        <time>2021-08-15T09:35:54.938Z</time>
      </trkpt>
      <trkpt lat="43.69115" lon="-1.33188">
        <ele>29</ele>
        <time>2021-08-15T09:35:59.932Z</time>
      </trkpt>
      <trkpt lat="43.69114" lon="-1.33192">
        <ele>29</ele>
        <time>2021-08-15T09:36:03.938Z</time>
      </trkpt>
      <trkpt lat="43.69119" lon="-1.33206">
        <ele>29</ele>
        <time>2021-08-15T09:36:08.948Z</time>
      </trkpt>
      <trkpt lat="43.69123" lon="-1.33227">
        <ele>28</ele>
        <time>2021-08-15T09:36:13.947Z</time>
      </trkpt>
      <trkpt lat="43.69112" lon="-1.33246">
        <ele>25</ele>
        <time>2021-08-15T09:36:18.958Z</time>
      </trkpt>
      <trkpt lat="43.69093" lon="-1.33268">
        <ele>24</ele>
        <time>2021-08-15T09:36:23.952Z</time>
      </trkpt>
      <trkpt lat="43.69067" lon="-1.33286">
        <ele>24</ele>
        <time>2021-08-15T09:36:28.931Z</time>
      </trkpt>
      <trkpt lat="43.69038" lon="-1.33305">
        <ele>24</ele>
        <time>2021-08-15T09:36:33.924Z</time>
      </trkpt>
      <trkpt lat="43.69018" lon="-1.33319">
        <ele>24</ele>
        <time>2021-08-15T09:36:37.939Z</time>
      </trkpt>
      <trkpt lat="43.69007" lon="-1.33325">
        <ele>24</ele>
        <time>2021-08-15T09:36:42.941Z</time>
      </trkpt>
      <trkpt lat="43.68999" lon="-1.33298">
        <ele>25</ele>
        <time>2021-08-15T09:36:47.938Z</time>
      </trkpt>
      <trkpt lat="43.6899" lon="-1.33256">
        <ele>26</ele>
        <time>2021-08-15T09:36:52.936Z</time>
      </trkpt>
      <trkpt lat="43.68984" lon="-1.33229">
        <ele>25</ele>
        <time>2021-08-15T09:36:57.935Z</time>
      </trkpt>
      <trkpt lat="43.68979" lon="-1.33227">
        <ele>25</ele>
        <time>2021-08-15T09:37:02.930Z</time>
      </trkpt>
      <trkpt lat="43.68955" lon="-1.33247">
        <ele>26</ele>
        <time>2021-08-15T09:37:07.938Z</time>
      </trkpt>
      <trkpt lat="43.68919" lon="-1.33278">
        <ele>26</ele>
        <time>2021-08-15T09:37:12.929Z</time>
      </trkpt>
      <trkpt lat="43.68888" lon="-1.33302">
        <ele>26</ele>
        <time>2021-08-15T09:37:16.930Z</time>
      </trkpt>
      <trkpt lat="43.68857" lon="-1.33322">
        <ele>28</ele>
        <time>2021-08-15T09:37:21.952Z</time>
      </trkpt>
      <trkpt lat="43.68823" lon="-1.33349">
        <ele>29</ele>
        <time>2021-08-15T09:37:26.957Z</time>
      </trkpt>
      <trkpt lat="43.68789" lon="-1.33374">
        <ele>30</ele>
        <time>2021-08-15T09:37:31.930Z</time>
      </trkpt>
      <trkpt lat="43.68773" lon="-1.3339">
        <ele>30</ele>
        <time>2021-08-15T09:37:36.944Z</time>
      </trkpt>
      <trkpt lat="43.68765" lon="-1.33403">
        <ele>30</ele>
        <time>2021-08-15T09:37:40.960Z</time>
      </trkpt>
      <trkpt lat="43.68734" lon="-1.33416">
        <ele>31</ele>
        <time>2021-08-15T09:37:45.944Z</time>
      </trkpt>
      <trkpt lat="43.68701" lon="-1.33455">
        <ele>32</ele>
        <time>2021-08-15T09:37:50.947Z</time>
      </trkpt>
      <trkpt lat="43.68692" lon="-1.33519">
        <ele>31</ele>
        <time>2021-08-15T09:37:55.931Z</time>
      </trkpt>
      <trkpt lat="43.68698" lon="-1.33575">
        <ele>31</ele>
        <time>2021-08-15T09:38:00.926Z</time>
      </trkpt>
      <trkpt lat="43.68703" lon="-1.33615">
        <ele>32</ele>
        <time>2021-08-15T09:38:04.940Z</time>
      </trkpt>
      <trkpt lat="43.68709" lon="-1.33681">
        <ele>29</ele>
        <time>2021-08-15T09:38:09.941Z</time>
      </trkpt>
      <trkpt lat="43.68715" lon="-1.33752">
        <ele>32</ele>
        <time>2021-08-15T09:38:14.942Z</time>
      </trkpt>
      <trkpt lat="43.6873" lon="-1.33822">
        <ele>33</ele>
        <time>2021-08-15T09:38:19.937Z</time>
      </trkpt>
      <trkpt lat="43.68753" lon="-1.339">
        <ele>31</ele>
        <time>2021-08-15T09:38:24.934Z</time>
      </trkpt>
      <trkpt lat="43.68766" lon="-1.33936">
        <ele>31</ele>
        <time>2021-08-15T09:38:29.929Z</time>
      </trkpt>
      <trkpt lat="43.68771" lon="-1.33944">
        <ele>31</ele>
        <time>2021-08-15T09:38:34.926Z</time>
      </trkpt>
      <trkpt lat="43.68771" lon="-1.33944">
        <ele>31</ele>
        <time>2021-08-15T09:38:38.944Z</time>
      </trkpt>
      <trkpt lat="43.68771" lon="-1.33945">
        <ele>31</ele>
        <time>2021-08-15T09:39:47.936Z</time>
      </trkpt>
      <trkpt lat="43.68777" lon="-1.33967">
        <ele>31</ele>
        <time>2021-08-15T09:39:52.932Z</time>
      </trkpt>
      <trkpt lat="43.6879" lon="-1.34002">
        <ele>30</ele>
        <time>2021-08-15T09:39:57.939Z</time>
      </trkpt>
      <trkpt lat="43.68794" lon="-1.3404">
        <ele>32</ele>
        <time>2021-08-15T09:40:01.929Z</time>
      </trkpt>
      <trkpt lat="43.68812" lon="-1.34097">
        <ele>31</ele>
        <time>2021-08-15T09:40:06.935Z</time>
      </trkpt>
      <trkpt lat="43.6883" lon="-1.34159">
        <ele>30</ele>
        <time>2021-08-15T09:40:11.938Z</time>
      </trkpt>
      <trkpt lat="43.68846" lon="-1.34222">
        <ele>33</ele>
        <time>2021-08-15T09:40:16.936Z</time>
      </trkpt>
      <trkpt lat="43.68866" lon="-1.34296">
        <ele>32</ele>
        <time>2021-08-15T09:40:21.929Z</time>
      </trkpt>
      <trkpt lat="43.68891" lon="-1.34381">
        <ele>35</ele>
        <time>2021-08-15T09:40:26.929Z</time>
      </trkpt>
      <trkpt lat="43.689" lon="-1.34468">
        <ele>35</ele>
        <time>2021-08-15T09:40:31.930Z</time>
      </trkpt>
      <trkpt lat="43.68888" lon="-1.34547">
        <ele>34</ele>
        <time>2021-08-15T09:40:36.929Z</time>
      </trkpt>
      <trkpt lat="43.68876" lon="-1.34627">
        <ele>30</ele>
        <time>2021-08-15T09:40:41.931Z</time>
      </trkpt>
      <trkpt lat="43.68862" lon="-1.34722">
        <ele>28</ele>
        <time>2021-08-15T09:40:46.927Z</time>
      </trkpt>
      <trkpt lat="43.68845" lon="-1.34826">
        <ele>27</ele>
        <time>2021-08-15T09:40:51.934Z</time>
      </trkpt>
      <trkpt lat="43.68834" lon="-1.34906">
        <ele>26</ele>
        <time>2021-08-15T09:40:55.941Z</time>
      </trkpt>
      <trkpt lat="43.68818" lon="-1.35009">
        <ele>23</ele>
        <time>2021-08-15T09:41:00.937Z</time>
      </trkpt>
      <trkpt lat="43.68804" lon="-1.35098">
        <ele>23</ele>
        <time>2021-08-15T09:41:05.945Z</time>
      </trkpt>
      <trkpt lat="43.68803" lon="-1.35148">
        <ele>23</ele>
        <time>2021-08-15T09:41:10.929Z</time>
      </trkpt>
      <trkpt lat="43.68789" lon="-1.352">
        <ele>21</ele>
        <time>2021-08-15T09:41:15.934Z</time>
      </trkpt>
      <trkpt lat="43.68778" lon="-1.35277">
        <ele>20</ele>
        <time>2021-08-15T09:41:20.937Z</time>
      </trkpt>
      <trkpt lat="43.68764" lon="-1.35372">
        <ele>19</ele>
        <time>2021-08-15T09:41:25.946Z</time>
      </trkpt>
      <trkpt lat="43.68752" lon="-1.35461">
        <ele>17</ele>
        <time>2021-08-15T09:41:30.941Z</time>
      </trkpt>
      <trkpt lat="43.68764" lon="-1.35536">
        <ele>18</ele>
        <time>2021-08-15T09:41:34.929Z</time>
      </trkpt>
      <trkpt lat="43.68787" lon="-1.35633">
        <ele>17</ele>
        <time>2021-08-15T09:41:39.926Z</time>
      </trkpt>
      <trkpt lat="43.68805" lon="-1.35724">
        <ele>17</ele>
        <time>2021-08-15T09:41:44.944Z</time>
      </trkpt>
      <trkpt lat="43.68816" lon="-1.35806">
        <ele>17</ele>
        <time>2021-08-15T09:41:49.940Z</time>
      </trkpt>
      <trkpt lat="43.68825" lon="-1.3586">
        <ele>15</ele>
        <time>2021-08-15T09:41:54.950Z</time>
      </trkpt>
      <trkpt lat="43.68831" lon="-1.35913">
        <ele>17</ele>
        <time>2021-08-15T09:41:59.926Z</time>
      </trkpt>
      <trkpt lat="43.6884" lon="-1.35986">
        <ele>18</ele>
        <time>2021-08-15T09:42:04.949Z</time>
      </trkpt>
      <trkpt lat="43.68851" lon="-1.36053">
        <ele>17</ele>
        <time>2021-08-15T09:42:09.928Z</time>
      </trkpt>
      <trkpt lat="43.68857" lon="-1.36093">
        <ele>17</ele>
        <time>2021-08-15T09:42:13.934Z</time>
      </trkpt>
      <trkpt lat="43.68864" lon="-1.3614">
        <ele>17</ele>
        <time>2021-08-15T09:42:17.945Z</time>
      </trkpt>
      <trkpt lat="43.68876" lon="-1.36225">
        <ele>18</ele>
        <time>2021-08-15T09:42:22.931Z</time>
      </trkpt>
      <trkpt lat="43.68888" lon="-1.36301">
        <ele>19</ele>
        <time>2021-08-15T09:42:27.924Z</time>
      </trkpt>
      <trkpt lat="43.68904" lon="-1.36342">
        <ele>19</ele>
        <time>2021-08-15T09:42:32.931Z</time>
      </trkpt>
      <trkpt lat="43.68902" lon="-1.3638">
        <ele>20</ele>
        <time>2021-08-15T09:42:37.925Z</time>
      </trkpt>
      <trkpt lat="43.68907" lon="-1.36441">
        <ele>20</ele>
        <time>2021-08-15T09:42:42.925Z</time>
      </trkpt>
      <trkpt lat="43.68914" lon="-1.36502">
        <ele>19</ele>
        <time>2021-08-15T09:42:46.944Z</time>
      </trkpt>
      <trkpt lat="43.68926" lon="-1.36584">
        <ele>18</ele>
        <time>2021-08-15T09:42:51.929Z</time>
      </trkpt>
      <trkpt lat="43.68936" lon="-1.36643">
        <ele>16</ele>
        <time>2021-08-15T09:42:55.942Z</time>
      </trkpt>
      <trkpt lat="43.68945" lon="-1.36695">
        <ele>20</ele>
        <time>2021-08-15T09:43:00.930Z</time>
      </trkpt>
      <trkpt lat="43.6895" lon="-1.36743">
        <ele>21</ele>
        <time>2021-08-15T09:43:05.937Z</time>
      </trkpt>
      <trkpt lat="43.68957" lon="-1.36807">
        <ele>18</ele>
        <time>2021-08-15T09:43:10.937Z</time>
      </trkpt>
      <trkpt lat="43.6897" lon="-1.36884">
        <ele>20</ele>
        <time>2021-08-15T09:43:15.941Z</time>
      </trkpt>
      <trkpt lat="43.68983" lon="-1.36964">
        <ele>19</ele>
        <time>2021-08-15T09:43:20.930Z</time>
      </trkpt>
      <trkpt lat="43.6899" lon="-1.37006">
        <ele>20</ele>
        <time>2021-08-15T09:43:24.959Z</time>
      </trkpt>
      <trkpt lat="43.68994" lon="-1.37036">
        <ele>20</ele>
        <time>2021-08-15T09:43:29.946Z</time>
      </trkpt>
      <trkpt lat="43.68999" lon="-1.37068">
        <ele>21</ele>
        <time>2021-08-15T09:43:34.924Z</time>
      </trkpt>
      <trkpt lat="43.69005" lon="-1.37116">
        <ele>20</ele>
        <time>2021-08-15T09:43:39.941Z</time>
      </trkpt>
      <trkpt lat="43.6901" lon="-1.37156">
        <ele>18</ele>
        <time>2021-08-15T09:43:44.932Z</time>
      </trkpt>
      <trkpt lat="43.69012" lon="-1.37196">
        <ele>18</ele>
        <time>2021-08-15T09:43:48.930Z</time>
      </trkpt>
      <trkpt lat="43.69009" lon="-1.37247">
        <ele>18</ele>
        <time>2021-08-15T09:43:53.940Z</time>
      </trkpt>
      <trkpt lat="43.6902" lon="-1.37285">
        <ele>18</ele>
        <time>2021-08-15T09:43:58.930Z</time>
      </trkpt>
      <trkpt lat="43.6903" lon="-1.37321">
        <ele>18</ele>
        <time>2021-08-15T09:44:03.933Z</time>
      </trkpt>
      <trkpt lat="43.69033" lon="-1.37333">
        <ele>18</ele>
        <time>2021-08-15T09:44:08.941Z</time>
      </trkpt>
      <trkpt lat="43.69035" lon="-1.37341">
        <ele>18</ele>
        <time>2021-08-15T09:44:13.930Z</time>
      </trkpt>
      <trkpt lat="43.69039" lon="-1.37354">
        <ele>19</ele>
        <time>2021-08-15T09:44:18.924Z</time>
      </trkpt>
      <trkpt lat="43.6904" lon="-1.37357">
        <ele>19</ele>
        <time>2021-08-15T09:44:23.924Z</time>
      </trkpt>
      <trkpt lat="43.69046" lon="-1.37373">
        <ele>20</ele>
        <time>2021-08-15T09:45:22.925Z</time>
      </trkpt>
      <trkpt lat="43.69048" lon="-1.37378">
        <ele>20</ele>
        <time>2021-08-15T09:45:31.934Z</time>
      </trkpt>
      <trkpt lat="43.69052" lon="-1.37389">
        <ele>20</ele>
        <time>2021-08-15T09:45:36.929Z</time>
      </trkpt>
      <trkpt lat="43.69053" lon="-1.37389">
        <ele>20</ele>
        <time>2021-08-15T09:45:41.932Z</time>
      </trkpt>
      <trkpt lat="43.69055" lon="-1.37397">
        <ele>20</ele>
        <time>2021-08-15T09:45:46.937Z</time>
      </trkpt>
      <trkpt lat="43.69055" lon="-1.37405">
        <ele>20</ele>
        <time>2021-08-15T09:45:51.931Z</time>
      </trkpt>
      <trkpt lat="43.69055" lon="-1.37405">
        <ele>20</ele>
        <time>2021-08-15T09:45:56.948Z</time>
      </trkpt>
      <trkpt lat="43.6904" lon="-1.37414">
        <ele>20</ele>
        <time>2021-08-15T09:46:11.941Z</time>
      </trkpt>
      <trkpt lat="43.69011" lon="-1.37419">
        <ele>20</ele>
        <time>2021-08-15T09:46:16.933Z</time>
      </trkpt>
      <trkpt lat="43.68993" lon="-1.37425">
        <ele>20</ele>
        <time>2021-08-15T09:46:21.930Z</time>
      </trkpt>
      <trkpt lat="43.68971" lon="-1.37433">
        <ele>20</ele>
        <time>2021-08-15T09:46:25.947Z</time>
      </trkpt>
      <trkpt lat="43.68941" lon="-1.37441">
        <ele>20</ele>
        <time>2021-08-15T09:46:30.927Z</time>
      </trkpt>
      <trkpt lat="43.68909" lon="-1.37431">
        <ele>20</ele>
        <time>2021-08-15T09:46:35.931Z</time>
      </trkpt>
      <trkpt lat="43.68875" lon="-1.37418">
        <ele>22</ele>
        <time>2021-08-15T09:46:40.939Z</time>
      </trkpt>
      <trkpt lat="43.6884" lon="-1.3741">
        <ele>23</ele>
        <time>2021-08-15T09:46:45.947Z</time>
      </trkpt>
      <trkpt lat="43.68818" lon="-1.37399">
        <ele>22</ele>
        <time>2021-08-15T09:46:50.945Z</time>
      </trkpt>
      <trkpt lat="43.68795" lon="-1.37391">
        <ele>22</ele>
        <time>2021-08-15T09:46:55.941Z</time>
      </trkpt>
      <trkpt lat="43.68768" lon="-1.37384">
        <ele>20</ele>
        <time>2021-08-15T09:47:00.942Z</time>
      </trkpt>
      <trkpt lat="43.68744" lon="-1.3739">
        <ele>18</ele>
        <time>2021-08-15T09:47:05.934Z</time>
      </trkpt>
      <trkpt lat="43.68723" lon="-1.37394">
        <ele>17</ele>
        <time>2021-08-15T09:47:10.928Z</time>
      </trkpt>
      <trkpt lat="43.68715" lon="-1.37396">
        <ele>17</ele>
        <time>2021-08-15T09:47:15.942Z</time>
      </trkpt>
      <trkpt lat="43.68715" lon="-1.37396">
        <ele>17</ele>
        <time>2021-08-15T09:47:20.927Z</time>
      </trkpt>
      <trkpt lat="43.68715" lon="-1.37396">
        <ele>17</ele>
        <time>2021-08-15T09:47:25.927Z</time>
      </trkpt>
      <trkpt lat="43.68712" lon="-1.37397">
        <ele>17</ele>
        <time>2021-08-15T09:47:30.931Z</time>
      </trkpt>
      <trkpt lat="43.68696" lon="-1.37403">
        <ele>18</ele>
        <time>2021-08-15T09:47:34.945Z</time>
      </trkpt>
      <trkpt lat="43.68673" lon="-1.37411">
        <ele>19</ele>
        <time>2021-08-15T09:47:38.949Z</time>
      </trkpt>
      <trkpt lat="43.68636" lon="-1.37422">
        <ele>19</ele>
        <time>2021-08-15T09:47:43.937Z</time>
      </trkpt>
      <trkpt lat="43.68583" lon="-1.3744">
        <ele>20</ele>
        <time>2021-08-15T09:47:48.940Z</time>
      </trkpt>
      <trkpt lat="43.68531" lon="-1.37464">
        <ele>21</ele>
        <time>2021-08-15T09:47:53.940Z</time>
      </trkpt>
      <trkpt lat="43.68483" lon="-1.37506">
        <ele>21</ele>
        <time>2021-08-15T09:47:58.932Z</time>
      </trkpt>
      <trkpt lat="43.68447" lon="-1.37539">
        <ele>24</ele>
        <time>2021-08-15T09:48:03.934Z</time>
      </trkpt>
      <trkpt lat="43.68425" lon="-1.3756">
        <ele>25</ele>
        <time>2021-08-15T09:48:08.945Z</time>
      </trkpt>
      <trkpt lat="43.68391" lon="-1.37591">
        <ele>24</ele>
        <time>2021-08-15T09:48:13.941Z</time>
      </trkpt>
      <trkpt lat="43.68337" lon="-1.37635">
        <ele>22</ele>
        <time>2021-08-15T09:48:18.934Z</time>
      </trkpt>
      <trkpt lat="43.68279" lon="-1.37685">
        <ele>24</ele>
        <time>2021-08-15T09:48:23.921Z</time>
      </trkpt>
      <trkpt lat="43.6824" lon="-1.37719">
        <ele>24</ele>
        <time>2021-08-15T09:48:27.951Z</time>
      </trkpt>
      <trkpt lat="43.6821" lon="-1.37749">
        <ele>27</ele>
        <time>2021-08-15T09:48:32.932Z</time>
      </trkpt>
      <trkpt lat="43.68187" lon="-1.37777">
        <ele>29</ele>
        <time>2021-08-15T09:48:37.936Z</time>
      </trkpt>
      <trkpt lat="43.68156" lon="-1.37815">
        <ele>33</ele>
        <time>2021-08-15T09:48:42.932Z</time>
      </trkpt>
      <trkpt lat="43.68116" lon="-1.37863">
        <ele>29</ele>
        <time>2021-08-15T09:48:47.932Z</time>
      </trkpt>
      <trkpt lat="43.68075" lon="-1.37911">
        <ele>25</ele>
        <time>2021-08-15T09:48:51.925Z</time>
      </trkpt>
      <trkpt lat="43.68032" lon="-1.37966">
        <ele>24</ele>
        <time>2021-08-15T09:48:56.933Z</time>
      </trkpt>
      <trkpt lat="43.67988" lon="-1.38035">
        <ele>23</ele>
        <time>2021-08-15T09:49:01.930Z</time>
      </trkpt>
      <trkpt lat="43.67945" lon="-1.38113">
        <ele>23</ele>
        <time>2021-08-15T09:49:06.930Z</time>
      </trkpt>
      <trkpt lat="43.67906" lon="-1.38185">
        <ele>22</ele>
        <time>2021-08-15T09:49:11.943Z</time>
      </trkpt>
      <trkpt lat="43.67866" lon="-1.38244">
        <ele>29</ele>
        <time>2021-08-15T09:49:16.928Z</time>
      </trkpt>
      <trkpt lat="43.6782" lon="-1.38304">
        <ele>31</ele>
        <time>2021-08-15T09:49:21.948Z</time>
      </trkpt>
      <trkpt lat="43.67771" lon="-1.38369">
        <ele>27</ele>
        <time>2021-08-15T09:49:26.935Z</time>
      </trkpt>
      <trkpt lat="43.6772" lon="-1.3843">
        <ele>27</ele>
        <time>2021-08-15T09:49:31.927Z</time>
      </trkpt>
      <trkpt lat="43.67685" lon="-1.38475">
        <ele>25</ele>
        <time>2021-08-15T09:49:35.935Z</time>
      </trkpt>
      <trkpt lat="43.67643" lon="-1.38526">
        <ele>29</ele>
        <time>2021-08-15T09:49:40.937Z</time>
      </trkpt>
      <trkpt lat="43.67593" lon="-1.38579">
        <ele>30</ele>
        <time>2021-08-15T09:49:45.931Z</time>
      </trkpt>
      <trkpt lat="43.67547" lon="-1.38631">
        <ele>31</ele>
        <time>2021-08-15T09:49:50.934Z</time>
      </trkpt>
      <trkpt lat="43.67502" lon="-1.38685">
        <ele>27</ele>
        <time>2021-08-15T09:49:55.938Z</time>
      </trkpt>
      <trkpt lat="43.67452" lon="-1.38746">
        <ele>20</ele>
        <time>2021-08-15T09:50:00.929Z</time>
      </trkpt>
      <trkpt lat="43.67417" lon="-1.38795">
        <ele>21</ele>
        <time>2021-08-15T09:50:05.940Z</time>
      </trkpt>
      <trkpt lat="43.67403" lon="-1.38823">
        <ele>22</ele>
        <time>2021-08-15T09:50:09.930Z</time>
      </trkpt>
      <trkpt lat="43.6738" lon="-1.38851">
        <ele>22</ele>
        <time>2021-08-15T09:50:14.932Z</time>
      </trkpt>
      <trkpt lat="43.67349" lon="-1.38892">
        <ele>20</ele>
        <time>2021-08-15T09:50:19.937Z</time>
      </trkpt>
      <trkpt lat="43.67312" lon="-1.38947">
        <ele>17</ele>
        <time>2021-08-15T09:50:24.932Z</time>
      </trkpt>
      <trkpt lat="43.67286" lon="-1.38993">
        <ele>17</ele>
        <time>2021-08-15T09:50:28.932Z</time>
      </trkpt>
      <trkpt lat="43.67253" lon="-1.39048">
        <ele>19</ele>
        <time>2021-08-15T09:50:33.933Z</time>
      </trkpt>
      <trkpt lat="43.67214" lon="-1.39095">
        <ele>17</ele>
        <time>2021-08-15T09:50:38.924Z</time>
      </trkpt>
      <trkpt lat="43.67176" lon="-1.39114">
        <ele>17</ele>
        <time>2021-08-15T09:50:42.952Z</time>
      </trkpt>
      <trkpt lat="43.67127" lon="-1.39128">
        <ele>16</ele>
        <time>2021-08-15T09:50:47.933Z</time>
      </trkpt>
      <trkpt lat="43.67102" lon="-1.39135">
        <ele>18</ele>
        <time>2021-08-15T09:50:51.940Z</time>
      </trkpt>
      <trkpt lat="43.67089" lon="-1.39144">
        <ele>18</ele>
        <time>2021-08-15T09:50:56.931Z</time>
      </trkpt>
      <trkpt lat="43.67067" lon="-1.39159">
        <ele>16</ele>
        <time>2021-08-15T09:51:01.931Z</time>
      </trkpt>
      <trkpt lat="43.67037" lon="-1.39182">
        <ele>19</ele>
        <time>2021-08-15T09:51:06.953Z</time>
      </trkpt>
      <trkpt lat="43.67001" lon="-1.39221">
        <ele>21</ele>
        <time>2021-08-15T09:51:11.931Z</time>
      </trkpt>
      <trkpt lat="43.66962" lon="-1.39267">
        <ele>25</ele>
        <time>2021-08-15T09:51:16.936Z</time>
      </trkpt>
      <trkpt lat="43.66919" lon="-1.393">
        <ele>18</ele>
        <time>2021-08-15T09:51:21.955Z</time>
      </trkpt>
      <trkpt lat="43.66876" lon="-1.39307">
        <ele>15</ele>
        <time>2021-08-15T09:51:26.949Z</time>
      </trkpt>
      <trkpt lat="43.66848" lon="-1.39308">
        <ele>15</ele>
        <time>2021-08-15T09:51:31.942Z</time>
      </trkpt>
      <trkpt lat="43.66815" lon="-1.39292">
        <ele>19</ele>
        <time>2021-08-15T09:51:36.928Z</time>
      </trkpt>
      <trkpt lat="43.66765" lon="-1.39285">
        <ele>24</ele>
        <time>2021-08-15T09:51:41.934Z</time>
      </trkpt>
      <trkpt lat="43.66718" lon="-1.39286">
        <ele>25</ele>
        <time>2021-08-15T09:51:46.937Z</time>
      </trkpt>
      <trkpt lat="43.66672" lon="-1.3927">
        <ele>28</ele>
        <time>2021-08-15T09:51:51.931Z</time>
      </trkpt>
      <trkpt lat="43.66645" lon="-1.3926">
        <ele>23</ele>
        <time>2021-08-15T09:51:55.948Z</time>
      </trkpt>
      <trkpt lat="43.66609" lon="-1.39267">
        <ele>25</ele>
        <time>2021-08-15T09:51:59.962Z</time>
      </trkpt>
      <trkpt lat="43.66561" lon="-1.39295">
        <ele>23</ele>
        <time>2021-08-15T09:52:04.936Z</time>
      </trkpt>
      <trkpt lat="43.66529" lon="-1.39314">
        <ele>18</ele>
        <time>2021-08-15T09:52:09.935Z</time>
      </trkpt>
      <trkpt lat="43.66501" lon="-1.39323">
        <ele>16</ele>
        <time>2021-08-15T09:52:14.937Z</time>
      </trkpt>
      <trkpt lat="43.66479" lon="-1.39329">
        <ele>15</ele>
        <time>2021-08-15T09:52:18.944Z</time>
      </trkpt>
      <trkpt lat="43.66452" lon="-1.39336">
        <ele>15</ele>
        <time>2021-08-15T09:52:23.932Z</time>
      </trkpt>
      <trkpt lat="43.66429" lon="-1.39342">
        <ele>16</ele>
        <time>2021-08-15T09:52:28.942Z</time>
      </trkpt>
      <trkpt lat="43.66421" lon="-1.39344">
        <ele>16</ele>
        <time>2021-08-15T09:52:33.933Z</time>
      </trkpt>
      <trkpt lat="43.66416" lon="-1.39348">
        <ele>16</ele>
        <time>2021-08-15T09:52:38.938Z</time>
      </trkpt>
      <trkpt lat="43.66415" lon="-1.39348">
        <ele>16</ele>
        <time>2021-08-15T09:52:42.932Z</time>
      </trkpt>
      <trkpt lat="43.66413" lon="-1.3935">
        <ele>16</ele>
        <time>2021-08-15T09:52:47.929Z</time>
      </trkpt>
      <trkpt lat="43.66412" lon="-1.39351">
        <ele>16</ele>
        <time>2021-08-15T09:52:51.930Z</time>
      </trkpt>
      <trkpt lat="43.66403" lon="-1.39362">
        <ele>16</ele>
        <time>2021-08-15T09:52:56.934Z</time>
      </trkpt>
      <trkpt lat="43.66398" lon="-1.39372">
        <ele>16</ele>
        <time>2021-08-15T09:53:01.935Z</time>
      </trkpt>
      <trkpt lat="43.66393" lon="-1.39386">
        <ele>17</ele>
        <time>2021-08-15T09:53:05.937Z</time>
      </trkpt>
      <trkpt lat="43.66387" lon="-1.39405">
        <ele>18</ele>
        <time>2021-08-15T09:53:10.934Z</time>
      </trkpt>
      <trkpt lat="43.66384" lon="-1.39424">
        <ele>18</ele>
        <time>2021-08-15T09:53:15.926Z</time>
      </trkpt>
      <trkpt lat="43.66383" lon="-1.39435">
        <ele>19</ele>
        <time>2021-08-15T09:53:19.937Z</time>
      </trkpt>
      <trkpt lat="43.66367" lon="-1.39458">
        <ele>18</ele>
        <time>2021-08-15T09:53:24.932Z</time>
      </trkpt>
      <trkpt lat="43.66351" lon="-1.39497">
        <ele>18</ele>
        <time>2021-08-15T09:53:28.923Z</time>
      </trkpt>
      <trkpt lat="43.66333" lon="-1.39549">
        <ele>15</ele>
        <time>2021-08-15T09:53:33.936Z</time>
      </trkpt>
      <trkpt lat="43.66328" lon="-1.39601">
        <ele>13</ele>
        <time>2021-08-15T09:53:37.951Z</time>
      </trkpt>
      <trkpt lat="43.66322" lon="-1.39664">
        <ele>12</ele>
        <time>2021-08-15T09:53:42.933Z</time>
      </trkpt>
      <trkpt lat="43.66311" lon="-1.39704">
        <ele>12</ele>
        <time>2021-08-15T09:53:46.932Z</time>
      </trkpt>
      <trkpt lat="43.66295" lon="-1.39755">
        <ele>11</ele>
        <time>2021-08-15T09:53:51.950Z</time>
      </trkpt>
      <trkpt lat="43.66277" lon="-1.39807">
        <ele>7</ele>
        <time>2021-08-15T09:53:56.933Z</time>
      </trkpt>
      <trkpt lat="43.66246" lon="-1.39845">
        <ele>7</ele>
        <time>2021-08-15T09:54:01.925Z</time>
      </trkpt>
      <trkpt lat="43.66199" lon="-1.39863">
        <ele>7</ele>
        <time>2021-08-15T09:54:06.932Z</time>
      </trkpt>
      <trkpt lat="43.66154" lon="-1.39881">
        <ele>11</ele>
        <time>2021-08-15T09:54:11.936Z</time>
      </trkpt>
      <trkpt lat="43.66122" lon="-1.39892">
        <ele>18</ele>
        <time>2021-08-15T09:54:15.932Z</time>
      </trkpt>
      <trkpt lat="43.66091" lon="-1.39897">
        <ele>15</ele>
        <time>2021-08-15T09:54:19.929Z</time>
      </trkpt>
      <trkpt lat="43.66049" lon="-1.39896">
        <ele>13</ele>
        <time>2021-08-15T09:54:24.943Z</time>
      </trkpt>
      <trkpt lat="43.66005" lon="-1.39914">
        <ele>11</ele>
        <time>2021-08-15T09:54:29.936Z</time>
      </trkpt>
      <trkpt lat="43.65967" lon="-1.3995">
        <ele>11</ele>
        <time>2021-08-15T09:54:34.945Z</time>
      </trkpt>
      <trkpt lat="43.65947" lon="-1.39974">
        <ele>13</ele>
        <time>2021-08-15T09:54:38.942Z</time>
      </trkpt>
      <trkpt lat="43.65927" lon="-1.40003">
        <ele>14</ele>
        <time>2021-08-15T09:54:43.951Z</time>
      </trkpt>
      <trkpt lat="43.6591" lon="-1.40032">
        <ele>15</ele>
        <time>2021-08-15T09:54:48.937Z</time>
      </trkpt>
      <trkpt lat="43.65892" lon="-1.40062">
        <ele>11</ele>
        <time>2021-08-15T09:54:53.933Z</time>
      </trkpt>
      <trkpt lat="43.65874" lon="-1.40091">
        <ele>7</ele>
        <time>2021-08-15T09:54:58.944Z</time>
      </trkpt>
      <trkpt lat="43.65858" lon="-1.40125">
        <ele>11</ele>
        <time>2021-08-15T09:55:03.936Z</time>
      </trkpt>
      <trkpt lat="43.65842" lon="-1.40163">
        <ele>9</ele>
        <time>2021-08-15T09:55:08.945Z</time>
      </trkpt>
      <trkpt lat="43.65825" lon="-1.402">
        <ele>8</ele>
        <time>2021-08-15T09:55:13.922Z</time>
      </trkpt>
      <trkpt lat="43.65808" lon="-1.4024">
        <ele>5</ele>
        <time>2021-08-15T09:55:18.927Z</time>
      </trkpt>
      <trkpt lat="43.65797" lon="-1.4029">
        <ele>7</ele>
        <time>2021-08-15T09:55:23.931Z</time>
      </trkpt>
      <trkpt lat="43.65791" lon="-1.40323">
        <ele>12</ele>
        <time>2021-08-15T09:55:28.924Z</time>
      </trkpt>
      <trkpt lat="43.65772" lon="-1.4033">
        <ele>12</ele>
        <time>2021-08-15T09:55:32.953Z</time>
      </trkpt>
      <trkpt lat="43.6575" lon="-1.4037">
        <ele>10</ele>
        <time>2021-08-15T09:55:37.935Z</time>
      </trkpt>
      <trkpt lat="43.65722" lon="-1.40435">
        <ele>10</ele>
        <time>2021-08-15T09:55:42.936Z</time>
      </trkpt>
      <trkpt lat="43.65694" lon="-1.40501">
        <ele>11</ele>
        <time>2021-08-15T09:55:47.928Z</time>
      </trkpt>
      <trkpt lat="43.65674" lon="-1.40557">
        <ele>10</ele>
        <time>2021-08-15T09:55:52.937Z</time>
      </trkpt>
      <trkpt lat="43.65659" lon="-1.40597">
        <ele>12</ele>
        <time>2021-08-15T09:55:57.932Z</time>
      </trkpt>
      <trkpt lat="43.65637" lon="-1.4065">
        <ele>11</ele>
        <time>2021-08-15T09:56:02.927Z</time>
      </trkpt>
      <trkpt lat="43.65602" lon="-1.4071">
        <ele>9</ele>
        <time>2021-08-15T09:56:07.929Z</time>
      </trkpt>
      <trkpt lat="43.65562" lon="-1.40771">
        <ele>6</ele>
        <time>2021-08-15T09:56:12.934Z</time>
      </trkpt>
      <trkpt lat="43.65526" lon="-1.4083">
        <ele>4</ele>
        <time>2021-08-15T09:56:17.934Z</time>
      </trkpt>
      <trkpt lat="43.65491" lon="-1.40886">
        <ele>4</ele>
        <time>2021-08-15T09:56:22.923Z</time>
      </trkpt>
      <trkpt lat="43.65466" lon="-1.40925">
        <ele>7</ele>
        <time>2021-08-15T09:56:26.945Z</time>
      </trkpt>
      <trkpt lat="43.65442" lon="-1.40953">
        <ele>10</ele>
        <time>2021-08-15T09:56:31.937Z</time>
      </trkpt>
      <trkpt lat="43.65435" lon="-1.40971">
        <ele>10</ele>
        <time>2021-08-15T09:56:36.947Z</time>
      </trkpt>
      <trkpt lat="43.65412" lon="-1.41002">
        <ele>9</ele>
        <time>2021-08-15T09:56:41.930Z</time>
      </trkpt>
      <trkpt lat="43.65379" lon="-1.41055">
        <ele>6</ele>
        <time>2021-08-15T09:56:46.932Z</time>
      </trkpt>
      <trkpt lat="43.65343" lon="-1.41112">
        <ele>9</ele>
        <time>2021-08-15T09:56:51.942Z</time>
      </trkpt>
      <trkpt lat="43.65306" lon="-1.41172">
        <ele>13</ele>
        <time>2021-08-15T09:56:56.941Z</time>
      </trkpt>
      <trkpt lat="43.65284" lon="-1.41206">
        <ele>17</ele>
        <time>2021-08-15T09:57:00.932Z</time>
      </trkpt>
      <trkpt lat="43.65264" lon="-1.41226">
        <ele>15</ele>
        <time>2021-08-15T09:57:05.948Z</time>
      </trkpt>
      <trkpt lat="43.65244" lon="-1.41246">
        <ele>19</ele>
        <time>2021-08-15T09:57:10.945Z</time>
      </trkpt>
      <trkpt lat="43.65213" lon="-1.41267">
        <ele>18</ele>
        <time>2021-08-15T09:57:15.944Z</time>
      </trkpt>
    </trkseg>
  </trk>
</gpx>